<?xml version="1.0" encoding="UTF-8" standalone="no" ?>
<gpx xmlns="http://www.topografix.com/GPX/1/1" xmlns:xsi="http://www.w3.org/2001/XMLSchema-instance" xsi:schemaLocation="http://www.topografix.com/GPX/1/1 http://www.topografix.com/GPX/1/1/gpx.xsd" version="1.1" creator="VisuGPX - https://www.visugpx.com">
  <metadata>
    <name>Petite boucle sympa</name>
    <desc><![CDATA[On commence par une bonne montée pour se chauffer les jambes puis descente sur route avant de prendre un chemin de foret en descente assez rapide et fun ]]></desc>
  </metadata>
  <trk>
    <name><![CDATA[Petite boucle du matin]]></name>
    <trkseg>
      <trkpt lat="45.43813" lon="5.77391">
        <ele>411</ele>
        <time>2019-04-18T09:14:30Z</time>
      </trkpt>
      <trkpt lat="45.43812" lon="5.77387">
        <ele>411</ele>
        <time>2019-04-18T09:14:43Z</time>
      </trkpt>
      <trkpt lat="45.4381" lon="5.77383">
        <ele>411</ele>
        <time>2019-04-18T09:14:48Z</time>
      </trkpt>
      <trkpt lat="45.43812" lon="5.77388">
        <ele>411</ele>
        <time>2019-04-18T09:15:05Z</time>
      </trkpt>
      <trkpt lat="45.4381" lon="5.77392">
        <ele>411</ele>
        <time>2019-04-18T09:15:08Z</time>
      </trkpt>
      <trkpt lat="45.43809" lon="5.77397">
        <ele>411</ele>
        <time>2019-04-18T09:15:19Z</time>
      </trkpt>
      <trkpt lat="45.43809" lon="5.77402">
        <ele>411</ele>
        <time>2019-04-18T09:15:21Z</time>
      </trkpt>
      <trkpt lat="45.4381" lon="5.77407">
        <ele>410.9</ele>
        <time>2019-04-18T09:15:23Z</time>
      </trkpt>
      <trkpt lat="45.43812" lon="5.77409">
        <ele>410.9</ele>
        <time>2019-04-18T09:15:26Z</time>
      </trkpt>
      <trkpt lat="45.43814" lon="5.77413">
        <ele>410.9</ele>
        <time>2019-04-18T09:15:28Z</time>
      </trkpt>
      <trkpt lat="45.43816" lon="5.77416">
        <ele>410.8</ele>
        <time>2019-04-18T09:15:36Z</time>
      </trkpt>
      <trkpt lat="45.4382" lon="5.77417">
        <ele>410.8</ele>
        <time>2019-04-18T09:15:39Z</time>
      </trkpt>
      <trkpt lat="45.43823" lon="5.77417">
        <ele>410.8</ele>
        <time>2019-04-18T09:15:41Z</time>
      </trkpt>
      <trkpt lat="45.43826" lon="5.77417">
        <ele>410.8</ele>
        <time>2019-04-18T09:15:43Z</time>
      </trkpt>
      <trkpt lat="45.4383" lon="5.77418">
        <ele>410.8</ele>
        <time>2019-04-18T09:15:45Z</time>
      </trkpt>
      <trkpt lat="45.43834" lon="5.7742">
        <ele>410.7</ele>
        <time>2019-04-18T09:15:47Z</time>
      </trkpt>
      <trkpt lat="45.43837" lon="5.77422">
        <ele>410.7</ele>
        <time>2019-04-18T09:15:48Z</time>
      </trkpt>
      <trkpt lat="45.4384" lon="5.77423">
        <ele>410.7</ele>
        <time>2019-04-18T09:15:49Z</time>
      </trkpt>
      <trkpt lat="45.43843" lon="5.77425">
        <ele>410.7</ele>
        <time>2019-04-18T09:15:50Z</time>
      </trkpt>
      <trkpt lat="45.43845" lon="5.77427">
        <ele>410.6</ele>
        <time>2019-04-18T09:15:52Z</time>
      </trkpt>
      <trkpt lat="45.43848" lon="5.77428">
        <ele>410.6</ele>
        <time>2019-04-18T09:15:55Z</time>
      </trkpt>
      <trkpt lat="45.4385" lon="5.77431">
        <ele>410.6</ele>
        <time>2019-04-18T09:15:57Z</time>
      </trkpt>
      <trkpt lat="45.43851" lon="5.77438">
        <ele>410.5</ele>
        <time>2019-04-18T09:15:59Z</time>
      </trkpt>
      <trkpt lat="45.43851" lon="5.77443">
        <ele>410.7</ele>
        <time>2019-04-18T09:16:00Z</time>
      </trkpt>
      <trkpt lat="45.4385" lon="5.77449">
        <ele>410.8</ele>
        <time>2019-04-18T09:16:01Z</time>
      </trkpt>
      <trkpt lat="45.43849" lon="5.77456">
        <ele>410.9</ele>
        <time>2019-04-18T09:16:02Z</time>
      </trkpt>
      <trkpt lat="45.43847" lon="5.77463">
        <ele>411.1</ele>
        <time>2019-04-18T09:16:03Z</time>
      </trkpt>
      <trkpt lat="45.43844" lon="5.77475">
        <ele>411.3</ele>
        <time>2019-04-18T09:16:04Z</time>
      </trkpt>
      <trkpt lat="45.43844" lon="5.77483">
        <ele>411.4</ele>
        <time>2019-04-18T09:16:05Z</time>
      </trkpt>
      <trkpt lat="45.43842" lon="5.77491">
        <ele>411.5</ele>
        <time>2019-04-18T09:16:06Z</time>
      </trkpt>
      <trkpt lat="45.4384" lon="5.77499">
        <ele>411.7</ele>
        <time>2019-04-18T09:16:07Z</time>
      </trkpt>
      <trkpt lat="45.43838" lon="5.77507">
        <ele>411.8</ele>
        <time>2019-04-18T09:16:08Z</time>
      </trkpt>
      <trkpt lat="45.43837" lon="5.77516">
        <ele>411.9</ele>
        <time>2019-04-18T09:16:09Z</time>
      </trkpt>
      <trkpt lat="45.43836" lon="5.77524">
        <ele>411.9</ele>
        <time>2019-04-18T09:16:10Z</time>
      </trkpt>
      <trkpt lat="45.43834" lon="5.77532">
        <ele>412</ele>
        <time>2019-04-18T09:16:11Z</time>
      </trkpt>
      <trkpt lat="45.43832" lon="5.77539">
        <ele>412.1</ele>
        <time>2019-04-18T09:16:12Z</time>
      </trkpt>
      <trkpt lat="45.4383" lon="5.77546">
        <ele>412.2</ele>
        <time>2019-04-18T09:16:13Z</time>
      </trkpt>
      <trkpt lat="45.43829" lon="5.77553">
        <ele>412.2</ele>
        <time>2019-04-18T09:16:14Z</time>
      </trkpt>
      <trkpt lat="45.43826" lon="5.7756">
        <ele>412.2</ele>
        <time>2019-04-18T09:16:15Z</time>
      </trkpt>
      <trkpt lat="45.43824" lon="5.77568">
        <ele>412.3</ele>
        <time>2019-04-18T09:16:16Z</time>
      </trkpt>
      <trkpt lat="45.43823" lon="5.77577">
        <ele>412.4</ele>
        <time>2019-04-18T09:16:17Z</time>
      </trkpt>
      <trkpt lat="45.4382" lon="5.77586">
        <ele>412.4</ele>
        <time>2019-04-18T09:16:18Z</time>
      </trkpt>
      <trkpt lat="45.43817" lon="5.77594">
        <ele>412.5</ele>
        <time>2019-04-18T09:16:19Z</time>
      </trkpt>
      <trkpt lat="45.43814" lon="5.77602">
        <ele>412.6</ele>
        <time>2019-04-18T09:16:20Z</time>
      </trkpt>
      <trkpt lat="45.43812" lon="5.77611">
        <ele>412.6</ele>
        <time>2019-04-18T09:16:21Z</time>
      </trkpt>
      <trkpt lat="45.43809" lon="5.77617">
        <ele>412.7</ele>
        <time>2019-04-18T09:16:22Z</time>
      </trkpt>
      <trkpt lat="45.43805" lon="5.77624">
        <ele>412.7</ele>
        <time>2019-04-18T09:16:23Z</time>
      </trkpt>
      <trkpt lat="45.43803" lon="5.7763">
        <ele>412.8</ele>
        <time>2019-04-18T09:16:24Z</time>
      </trkpt>
      <trkpt lat="45.43799" lon="5.77635">
        <ele>412.8</ele>
        <time>2019-04-18T09:16:25Z</time>
      </trkpt>
      <trkpt lat="45.43794" lon="5.77639">
        <ele>412.9</ele>
        <time>2019-04-18T09:16:26Z</time>
      </trkpt>
      <trkpt lat="45.43789" lon="5.77644">
        <ele>412.9</ele>
        <time>2019-04-18T09:16:27Z</time>
      </trkpt>
      <trkpt lat="45.43786" lon="5.77647">
        <ele>412.9</ele>
        <time>2019-04-18T09:16:28Z</time>
      </trkpt>
      <trkpt lat="45.4378" lon="5.7765">
        <ele>412.9</ele>
        <time>2019-04-18T09:16:30Z</time>
      </trkpt>
      <trkpt lat="45.43776" lon="5.7765">
        <ele>412.9</ele>
        <time>2019-04-18T09:16:32Z</time>
      </trkpt>
      <trkpt lat="45.43773" lon="5.77651">
        <ele>412.9</ele>
        <time>2019-04-18T09:17:30Z</time>
      </trkpt>
      <trkpt lat="45.43767" lon="5.77649">
        <ele>412.9</ele>
        <time>2019-04-18T09:17:32Z</time>
      </trkpt>
      <trkpt lat="45.43764" lon="5.77647">
        <ele>412.9</ele>
        <time>2019-04-18T09:17:33Z</time>
      </trkpt>
      <trkpt lat="45.4376" lon="5.77646">
        <ele>412.8</ele>
        <time>2019-04-18T09:17:34Z</time>
      </trkpt>
      <trkpt lat="45.43753" lon="5.77648">
        <ele>412.8</ele>
        <time>2019-04-18T09:17:35Z</time>
      </trkpt>
      <trkpt lat="45.43749" lon="5.77651">
        <ele>412.7</ele>
        <time>2019-04-18T09:17:36Z</time>
      </trkpt>
      <trkpt lat="45.43745" lon="5.77652">
        <ele>412.7</ele>
        <time>2019-04-18T09:17:37Z</time>
      </trkpt>
      <trkpt lat="45.43739" lon="5.77652">
        <ele>412.7</ele>
        <time>2019-04-18T09:17:38Z</time>
      </trkpt>
      <trkpt lat="45.43734" lon="5.77653">
        <ele>412.6</ele>
        <time>2019-04-18T09:17:39Z</time>
      </trkpt>
      <trkpt lat="45.4373" lon="5.77654">
        <ele>412.6</ele>
        <time>2019-04-18T09:17:40Z</time>
      </trkpt>
      <trkpt lat="45.43725" lon="5.77656">
        <ele>412.5</ele>
        <time>2019-04-18T09:17:41Z</time>
      </trkpt>
      <trkpt lat="45.43721" lon="5.77659">
        <ele>412.4</ele>
        <time>2019-04-18T09:17:42Z</time>
      </trkpt>
      <trkpt lat="45.43716" lon="5.77662">
        <ele>412.3</ele>
        <time>2019-04-18T09:17:43Z</time>
      </trkpt>
      <trkpt lat="45.4371" lon="5.77667">
        <ele>412.1</ele>
        <time>2019-04-18T09:17:44Z</time>
      </trkpt>
      <trkpt lat="45.43705" lon="5.77672">
        <ele>412</ele>
        <time>2019-04-18T09:17:45Z</time>
      </trkpt>
      <trkpt lat="45.437" lon="5.77677">
        <ele>411.8</ele>
        <time>2019-04-18T09:17:46Z</time>
      </trkpt>
      <trkpt lat="45.43696" lon="5.77682">
        <ele>411.7</ele>
        <time>2019-04-18T09:17:47Z</time>
      </trkpt>
      <trkpt lat="45.43691" lon="5.77688">
        <ele>411.7</ele>
        <time>2019-04-18T09:17:48Z</time>
      </trkpt>
      <trkpt lat="45.43686" lon="5.77693">
        <ele>411.6</ele>
        <time>2019-04-18T09:17:49Z</time>
      </trkpt>
      <trkpt lat="45.43682" lon="5.77697">
        <ele>411.6</ele>
        <time>2019-04-18T09:17:50Z</time>
      </trkpt>
      <trkpt lat="45.43679" lon="5.77704">
        <ele>411.5</ele>
        <time>2019-04-18T09:17:51Z</time>
      </trkpt>
      <trkpt lat="45.43676" lon="5.7771">
        <ele>411.4</ele>
        <time>2019-04-18T09:17:52Z</time>
      </trkpt>
      <trkpt lat="45.43673" lon="5.77719">
        <ele>411.4</ele>
        <time>2019-04-18T09:17:53Z</time>
      </trkpt>
      <trkpt lat="45.43671" lon="5.77727">
        <ele>411.3</ele>
        <time>2019-04-18T09:17:54Z</time>
      </trkpt>
      <trkpt lat="45.43668" lon="5.77736">
        <ele>411.2</ele>
        <time>2019-04-18T09:17:55Z</time>
      </trkpt>
      <trkpt lat="45.43666" lon="5.77746">
        <ele>411.2</ele>
        <time>2019-04-18T09:17:56Z</time>
      </trkpt>
      <trkpt lat="45.43664" lon="5.77755">
        <ele>411.1</ele>
        <time>2019-04-18T09:17:57Z</time>
      </trkpt>
      <trkpt lat="45.43661" lon="5.77763">
        <ele>411.1</ele>
        <time>2019-04-18T09:17:58Z</time>
      </trkpt>
      <trkpt lat="45.43659" lon="5.77773">
        <ele>411</ele>
        <time>2019-04-18T09:17:59Z</time>
      </trkpt>
      <trkpt lat="45.43657" lon="5.77782">
        <ele>411</ele>
        <time>2019-04-18T09:18:00Z</time>
      </trkpt>
      <trkpt lat="45.43655" lon="5.77791">
        <ele>410.9</ele>
        <time>2019-04-18T09:18:01Z</time>
      </trkpt>
      <trkpt lat="45.43653" lon="5.778">
        <ele>410.9</ele>
        <time>2019-04-18T09:18:02Z</time>
      </trkpt>
      <trkpt lat="45.43652" lon="5.77809">
        <ele>410.9</ele>
        <time>2019-04-18T09:18:03Z</time>
      </trkpt>
      <trkpt lat="45.43649" lon="5.77818">
        <ele>410.9</ele>
        <time>2019-04-18T09:18:04Z</time>
      </trkpt>
      <trkpt lat="45.43647" lon="5.77827">
        <ele>411.3</ele>
        <time>2019-04-18T09:18:05Z</time>
      </trkpt>
      <trkpt lat="45.43645" lon="5.77836">
        <ele>411.6</ele>
        <time>2019-04-18T09:18:06Z</time>
      </trkpt>
      <trkpt lat="45.43644" lon="5.77845">
        <ele>411.9</ele>
        <time>2019-04-18T09:18:07Z</time>
      </trkpt>
      <trkpt lat="45.43643" lon="5.77853">
        <ele>412.3</ele>
        <time>2019-04-18T09:18:08Z</time>
      </trkpt>
      <trkpt lat="45.43641" lon="5.77862">
        <ele>412.6</ele>
        <time>2019-04-18T09:18:09Z</time>
      </trkpt>
      <trkpt lat="45.4364" lon="5.77869">
        <ele>412.9</ele>
        <time>2019-04-18T09:18:10Z</time>
      </trkpt>
      <trkpt lat="45.4364" lon="5.77877">
        <ele>413.3</ele>
        <time>2019-04-18T09:18:11Z</time>
      </trkpt>
      <trkpt lat="45.43638" lon="5.77884">
        <ele>413.6</ele>
        <time>2019-04-18T09:18:12Z</time>
      </trkpt>
      <trkpt lat="45.43636" lon="5.77891">
        <ele>413.8</ele>
        <time>2019-04-18T09:18:13Z</time>
      </trkpt>
      <trkpt lat="45.43634" lon="5.77897">
        <ele>414.1</ele>
        <time>2019-04-18T09:18:14Z</time>
      </trkpt>
      <trkpt lat="45.43632" lon="5.77903">
        <ele>414.4</ele>
        <time>2019-04-18T09:18:15Z</time>
      </trkpt>
      <trkpt lat="45.43631" lon="5.77909">
        <ele>414.8</ele>
        <time>2019-04-18T09:18:16Z</time>
      </trkpt>
      <trkpt lat="45.43629" lon="5.77914">
        <ele>415.1</ele>
        <time>2019-04-18T09:18:17Z</time>
      </trkpt>
      <trkpt lat="45.43627" lon="5.7792">
        <ele>415.4</ele>
        <time>2019-04-18T09:18:18Z</time>
      </trkpt>
      <trkpt lat="45.43625" lon="5.77924">
        <ele>415.7</ele>
        <time>2019-04-18T09:18:19Z</time>
      </trkpt>
      <trkpt lat="45.43622" lon="5.77928">
        <ele>415.9</ele>
        <time>2019-04-18T09:18:20Z</time>
      </trkpt>
      <trkpt lat="45.43619" lon="5.77932">
        <ele>416.2</ele>
        <time>2019-04-18T09:18:21Z</time>
      </trkpt>
      <trkpt lat="45.43617" lon="5.77938">
        <ele>416.4</ele>
        <time>2019-04-18T09:18:22Z</time>
      </trkpt>
      <trkpt lat="45.43614" lon="5.7794">
        <ele>416.6</ele>
        <time>2019-04-18T09:18:23Z</time>
      </trkpt>
      <trkpt lat="45.4361" lon="5.77942">
        <ele>416.8</ele>
        <time>2019-04-18T09:18:24Z</time>
      </trkpt>
      <trkpt lat="45.43611" lon="5.77947">
        <ele>417</ele>
        <time>2019-04-18T09:18:25Z</time>
      </trkpt>
      <trkpt lat="45.43608" lon="5.7795">
        <ele>417.2</ele>
        <time>2019-04-18T09:18:26Z</time>
      </trkpt>
      <trkpt lat="45.43604" lon="5.77952">
        <ele>417.4</ele>
        <time>2019-04-18T09:18:27Z</time>
      </trkpt>
      <trkpt lat="45.43601" lon="5.77952">
        <ele>417.7</ele>
        <time>2019-04-18T09:18:28Z</time>
      </trkpt>
      <trkpt lat="45.43596" lon="5.77954">
        <ele>418.2</ele>
        <time>2019-04-18T09:18:30Z</time>
      </trkpt>
      <trkpt lat="45.43593" lon="5.77956">
        <ele>418.5</ele>
        <time>2019-04-18T09:18:31Z</time>
      </trkpt>
      <trkpt lat="45.43589" lon="5.77957">
        <ele>418.8</ele>
        <time>2019-04-18T09:18:32Z</time>
      </trkpt>
      <trkpt lat="45.43586" lon="5.77958">
        <ele>419.1</ele>
        <time>2019-04-18T09:18:33Z</time>
      </trkpt>
      <trkpt lat="45.43584" lon="5.77958">
        <ele>419.3</ele>
        <time>2019-04-18T09:18:34Z</time>
      </trkpt>
      <trkpt lat="45.4358" lon="5.77959">
        <ele>419.6</ele>
        <time>2019-04-18T09:18:36Z</time>
      </trkpt>
      <trkpt lat="45.43576" lon="5.77959">
        <ele>420</ele>
        <time>2019-04-18T09:18:38Z</time>
      </trkpt>
      <trkpt lat="45.43574" lon="5.77959">
        <ele>420.3</ele>
        <time>2019-04-18T09:18:39Z</time>
      </trkpt>
      <trkpt lat="45.43571" lon="5.77959">
        <ele>420.5</ele>
        <time>2019-04-18T09:18:40Z</time>
      </trkpt>
      <trkpt lat="45.43566" lon="5.77961">
        <ele>421</ele>
        <time>2019-04-18T09:18:42Z</time>
      </trkpt>
      <trkpt lat="45.43563" lon="5.77961">
        <ele>421.3</ele>
        <time>2019-04-18T09:18:43Z</time>
      </trkpt>
      <trkpt lat="45.43559" lon="5.77961">
        <ele>421.6</ele>
        <time>2019-04-18T09:18:44Z</time>
      </trkpt>
      <trkpt lat="45.43556" lon="5.77959">
        <ele>421.8</ele>
        <time>2019-04-18T09:18:46Z</time>
      </trkpt>
      <trkpt lat="45.43553" lon="5.77958">
        <ele>422</ele>
        <time>2019-04-18T09:18:48Z</time>
      </trkpt>
      <trkpt lat="45.43549" lon="5.77957">
        <ele>422.2</ele>
        <time>2019-04-18T09:18:50Z</time>
      </trkpt>
      <trkpt lat="45.43546" lon="5.77957">
        <ele>422.3</ele>
        <time>2019-04-18T09:18:52Z</time>
      </trkpt>
      <trkpt lat="45.43544" lon="5.77957">
        <ele>422.5</ele>
        <time>2019-04-18T09:18:55Z</time>
      </trkpt>
      <trkpt lat="45.43546" lon="5.77955">
        <ele>422.7</ele>
        <time>2019-04-18T09:19:04Z</time>
      </trkpt>
      <trkpt lat="45.43542" lon="5.77956">
        <ele>422.9</ele>
        <time>2019-04-18T09:19:18Z</time>
      </trkpt>
      <trkpt lat="45.43538" lon="5.77958">
        <ele>423.1</ele>
        <time>2019-04-18T09:19:20Z</time>
      </trkpt>
      <trkpt lat="45.43535" lon="5.7796">
        <ele>423.4</ele>
        <time>2019-04-18T09:19:21Z</time>
      </trkpt>
      <trkpt lat="45.43532" lon="5.77961">
        <ele>423.6</ele>
        <time>2019-04-18T09:19:22Z</time>
      </trkpt>
      <trkpt lat="45.43529" lon="5.77963">
        <ele>423.9</ele>
        <time>2019-04-18T09:19:23Z</time>
      </trkpt>
      <trkpt lat="45.43527" lon="5.77964">
        <ele>424.1</ele>
        <time>2019-04-18T09:19:24Z</time>
      </trkpt>
      <trkpt lat="45.43523" lon="5.77965">
        <ele>424.4</ele>
        <time>2019-04-18T09:19:26Z</time>
      </trkpt>
      <trkpt lat="45.4352" lon="5.77965">
        <ele>424.7</ele>
        <time>2019-04-18T09:19:27Z</time>
      </trkpt>
      <trkpt lat="45.43517" lon="5.77965">
        <ele>424.9</ele>
        <time>2019-04-18T09:19:28Z</time>
      </trkpt>
      <trkpt lat="45.43514" lon="5.77965">
        <ele>425.1</ele>
        <time>2019-04-18T09:19:29Z</time>
      </trkpt>
      <trkpt lat="45.4351" lon="5.77965">
        <ele>425.4</ele>
        <time>2019-04-18T09:19:30Z</time>
      </trkpt>
      <trkpt lat="45.43505" lon="5.77963">
        <ele>425.8</ele>
        <time>2019-04-18T09:19:32Z</time>
      </trkpt>
      <trkpt lat="45.435" lon="5.77961">
        <ele>426.3</ele>
        <time>2019-04-18T09:19:34Z</time>
      </trkpt>
      <trkpt lat="45.43498" lon="5.7796">
        <ele>426.5</ele>
        <time>2019-04-18T09:19:35Z</time>
      </trkpt>
      <trkpt lat="45.43494" lon="5.77959">
        <ele>426.9</ele>
        <time>2019-04-18T09:19:37Z</time>
      </trkpt>
      <trkpt lat="45.4349" lon="5.77956">
        <ele>427.3</ele>
        <time>2019-04-18T09:19:39Z</time>
      </trkpt>
      <trkpt lat="45.43486" lon="5.77954">
        <ele>427.8</ele>
        <time>2019-04-18T09:19:41Z</time>
      </trkpt>
      <trkpt lat="45.43482" lon="5.77951">
        <ele>428.4</ele>
        <time>2019-04-18T09:19:43Z</time>
      </trkpt>
      <trkpt lat="45.43479" lon="5.77949">
        <ele>428.7</ele>
        <time>2019-04-18T09:19:44Z</time>
      </trkpt>
      <trkpt lat="45.43476" lon="5.77947">
        <ele>429</ele>
        <time>2019-04-18T09:19:45Z</time>
      </trkpt>
      <trkpt lat="45.43473" lon="5.77946">
        <ele>429.2</ele>
        <time>2019-04-18T09:19:46Z</time>
      </trkpt>
      <trkpt lat="45.43471" lon="5.77944">
        <ele>429.4</ele>
        <time>2019-04-18T09:19:47Z</time>
      </trkpt>
      <trkpt lat="45.43466" lon="5.7794">
        <ele>429.8</ele>
        <time>2019-04-18T09:19:49Z</time>
      </trkpt>
      <trkpt lat="45.43464" lon="5.77939">
        <ele>430.1</ele>
        <time>2019-04-18T09:19:50Z</time>
      </trkpt>
      <trkpt lat="45.4346" lon="5.77936">
        <ele>430.4</ele>
        <time>2019-04-18T09:19:51Z</time>
      </trkpt>
      <trkpt lat="45.43457" lon="5.77935">
        <ele>430.7</ele>
        <time>2019-04-18T09:19:52Z</time>
      </trkpt>
      <trkpt lat="45.43453" lon="5.77933">
        <ele>431</ele>
        <time>2019-04-18T09:19:53Z</time>
      </trkpt>
      <trkpt lat="45.4345" lon="5.77931">
        <ele>431.2</ele>
        <time>2019-04-18T09:19:54Z</time>
      </trkpt>
      <trkpt lat="45.43447" lon="5.77929">
        <ele>431.5</ele>
        <time>2019-04-18T09:19:55Z</time>
      </trkpt>
      <trkpt lat="45.43444" lon="5.77927">
        <ele>431.7</ele>
        <time>2019-04-18T09:19:56Z</time>
      </trkpt>
      <trkpt lat="45.43441" lon="5.77925">
        <ele>432</ele>
        <time>2019-04-18T09:19:57Z</time>
      </trkpt>
      <trkpt lat="45.43439" lon="5.77923">
        <ele>432.2</ele>
        <time>2019-04-18T09:19:58Z</time>
      </trkpt>
      <trkpt lat="45.43436" lon="5.77921">
        <ele>432.4</ele>
        <time>2019-04-18T09:19:59Z</time>
      </trkpt>
      <trkpt lat="45.43432" lon="5.77918">
        <ele>432.8</ele>
        <time>2019-04-18T09:20:01Z</time>
      </trkpt>
      <trkpt lat="45.4343" lon="5.77915">
        <ele>433</ele>
        <time>2019-04-18T09:20:02Z</time>
      </trkpt>
      <trkpt lat="45.43428" lon="5.77912">
        <ele>433.2</ele>
        <time>2019-04-18T09:20:03Z</time>
      </trkpt>
      <trkpt lat="45.43426" lon="5.7791">
        <ele>433.4</ele>
        <time>2019-04-18T09:20:04Z</time>
      </trkpt>
      <trkpt lat="45.43424" lon="5.77906">
        <ele>433.7</ele>
        <time>2019-04-18T09:20:05Z</time>
      </trkpt>
      <trkpt lat="45.43422" lon="5.77904">
        <ele>433.9</ele>
        <time>2019-04-18T09:20:06Z</time>
      </trkpt>
      <trkpt lat="45.4342" lon="5.77901">
        <ele>434.1</ele>
        <time>2019-04-18T09:20:07Z</time>
      </trkpt>
      <trkpt lat="45.43416" lon="5.779">
        <ele>434.3</ele>
        <time>2019-04-18T09:20:09Z</time>
      </trkpt>
      <trkpt lat="45.43413" lon="5.77898">
        <ele>434.6</ele>
        <time>2019-04-18T09:20:11Z</time>
      </trkpt>
      <trkpt lat="45.43409" lon="5.77897">
        <ele>434.8</ele>
        <time>2019-04-18T09:20:13Z</time>
      </trkpt>
      <trkpt lat="45.43405" lon="5.77895">
        <ele>435.1</ele>
        <time>2019-04-18T09:20:15Z</time>
      </trkpt>
      <trkpt lat="45.43401" lon="5.77893">
        <ele>435.4</ele>
        <time>2019-04-18T09:20:17Z</time>
      </trkpt>
      <trkpt lat="45.43397" lon="5.77889">
        <ele>435.7</ele>
        <time>2019-04-18T09:20:19Z</time>
      </trkpt>
      <trkpt lat="45.43394" lon="5.77887">
        <ele>435.9</ele>
        <time>2019-04-18T09:20:21Z</time>
      </trkpt>
      <trkpt lat="45.4339" lon="5.77885">
        <ele>436.1</ele>
        <time>2019-04-18T09:20:23Z</time>
      </trkpt>
      <trkpt lat="45.43387" lon="5.77886">
        <ele>436.4</ele>
        <time>2019-04-18T09:20:25Z</time>
      </trkpt>
      <trkpt lat="45.43383" lon="5.77886">
        <ele>436.6</ele>
        <time>2019-04-18T09:20:27Z</time>
      </trkpt>
      <trkpt lat="45.43379" lon="5.77886">
        <ele>436.9</ele>
        <time>2019-04-18T09:20:29Z</time>
      </trkpt>
      <trkpt lat="45.43375" lon="5.77885">
        <ele>437.2</ele>
        <time>2019-04-18T09:20:31Z</time>
      </trkpt>
      <trkpt lat="45.4337" lon="5.77883">
        <ele>437.5</ele>
        <time>2019-04-18T09:20:33Z</time>
      </trkpt>
      <trkpt lat="45.43366" lon="5.7788">
        <ele>437.8</ele>
        <time>2019-04-18T09:20:35Z</time>
      </trkpt>
      <trkpt lat="45.43362" lon="5.77876">
        <ele>438.1</ele>
        <time>2019-04-18T09:20:37Z</time>
      </trkpt>
      <trkpt lat="45.43358" lon="5.77874">
        <ele>438.4</ele>
        <time>2019-04-18T09:20:39Z</time>
      </trkpt>
      <trkpt lat="45.43354" lon="5.7787">
        <ele>438.7</ele>
        <time>2019-04-18T09:20:41Z</time>
      </trkpt>
      <trkpt lat="45.43351" lon="5.77867">
        <ele>439</ele>
        <time>2019-04-18T09:20:43Z</time>
      </trkpt>
      <trkpt lat="45.43349" lon="5.77865">
        <ele>439.2</ele>
        <time>2019-04-18T09:20:44Z</time>
      </trkpt>
      <trkpt lat="45.43344" lon="5.77861">
        <ele>439.6</ele>
        <time>2019-04-18T09:20:46Z</time>
      </trkpt>
      <trkpt lat="45.43341" lon="5.77859">
        <ele>439.8</ele>
        <time>2019-04-18T09:20:47Z</time>
      </trkpt>
      <trkpt lat="45.43338" lon="5.77857">
        <ele>440</ele>
        <time>2019-04-18T09:20:48Z</time>
      </trkpt>
      <trkpt lat="45.43335" lon="5.77855">
        <ele>440.1</ele>
        <time>2019-04-18T09:20:50Z</time>
      </trkpt>
      <trkpt lat="45.43333" lon="5.77851">
        <ele>440.3</ele>
        <time>2019-04-18T09:20:53Z</time>
      </trkpt>
      <trkpt lat="45.4333" lon="5.77847">
        <ele>440.6</ele>
        <time>2019-04-18T09:20:55Z</time>
      </trkpt>
      <trkpt lat="45.43326" lon="5.77843">
        <ele>440.9</ele>
        <time>2019-04-18T09:20:57Z</time>
      </trkpt>
      <trkpt lat="45.43326" lon="5.77838">
        <ele>441</ele>
        <time>2019-04-18T09:21:23Z</time>
      </trkpt>
      <trkpt lat="45.43324" lon="5.77836">
        <ele>441.2</ele>
        <time>2019-04-18T09:21:25Z</time>
      </trkpt>
      <trkpt lat="45.4332" lon="5.77837">
        <ele>441.4</ele>
        <time>2019-04-18T09:21:29Z</time>
      </trkpt>
      <trkpt lat="45.43317" lon="5.77834">
        <ele>441.6</ele>
        <time>2019-04-18T09:21:31Z</time>
      </trkpt>
      <trkpt lat="45.43314" lon="5.77831">
        <ele>441.9</ele>
        <time>2019-04-18T09:21:34Z</time>
      </trkpt>
      <trkpt lat="45.43311" lon="5.77829">
        <ele>442.2</ele>
        <time>2019-04-18T09:21:36Z</time>
      </trkpt>
      <trkpt lat="45.43308" lon="5.77826">
        <ele>442.5</ele>
        <time>2019-04-18T09:21:38Z</time>
      </trkpt>
      <trkpt lat="45.43304" lon="5.77824">
        <ele>442.9</ele>
        <time>2019-04-18T09:21:40Z</time>
      </trkpt>
      <trkpt lat="45.433" lon="5.77822">
        <ele>443.2</ele>
        <time>2019-04-18T09:21:42Z</time>
      </trkpt>
      <trkpt lat="45.43296" lon="5.77818">
        <ele>443.5</ele>
        <time>2019-04-18T09:21:44Z</time>
      </trkpt>
      <trkpt lat="45.43294" lon="5.77815">
        <ele>443.7</ele>
        <time>2019-04-18T09:21:45Z</time>
      </trkpt>
      <trkpt lat="45.43292" lon="5.77813">
        <ele>443.9</ele>
        <time>2019-04-18T09:21:46Z</time>
      </trkpt>
      <trkpt lat="45.43289" lon="5.7781">
        <ele>444.1</ele>
        <time>2019-04-18T09:21:47Z</time>
      </trkpt>
      <trkpt lat="45.43286" lon="5.77807">
        <ele>444.3</ele>
        <time>2019-04-18T09:21:48Z</time>
      </trkpt>
      <trkpt lat="45.43284" lon="5.77802">
        <ele>444.6</ele>
        <time>2019-04-18T09:21:49Z</time>
      </trkpt>
      <trkpt lat="45.43282" lon="5.77798">
        <ele>444.8</ele>
        <time>2019-04-18T09:21:50Z</time>
      </trkpt>
      <trkpt lat="45.4328" lon="5.77793">
        <ele>445.1</ele>
        <time>2019-04-18T09:21:51Z</time>
      </trkpt>
      <trkpt lat="45.43278" lon="5.77788">
        <ele>445.3</ele>
        <time>2019-04-18T09:21:52Z</time>
      </trkpt>
      <trkpt lat="45.43276" lon="5.77785">
        <ele>445.5</ele>
        <time>2019-04-18T09:21:53Z</time>
      </trkpt>
      <trkpt lat="45.43276" lon="5.77777">
        <ele>445.8</ele>
        <time>2019-04-18T09:21:55Z</time>
      </trkpt>
      <trkpt lat="45.43279" lon="5.77777">
        <ele>446</ele>
        <time>2019-04-18T09:21:57Z</time>
      </trkpt>
      <trkpt lat="45.43281" lon="5.7778">
        <ele>446.2</ele>
        <time>2019-04-18T09:22:03Z</time>
      </trkpt>
      <trkpt lat="45.43277" lon="5.77778">
        <ele>446.4</ele>
        <time>2019-04-18T09:22:33Z</time>
      </trkpt>
      <trkpt lat="45.43273" lon="5.77777">
        <ele>446.7</ele>
        <time>2019-04-18T09:22:35Z</time>
      </trkpt>
      <trkpt lat="45.43269" lon="5.77773">
        <ele>446.9</ele>
        <time>2019-04-18T09:22:37Z</time>
      </trkpt>
      <trkpt lat="45.43267" lon="5.77767">
        <ele>447.2</ele>
        <time>2019-04-18T09:22:39Z</time>
      </trkpt>
      <trkpt lat="45.43265" lon="5.77763">
        <ele>447.5</ele>
        <time>2019-04-18T09:22:41Z</time>
      </trkpt>
      <trkpt lat="45.43261" lon="5.7776">
        <ele>447.8</ele>
        <time>2019-04-18T09:22:44Z</time>
      </trkpt>
      <trkpt lat="45.43258" lon="5.77758">
        <ele>448.1</ele>
        <time>2019-04-18T09:22:47Z</time>
      </trkpt>
      <trkpt lat="45.43255" lon="5.77756">
        <ele>448.4</ele>
        <time>2019-04-18T09:22:49Z</time>
      </trkpt>
      <trkpt lat="45.43253" lon="5.77754">
        <ele>448.7</ele>
        <time>2019-04-18T09:22:51Z</time>
      </trkpt>
      <trkpt lat="45.43249" lon="5.77752">
        <ele>449</ele>
        <time>2019-04-18T09:22:53Z</time>
      </trkpt>
      <trkpt lat="45.43245" lon="5.77749">
        <ele>449.5</ele>
        <time>2019-04-18T09:22:55Z</time>
      </trkpt>
      <trkpt lat="45.4324" lon="5.77748">
        <ele>450.1</ele>
        <time>2019-04-18T09:22:57Z</time>
      </trkpt>
      <trkpt lat="45.43235" lon="5.77747">
        <ele>450.6</ele>
        <time>2019-04-18T09:22:59Z</time>
      </trkpt>
      <trkpt lat="45.43233" lon="5.77746">
        <ele>450.9</ele>
        <time>2019-04-18T09:23:00Z</time>
      </trkpt>
      <trkpt lat="45.4323" lon="5.77745">
        <ele>451.4</ele>
        <time>2019-04-18T09:23:01Z</time>
      </trkpt>
      <trkpt lat="45.43227" lon="5.77743">
        <ele>451.8</ele>
        <time>2019-04-18T09:23:02Z</time>
      </trkpt>
      <trkpt lat="45.43225" lon="5.77742">
        <ele>452.2</ele>
        <time>2019-04-18T09:23:03Z</time>
      </trkpt>
      <trkpt lat="45.43222" lon="5.7774">
        <ele>452.7</ele>
        <time>2019-04-18T09:23:04Z</time>
      </trkpt>
      <trkpt lat="45.43219" lon="5.77739">
        <ele>453.1</ele>
        <time>2019-04-18T09:23:05Z</time>
      </trkpt>
      <trkpt lat="45.43216" lon="5.77737">
        <ele>453.5</ele>
        <time>2019-04-18T09:23:06Z</time>
      </trkpt>
      <trkpt lat="45.43211" lon="5.77735">
        <ele>454.2</ele>
        <time>2019-04-18T09:23:08Z</time>
      </trkpt>
      <trkpt lat="45.43209" lon="5.77733">
        <ele>454.5</ele>
        <time>2019-04-18T09:23:09Z</time>
      </trkpt>
      <trkpt lat="45.43207" lon="5.77731">
        <ele>454.9</ele>
        <time>2019-04-18T09:23:10Z</time>
      </trkpt>
      <trkpt lat="45.43202" lon="5.77727">
        <ele>455.5</ele>
        <time>2019-04-18T09:23:12Z</time>
      </trkpt>
      <trkpt lat="45.43198" lon="5.77723">
        <ele>456.1</ele>
        <time>2019-04-18T09:23:14Z</time>
      </trkpt>
      <trkpt lat="45.43196" lon="5.77722">
        <ele>456.5</ele>
        <time>2019-04-18T09:23:15Z</time>
      </trkpt>
      <trkpt lat="45.43191" lon="5.77719">
        <ele>457.3</ele>
        <time>2019-04-18T09:23:17Z</time>
      </trkpt>
      <trkpt lat="45.43187" lon="5.77717">
        <ele>457.9</ele>
        <time>2019-04-18T09:23:19Z</time>
      </trkpt>
      <trkpt lat="45.43184" lon="5.77712">
        <ele>458.4</ele>
        <time>2019-04-18T09:23:21Z</time>
      </trkpt>
      <trkpt lat="45.4318" lon="5.77707">
        <ele>459</ele>
        <time>2019-04-18T09:23:23Z</time>
      </trkpt>
      <trkpt lat="45.43179" lon="5.77702">
        <ele>459.3</ele>
        <time>2019-04-18T09:23:25Z</time>
      </trkpt>
      <trkpt lat="45.43177" lon="5.77697">
        <ele>459.6</ele>
        <time>2019-04-18T09:23:28Z</time>
      </trkpt>
      <trkpt lat="45.43175" lon="5.77694">
        <ele>459.9</ele>
        <time>2019-04-18T09:23:33Z</time>
      </trkpt>
      <trkpt lat="45.43174" lon="5.7769">
        <ele>460.1</ele>
        <time>2019-04-18T09:23:40Z</time>
      </trkpt>
      <trkpt lat="45.43171" lon="5.77687">
        <ele>460.4</ele>
        <time>2019-04-18T09:24:14Z</time>
      </trkpt>
      <trkpt lat="45.43169" lon="5.77682">
        <ele>460.7</ele>
        <time>2019-04-18T09:24:16Z</time>
      </trkpt>
      <trkpt lat="45.43167" lon="5.77676">
        <ele>461.1</ele>
        <time>2019-04-18T09:24:18Z</time>
      </trkpt>
      <trkpt lat="45.43165" lon="5.77673">
        <ele>461.3</ele>
        <time>2019-04-18T09:24:21Z</time>
      </trkpt>
      <trkpt lat="45.43163" lon="5.7767">
        <ele>461.4</ele>
        <time>2019-04-18T09:24:23Z</time>
      </trkpt>
      <trkpt lat="45.43161" lon="5.77666">
        <ele>461.6</ele>
        <time>2019-04-18T09:24:26Z</time>
      </trkpt>
      <trkpt lat="45.43159" lon="5.77662">
        <ele>461.8</ele>
        <time>2019-04-18T09:24:28Z</time>
      </trkpt>
      <trkpt lat="45.43157" lon="5.77659">
        <ele>461.9</ele>
        <time>2019-04-18T09:24:30Z</time>
      </trkpt>
      <trkpt lat="45.43155" lon="5.77656">
        <ele>462.1</ele>
        <time>2019-04-18T09:24:32Z</time>
      </trkpt>
      <trkpt lat="45.43153" lon="5.77652">
        <ele>462.3</ele>
        <time>2019-04-18T09:24:34Z</time>
      </trkpt>
      <trkpt lat="45.4315" lon="5.77647">
        <ele>462.5</ele>
        <time>2019-04-18T09:24:36Z</time>
      </trkpt>
      <trkpt lat="45.43148" lon="5.77643">
        <ele>462.7</ele>
        <time>2019-04-18T09:24:38Z</time>
      </trkpt>
      <trkpt lat="45.43146" lon="5.77638">
        <ele>463</ele>
        <time>2019-04-18T09:24:40Z</time>
      </trkpt>
      <trkpt lat="45.43144" lon="5.77633">
        <ele>463.2</ele>
        <time>2019-04-18T09:24:42Z</time>
      </trkpt>
      <trkpt lat="45.43141" lon="5.77627">
        <ele>461.3</ele>
        <time>2019-04-18T09:24:44Z</time>
      </trkpt>
      <trkpt lat="45.43139" lon="5.77622">
        <ele>461</ele>
        <time>2019-04-18T09:24:46Z</time>
      </trkpt>
      <trkpt lat="45.43137" lon="5.77616">
        <ele>460.7</ele>
        <time>2019-04-18T09:24:48Z</time>
      </trkpt>
      <trkpt lat="45.43134" lon="5.77611">
        <ele>460.3</ele>
        <time>2019-04-18T09:24:50Z</time>
      </trkpt>
      <trkpt lat="45.43132" lon="5.77607">
        <ele>459.1</ele>
        <time>2019-04-18T09:24:51Z</time>
      </trkpt>
      <trkpt lat="45.43129" lon="5.77601">
        <ele>456.6</ele>
        <time>2019-04-18T09:24:53Z</time>
      </trkpt>
      <trkpt lat="45.43127" lon="5.77598">
        <ele>457.9</ele>
        <time>2019-04-18T09:24:54Z</time>
      </trkpt>
      <trkpt lat="45.43124" lon="5.77595">
        <ele>457.2</ele>
        <time>2019-04-18T09:24:55Z</time>
      </trkpt>
      <trkpt lat="45.43122" lon="5.77592">
        <ele>456.6</ele>
        <time>2019-04-18T09:24:56Z</time>
      </trkpt>
      <trkpt lat="45.4312" lon="5.77589">
        <ele>455.9</ele>
        <time>2019-04-18T09:24:57Z</time>
      </trkpt>
      <trkpt lat="45.43117" lon="5.77586">
        <ele>456.5</ele>
        <time>2019-04-18T09:24:58Z</time>
      </trkpt>
      <trkpt lat="45.43115" lon="5.77584">
        <ele>456.1</ele>
        <time>2019-04-18T09:24:59Z</time>
      </trkpt>
      <trkpt lat="45.43112" lon="5.77581">
        <ele>457.5</ele>
        <time>2019-04-18T09:25:00Z</time>
      </trkpt>
      <trkpt lat="45.4311" lon="5.77578">
        <ele>457.2</ele>
        <time>2019-04-18T09:25:01Z</time>
      </trkpt>
      <trkpt lat="45.43107" lon="5.77575">
        <ele>457</ele>
        <time>2019-04-18T09:25:02Z</time>
      </trkpt>
      <trkpt lat="45.43104" lon="5.77572">
        <ele>458.5</ele>
        <time>2019-04-18T09:25:03Z</time>
      </trkpt>
      <trkpt lat="45.43101" lon="5.77569">
        <ele>458.2</ele>
        <time>2019-04-18T09:25:04Z</time>
      </trkpt>
      <trkpt lat="45.43102" lon="5.77577">
        <ele>461.3</ele>
        <time>2019-04-18T09:25:05Z</time>
      </trkpt>
      <trkpt lat="45.43098" lon="5.77572">
        <ele>461.8</ele>
        <time>2019-04-18T09:25:07Z</time>
      </trkpt>
      <trkpt lat="45.43094" lon="5.77569">
        <ele>461.6</ele>
        <time>2019-04-18T09:25:09Z</time>
      </trkpt>
      <trkpt lat="45.43094" lon="5.77565">
        <ele>460.6</ele>
        <time>2019-04-18T09:25:13Z</time>
      </trkpt>
      <trkpt lat="45.43092" lon="5.77568">
        <ele>463.7</ele>
        <time>2019-04-18T09:26:02Z</time>
      </trkpt>
      <trkpt lat="45.43088" lon="5.77566">
        <ele>463.7</ele>
        <time>2019-04-18T09:26:04Z</time>
      </trkpt>
      <trkpt lat="45.43084" lon="5.77563">
        <ele>463.7</ele>
        <time>2019-04-18T09:26:06Z</time>
      </trkpt>
      <trkpt lat="45.4308" lon="5.77559">
        <ele>466.6</ele>
        <time>2019-04-18T09:26:08Z</time>
      </trkpt>
      <trkpt lat="45.43077" lon="5.77555">
        <ele>466.9</ele>
        <time>2019-04-18T09:26:10Z</time>
      </trkpt>
      <trkpt lat="45.43075" lon="5.7755">
        <ele>467.1</ele>
        <time>2019-04-18T09:26:12Z</time>
      </trkpt>
      <trkpt lat="45.43073" lon="5.77544">
        <ele>467.4</ele>
        <time>2019-04-18T09:26:14Z</time>
      </trkpt>
      <trkpt lat="45.43071" lon="5.7754">
        <ele>467.5</ele>
        <time>2019-04-18T09:26:15Z</time>
      </trkpt>
      <trkpt lat="45.4307" lon="5.77536">
        <ele>467.7</ele>
        <time>2019-04-18T09:26:16Z</time>
      </trkpt>
      <trkpt lat="45.43069" lon="5.77532">
        <ele>467.9</ele>
        <time>2019-04-18T09:26:17Z</time>
      </trkpt>
      <trkpt lat="45.43066" lon="5.77526">
        <ele>468.3</ele>
        <time>2019-04-18T09:26:19Z</time>
      </trkpt>
      <trkpt lat="45.43065" lon="5.77522">
        <ele>468.5</ele>
        <time>2019-04-18T09:26:20Z</time>
      </trkpt>
      <trkpt lat="45.43063" lon="5.77519">
        <ele>468.7</ele>
        <time>2019-04-18T09:26:21Z</time>
      </trkpt>
      <trkpt lat="45.43061" lon="5.77516">
        <ele>468.9</ele>
        <time>2019-04-18T09:26:22Z</time>
      </trkpt>
      <trkpt lat="45.43057" lon="5.77512">
        <ele>469.2</ele>
        <time>2019-04-18T09:26:24Z</time>
      </trkpt>
      <trkpt lat="45.43054" lon="5.7751">
        <ele>469.5</ele>
        <time>2019-04-18T09:26:26Z</time>
      </trkpt>
      <trkpt lat="45.4305" lon="5.7751">
        <ele>469.8</ele>
        <time>2019-04-18T09:26:28Z</time>
      </trkpt>
      <trkpt lat="45.43047" lon="5.77513">
        <ele>470.1</ele>
        <time>2019-04-18T09:26:30Z</time>
      </trkpt>
      <trkpt lat="45.43044" lon="5.77518">
        <ele>470.4</ele>
        <time>2019-04-18T09:26:32Z</time>
      </trkpt>
      <trkpt lat="45.43045" lon="5.77524">
        <ele>470.7</ele>
        <time>2019-04-18T09:26:34Z</time>
      </trkpt>
      <trkpt lat="45.43046" lon="5.7753">
        <ele>471.1</ele>
        <time>2019-04-18T09:26:36Z</time>
      </trkpt>
      <trkpt lat="45.43048" lon="5.77537">
        <ele>471.5</ele>
        <time>2019-04-18T09:26:38Z</time>
      </trkpt>
      <trkpt lat="45.43051" lon="5.77542">
        <ele>471.9</ele>
        <time>2019-04-18T09:26:40Z</time>
      </trkpt>
      <trkpt lat="45.43054" lon="5.77547">
        <ele>472.3</ele>
        <time>2019-04-18T09:26:42Z</time>
      </trkpt>
      <trkpt lat="45.43057" lon="5.77551">
        <ele>472.9</ele>
        <time>2019-04-18T09:26:44Z</time>
      </trkpt>
      <trkpt lat="45.43059" lon="5.77555">
        <ele>473.3</ele>
        <time>2019-04-18T09:26:46Z</time>
      </trkpt>
      <trkpt lat="45.43062" lon="5.77558">
        <ele>473.5</ele>
        <time>2019-04-18T09:26:48Z</time>
      </trkpt>
      <trkpt lat="45.43064" lon="5.77562">
        <ele>473.8</ele>
        <time>2019-04-18T09:26:50Z</time>
      </trkpt>
      <trkpt lat="45.43067" lon="5.77566">
        <ele>474.1</ele>
        <time>2019-04-18T09:26:52Z</time>
      </trkpt>
      <trkpt lat="45.43071" lon="5.7757">
        <ele>474.4</ele>
        <time>2019-04-18T09:26:54Z</time>
      </trkpt>
      <trkpt lat="45.43074" lon="5.77573">
        <ele>474.7</ele>
        <time>2019-04-18T09:26:56Z</time>
      </trkpt>
      <trkpt lat="45.43077" lon="5.77577">
        <ele>475</ele>
        <time>2019-04-18T09:26:58Z</time>
      </trkpt>
      <trkpt lat="45.43082" lon="5.7758">
        <ele>475.4</ele>
        <time>2019-04-18T09:27:00Z</time>
      </trkpt>
      <trkpt lat="45.43086" lon="5.77583">
        <ele>475.7</ele>
        <time>2019-04-18T09:27:02Z</time>
      </trkpt>
      <trkpt lat="45.4309" lon="5.77585">
        <ele>476</ele>
        <time>2019-04-18T09:27:04Z</time>
      </trkpt>
      <trkpt lat="45.43094" lon="5.77587">
        <ele>476.4</ele>
        <time>2019-04-18T09:27:06Z</time>
      </trkpt>
      <trkpt lat="45.43097" lon="5.77589">
        <ele>476.7</ele>
        <time>2019-04-18T09:27:08Z</time>
      </trkpt>
      <trkpt lat="45.43101" lon="5.77591">
        <ele>477</ele>
        <time>2019-04-18T09:27:10Z</time>
      </trkpt>
      <trkpt lat="45.43105" lon="5.77592">
        <ele>477.3</ele>
        <time>2019-04-18T09:27:12Z</time>
      </trkpt>
      <trkpt lat="45.43109" lon="5.77595">
        <ele>477.7</ele>
        <time>2019-04-18T09:27:14Z</time>
      </trkpt>
      <trkpt lat="45.43113" lon="5.77597">
        <ele>478</ele>
        <time>2019-04-18T09:27:16Z</time>
      </trkpt>
      <trkpt lat="45.43117" lon="5.776">
        <ele>478.2</ele>
        <time>2019-04-18T09:27:18Z</time>
      </trkpt>
      <trkpt lat="45.4312" lon="5.77603">
        <ele>478.4</ele>
        <time>2019-04-18T09:27:20Z</time>
      </trkpt>
      <trkpt lat="45.43123" lon="5.77606">
        <ele>478.6</ele>
        <time>2019-04-18T09:27:22Z</time>
      </trkpt>
      <trkpt lat="45.43127" lon="5.77611">
        <ele>478.9</ele>
        <time>2019-04-18T09:27:24Z</time>
      </trkpt>
      <trkpt lat="45.43129" lon="5.77617">
        <ele>479.1</ele>
        <time>2019-04-18T09:27:26Z</time>
      </trkpt>
      <trkpt lat="45.43129" lon="5.77623">
        <ele>479.4</ele>
        <time>2019-04-18T09:27:28Z</time>
      </trkpt>
      <trkpt lat="45.43127" lon="5.77627">
        <ele>479.6</ele>
        <time>2019-04-18T09:27:29Z</time>
      </trkpt>
      <trkpt lat="45.43125" lon="5.7763">
        <ele>479.9</ele>
        <time>2019-04-18T09:27:30Z</time>
      </trkpt>
      <trkpt lat="45.43123" lon="5.77632">
        <ele>480.1</ele>
        <time>2019-04-18T09:27:31Z</time>
      </trkpt>
      <trkpt lat="45.43118" lon="5.77633">
        <ele>480.4</ele>
        <time>2019-04-18T09:27:33Z</time>
      </trkpt>
      <trkpt lat="45.43113" lon="5.77632">
        <ele>481.7</ele>
        <time>2019-04-18T09:27:35Z</time>
      </trkpt>
      <trkpt lat="45.4311" lon="5.7763">
        <ele>482.3</ele>
        <time>2019-04-18T09:27:36Z</time>
      </trkpt>
      <trkpt lat="45.43108" lon="5.77628">
        <ele>482.9</ele>
        <time>2019-04-18T09:27:37Z</time>
      </trkpt>
      <trkpt lat="45.43109" lon="5.77625">
        <ele>483.3</ele>
        <time>2019-04-18T09:27:43Z</time>
      </trkpt>
      <trkpt lat="45.43112" lon="5.77625">
        <ele>483.7</ele>
        <time>2019-04-18T09:27:46Z</time>
      </trkpt>
      <trkpt lat="45.43115" lon="5.77624">
        <ele>484.1</ele>
        <time>2019-04-18T09:27:53Z</time>
      </trkpt>
      <trkpt lat="45.43116" lon="5.7762">
        <ele>484.5</ele>
        <time>2019-04-18T09:27:59Z</time>
      </trkpt>
      <trkpt lat="45.43117" lon="5.77616">
        <ele>484.9</ele>
        <time>2019-04-18T09:28:13Z</time>
      </trkpt>
      <trkpt lat="45.4312" lon="5.77616">
        <ele>485.3</ele>
        <time>2019-04-18T09:28:19Z</time>
      </trkpt>
      <trkpt lat="45.43122" lon="5.77616">
        <ele>485.7</ele>
        <time>2019-04-18T09:28:24Z</time>
      </trkpt>
      <trkpt lat="45.43119" lon="5.77616">
        <ele>486.1</ele>
        <time>2019-04-18T09:28:28Z</time>
      </trkpt>
      <trkpt lat="45.43116" lon="5.77614">
        <ele>486.6</ele>
        <time>2019-04-18T09:28:36Z</time>
      </trkpt>
      <trkpt lat="45.43113" lon="5.77614">
        <ele>487</ele>
        <time>2019-04-18T09:28:40Z</time>
      </trkpt>
      <trkpt lat="45.4311" lon="5.77616">
        <ele>487.3</ele>
        <time>2019-04-18T09:28:42Z</time>
      </trkpt>
      <trkpt lat="45.43108" lon="5.77618">
        <ele>487.6</ele>
        <time>2019-04-18T09:28:44Z</time>
      </trkpt>
      <trkpt lat="45.43108" lon="5.77622">
        <ele>488</ele>
        <time>2019-04-18T09:28:53Z</time>
      </trkpt>
      <trkpt lat="45.43105" lon="5.77622">
        <ele>488.3</ele>
        <time>2019-04-18T09:28:58Z</time>
      </trkpt>
      <trkpt lat="45.43102" lon="5.77621">
        <ele>488.7</ele>
        <time>2019-04-18T09:29:01Z</time>
      </trkpt>
      <trkpt lat="45.43098" lon="5.77624">
        <ele>489.2</ele>
        <time>2019-04-18T09:29:08Z</time>
      </trkpt>
      <trkpt lat="45.43095" lon="5.77625">
        <ele>489.5</ele>
        <time>2019-04-18T09:29:10Z</time>
      </trkpt>
      <trkpt lat="45.43091" lon="5.77624">
        <ele>489.9</ele>
        <time>2019-04-18T09:29:13Z</time>
      </trkpt>
      <trkpt lat="45.43088" lon="5.77625">
        <ele>490.3</ele>
        <time>2019-04-18T09:29:15Z</time>
      </trkpt>
      <trkpt lat="45.43085" lon="5.77627">
        <ele>490.9</ele>
        <time>2019-04-18T09:29:17Z</time>
      </trkpt>
      <trkpt lat="45.43081" lon="5.7763">
        <ele>491.5</ele>
        <time>2019-04-18T09:29:19Z</time>
      </trkpt>
      <trkpt lat="45.43078" lon="5.77632">
        <ele>492</ele>
        <time>2019-04-18T09:29:20Z</time>
      </trkpt>
      <trkpt lat="45.43076" lon="5.77634">
        <ele>492.4</ele>
        <time>2019-04-18T09:29:21Z</time>
      </trkpt>
      <trkpt lat="45.43073" lon="5.77636">
        <ele>492.8</ele>
        <time>2019-04-18T09:29:22Z</time>
      </trkpt>
      <trkpt lat="45.4307" lon="5.77637">
        <ele>493.3</ele>
        <time>2019-04-18T09:29:23Z</time>
      </trkpt>
      <trkpt lat="45.43067" lon="5.77638">
        <ele>493.7</ele>
        <time>2019-04-18T09:29:24Z</time>
      </trkpt>
      <trkpt lat="45.43064" lon="5.77639">
        <ele>494.2</ele>
        <time>2019-04-18T09:29:25Z</time>
      </trkpt>
      <trkpt lat="45.43061" lon="5.77641">
        <ele>494.7</ele>
        <time>2019-04-18T09:29:26Z</time>
      </trkpt>
      <trkpt lat="45.43058" lon="5.77642">
        <ele>495.1</ele>
        <time>2019-04-18T09:29:27Z</time>
      </trkpt>
      <trkpt lat="45.43055" lon="5.77642">
        <ele>495.4</ele>
        <time>2019-04-18T09:29:28Z</time>
      </trkpt>
      <trkpt lat="45.43052" lon="5.77643">
        <ele>495.7</ele>
        <time>2019-04-18T09:29:29Z</time>
      </trkpt>
      <trkpt lat="45.43049" lon="5.77643">
        <ele>496.1</ele>
        <time>2019-04-18T09:29:30Z</time>
      </trkpt>
      <trkpt lat="45.43046" lon="5.77643">
        <ele>496.3</ele>
        <time>2019-04-18T09:29:31Z</time>
      </trkpt>
      <trkpt lat="45.43043" lon="5.77643">
        <ele>496.6</ele>
        <time>2019-04-18T09:29:32Z</time>
      </trkpt>
      <trkpt lat="45.4304" lon="5.77643">
        <ele>496.9</ele>
        <time>2019-04-18T09:29:33Z</time>
      </trkpt>
      <trkpt lat="45.43035" lon="5.77644">
        <ele>497.5</ele>
        <time>2019-04-18T09:29:35Z</time>
      </trkpt>
      <trkpt lat="45.43031" lon="5.77645">
        <ele>498.6</ele>
        <time>2019-04-18T09:29:37Z</time>
      </trkpt>
      <trkpt lat="45.43026" lon="5.77648">
        <ele>499.2</ele>
        <time>2019-04-18T09:29:39Z</time>
      </trkpt>
      <trkpt lat="45.43022" lon="5.77651">
        <ele>499.7</ele>
        <time>2019-04-18T09:29:41Z</time>
      </trkpt>
      <trkpt lat="45.43018" lon="5.77655">
        <ele>500.2</ele>
        <time>2019-04-18T09:29:43Z</time>
      </trkpt>
      <trkpt lat="45.43016" lon="5.77657">
        <ele>500.5</ele>
        <time>2019-04-18T09:29:44Z</time>
      </trkpt>
      <trkpt lat="45.43013" lon="5.7766">
        <ele>500.9</ele>
        <time>2019-04-18T09:29:45Z</time>
      </trkpt>
      <trkpt lat="45.4301" lon="5.77663">
        <ele>501.2</ele>
        <time>2019-04-18T09:29:46Z</time>
      </trkpt>
      <trkpt lat="45.43008" lon="5.77666">
        <ele>501.5</ele>
        <time>2019-04-18T09:29:47Z</time>
      </trkpt>
      <trkpt lat="45.43006" lon="5.77669">
        <ele>501.8</ele>
        <time>2019-04-18T09:29:48Z</time>
      </trkpt>
      <trkpt lat="45.43005" lon="5.77672">
        <ele>502</ele>
        <time>2019-04-18T09:29:49Z</time>
      </trkpt>
      <trkpt lat="45.43003" lon="5.77675">
        <ele>502.2</ele>
        <time>2019-04-18T09:29:50Z</time>
      </trkpt>
      <trkpt lat="45.43001" lon="5.77678">
        <ele>502.4</ele>
        <time>2019-04-18T09:29:51Z</time>
      </trkpt>
      <trkpt lat="45.42997" lon="5.77684">
        <ele>502.7</ele>
        <time>2019-04-18T09:29:53Z</time>
      </trkpt>
      <trkpt lat="45.42994" lon="5.7769">
        <ele>503</ele>
        <time>2019-04-18T09:29:55Z</time>
      </trkpt>
      <trkpt lat="45.42991" lon="5.77695">
        <ele>503.2</ele>
        <time>2019-04-18T09:29:57Z</time>
      </trkpt>
      <trkpt lat="45.42988" lon="5.77699">
        <ele>503.4</ele>
        <time>2019-04-18T09:29:59Z</time>
      </trkpt>
      <trkpt lat="45.42984" lon="5.77704">
        <ele>503.5</ele>
        <time>2019-04-18T09:30:01Z</time>
      </trkpt>
      <trkpt lat="45.42982" lon="5.77707">
        <ele>503.6</ele>
        <time>2019-04-18T09:30:02Z</time>
      </trkpt>
      <trkpt lat="45.4298" lon="5.77711">
        <ele>503.7</ele>
        <time>2019-04-18T09:30:03Z</time>
      </trkpt>
      <trkpt lat="45.42979" lon="5.77714">
        <ele>503.8</ele>
        <time>2019-04-18T09:30:04Z</time>
      </trkpt>
      <trkpt lat="45.42977" lon="5.77718">
        <ele>503.8</ele>
        <time>2019-04-18T09:30:05Z</time>
      </trkpt>
      <trkpt lat="45.42976" lon="5.77722">
        <ele>503.9</ele>
        <time>2019-04-18T09:30:06Z</time>
      </trkpt>
      <trkpt lat="45.42973" lon="5.77729">
        <ele>503.9</ele>
        <time>2019-04-18T09:30:08Z</time>
      </trkpt>
      <trkpt lat="45.42972" lon="5.77733">
        <ele>503.9</ele>
        <time>2019-04-18T09:30:09Z</time>
      </trkpt>
      <trkpt lat="45.4297" lon="5.77737">
        <ele>503.9</ele>
        <time>2019-04-18T09:30:10Z</time>
      </trkpt>
      <trkpt lat="45.42969" lon="5.7774">
        <ele>503.9</ele>
        <time>2019-04-18T09:30:11Z</time>
      </trkpt>
      <trkpt lat="45.42966" lon="5.77743">
        <ele>503.9</ele>
        <time>2019-04-18T09:30:12Z</time>
      </trkpt>
      <trkpt lat="45.42963" lon="5.77746">
        <ele>503.9</ele>
        <time>2019-04-18T09:30:13Z</time>
      </trkpt>
      <trkpt lat="45.42961" lon="5.77748">
        <ele>503.9</ele>
        <time>2019-04-18T09:30:14Z</time>
      </trkpt>
      <trkpt lat="45.42957" lon="5.77752">
        <ele>503.9</ele>
        <time>2019-04-18T09:30:15Z</time>
      </trkpt>
      <trkpt lat="45.42954" lon="5.77755">
        <ele>503.9</ele>
        <time>2019-04-18T09:30:16Z</time>
      </trkpt>
      <trkpt lat="45.42952" lon="5.77758">
        <ele>504</ele>
        <time>2019-04-18T09:30:17Z</time>
      </trkpt>
      <trkpt lat="45.42948" lon="5.77763">
        <ele>504.1</ele>
        <time>2019-04-18T09:30:19Z</time>
      </trkpt>
      <trkpt lat="45.42946" lon="5.77767">
        <ele>504.2</ele>
        <time>2019-04-18T09:30:21Z</time>
      </trkpt>
      <trkpt lat="45.42943" lon="5.77773">
        <ele>504.3</ele>
        <time>2019-04-18T09:30:23Z</time>
      </trkpt>
      <trkpt lat="45.42941" lon="5.77776">
        <ele>504.4</ele>
        <time>2019-04-18T09:30:24Z</time>
      </trkpt>
      <trkpt lat="45.42938" lon="5.77779">
        <ele>504.5</ele>
        <time>2019-04-18T09:30:25Z</time>
      </trkpt>
      <trkpt lat="45.42936" lon="5.77782">
        <ele>504.6</ele>
        <time>2019-04-18T09:30:26Z</time>
      </trkpt>
      <trkpt lat="45.42932" lon="5.77786">
        <ele>504.6</ele>
        <time>2019-04-18T09:30:27Z</time>
      </trkpt>
      <trkpt lat="45.42929" lon="5.7779">
        <ele>504.7</ele>
        <time>2019-04-18T09:30:28Z</time>
      </trkpt>
      <trkpt lat="45.42925" lon="5.77794">
        <ele>504.7</ele>
        <time>2019-04-18T09:30:29Z</time>
      </trkpt>
      <trkpt lat="45.42921" lon="5.778">
        <ele>504.8</ele>
        <time>2019-04-18T09:30:30Z</time>
      </trkpt>
      <trkpt lat="45.42916" lon="5.77806">
        <ele>504.9</ele>
        <time>2019-04-18T09:30:31Z</time>
      </trkpt>
      <trkpt lat="45.42911" lon="5.77813">
        <ele>504.9</ele>
        <time>2019-04-18T09:30:32Z</time>
      </trkpt>
      <trkpt lat="45.42908" lon="5.77818">
        <ele>504.8</ele>
        <time>2019-04-18T09:30:33Z</time>
      </trkpt>
      <trkpt lat="45.42901" lon="5.77827">
        <ele>504.6</ele>
        <time>2019-04-18T09:30:34Z</time>
      </trkpt>
      <trkpt lat="45.42895" lon="5.77833">
        <ele>504.5</ele>
        <time>2019-04-18T09:30:35Z</time>
      </trkpt>
      <trkpt lat="45.42889" lon="5.77833">
        <ele>504.3</ele>
        <time>2019-04-18T09:30:36Z</time>
      </trkpt>
      <trkpt lat="45.4288" lon="5.77829">
        <ele>504.2</ele>
        <time>2019-04-18T09:30:37Z</time>
      </trkpt>
      <trkpt lat="45.42875" lon="5.77824">
        <ele>504.2</ele>
        <time>2019-04-18T09:30:38Z</time>
      </trkpt>
      <trkpt lat="45.4287" lon="5.77816">
        <ele>504.2</ele>
        <time>2019-04-18T09:30:39Z</time>
      </trkpt>
      <trkpt lat="45.42865" lon="5.77809">
        <ele>504.2</ele>
        <time>2019-04-18T09:30:40Z</time>
      </trkpt>
      <trkpt lat="45.4286" lon="5.77802">
        <ele>504.2</ele>
        <time>2019-04-18T09:30:41Z</time>
      </trkpt>
      <trkpt lat="45.42854" lon="5.77794">
        <ele>504.2</ele>
        <time>2019-04-18T09:30:42Z</time>
      </trkpt>
      <trkpt lat="45.42847" lon="5.77787">
        <ele>504</ele>
        <time>2019-04-18T09:30:43Z</time>
      </trkpt>
      <trkpt lat="45.42839" lon="5.7778">
        <ele>503.8</ele>
        <time>2019-04-18T09:30:44Z</time>
      </trkpt>
      <trkpt lat="45.42833" lon="5.77771">
        <ele>503.1</ele>
        <time>2019-04-18T09:30:45Z</time>
      </trkpt>
      <trkpt lat="45.42825" lon="5.77764">
        <ele>503</ele>
        <time>2019-04-18T09:30:46Z</time>
      </trkpt>
      <trkpt lat="45.42818" lon="5.77756">
        <ele>503</ele>
        <time>2019-04-18T09:30:47Z</time>
      </trkpt>
      <trkpt lat="45.42811" lon="5.77747">
        <ele>502.9</ele>
        <time>2019-04-18T09:30:48Z</time>
      </trkpt>
      <trkpt lat="45.42804" lon="5.77738">
        <ele>502.9</ele>
        <time>2019-04-18T09:30:49Z</time>
      </trkpt>
      <trkpt lat="45.42797" lon="5.77729">
        <ele>502.9</ele>
        <time>2019-04-18T09:30:50Z</time>
      </trkpt>
      <trkpt lat="45.42789" lon="5.77719">
        <ele>502.9</ele>
        <time>2019-04-18T09:30:51Z</time>
      </trkpt>
      <trkpt lat="45.42784" lon="5.77707">
        <ele>502.4</ele>
        <time>2019-04-18T09:30:52Z</time>
      </trkpt>
      <trkpt lat="45.42778" lon="5.77695">
        <ele>502</ele>
        <time>2019-04-18T09:30:53Z</time>
      </trkpt>
      <trkpt lat="45.42774" lon="5.77683">
        <ele>501.6</ele>
        <time>2019-04-18T09:30:54Z</time>
      </trkpt>
      <trkpt lat="45.42769" lon="5.77671">
        <ele>501.2</ele>
        <time>2019-04-18T09:30:55Z</time>
      </trkpt>
      <trkpt lat="45.42764" lon="5.77659">
        <ele>500.7</ele>
        <time>2019-04-18T09:30:56Z</time>
      </trkpt>
      <trkpt lat="45.42759" lon="5.77645">
        <ele>500.3</ele>
        <time>2019-04-18T09:30:57Z</time>
      </trkpt>
      <trkpt lat="45.42753" lon="5.77634">
        <ele>499.9</ele>
        <time>2019-04-18T09:30:58Z</time>
      </trkpt>
      <trkpt lat="45.42746" lon="5.77624">
        <ele>499.5</ele>
        <time>2019-04-18T09:30:59Z</time>
      </trkpt>
      <trkpt lat="45.42737" lon="5.77615">
        <ele>499.2</ele>
        <time>2019-04-18T09:31:00Z</time>
      </trkpt>
      <trkpt lat="45.42729" lon="5.77606">
        <ele>499</ele>
        <time>2019-04-18T09:31:01Z</time>
      </trkpt>
      <trkpt lat="45.42721" lon="5.77599">
        <ele>498.8</ele>
        <time>2019-04-18T09:31:02Z</time>
      </trkpt>
      <trkpt lat="45.42712" lon="5.77591">
        <ele>498.6</ele>
        <time>2019-04-18T09:31:03Z</time>
      </trkpt>
      <trkpt lat="45.42704" lon="5.77584">
        <ele>498.4</ele>
        <time>2019-04-18T09:31:04Z</time>
      </trkpt>
      <trkpt lat="45.42696" lon="5.77577">
        <ele>498.3</ele>
        <time>2019-04-18T09:31:05Z</time>
      </trkpt>
      <trkpt lat="45.42688" lon="5.77571">
        <ele>498.1</ele>
        <time>2019-04-18T09:31:06Z</time>
      </trkpt>
      <trkpt lat="45.4268" lon="5.77564">
        <ele>498</ele>
        <time>2019-04-18T09:31:07Z</time>
      </trkpt>
      <trkpt lat="45.42672" lon="5.77556">
        <ele>497.9</ele>
        <time>2019-04-18T09:31:08Z</time>
      </trkpt>
      <trkpt lat="45.42665" lon="5.77549">
        <ele>497.9</ele>
        <time>2019-04-18T09:31:09Z</time>
      </trkpt>
      <trkpt lat="45.42657" lon="5.77543">
        <ele>497.9</ele>
        <time>2019-04-18T09:31:10Z</time>
      </trkpt>
      <trkpt lat="45.42649" lon="5.77536">
        <ele>497.9</ele>
        <time>2019-04-18T09:31:11Z</time>
      </trkpt>
      <trkpt lat="45.42642" lon="5.77529">
        <ele>497.9</ele>
        <time>2019-04-18T09:31:12Z</time>
      </trkpt>
      <trkpt lat="45.42634" lon="5.77523">
        <ele>497.9</ele>
        <time>2019-04-18T09:31:13Z</time>
      </trkpt>
      <trkpt lat="45.42626" lon="5.77516">
        <ele>497.9</ele>
        <time>2019-04-18T09:31:14Z</time>
      </trkpt>
      <trkpt lat="45.4262" lon="5.77511">
        <ele>497.9</ele>
        <time>2019-04-18T09:31:15Z</time>
      </trkpt>
      <trkpt lat="45.42614" lon="5.77504">
        <ele>497.9</ele>
        <time>2019-04-18T09:31:16Z</time>
      </trkpt>
      <trkpt lat="45.42607" lon="5.77499">
        <ele>497.9</ele>
        <time>2019-04-18T09:31:17Z</time>
      </trkpt>
      <trkpt lat="45.426" lon="5.77494">
        <ele>497.9</ele>
        <time>2019-04-18T09:31:18Z</time>
      </trkpt>
      <trkpt lat="45.42593" lon="5.77488">
        <ele>497.9</ele>
        <time>2019-04-18T09:31:19Z</time>
      </trkpt>
      <trkpt lat="45.42586" lon="5.77482">
        <ele>497.9</ele>
        <time>2019-04-18T09:31:20Z</time>
      </trkpt>
      <trkpt lat="45.42581" lon="5.77477">
        <ele>497.9</ele>
        <time>2019-04-18T09:31:21Z</time>
      </trkpt>
      <trkpt lat="45.42574" lon="5.77473">
        <ele>497.9</ele>
        <time>2019-04-18T09:31:22Z</time>
      </trkpt>
      <trkpt lat="45.42567" lon="5.7747">
        <ele>497.9</ele>
        <time>2019-04-18T09:31:23Z</time>
      </trkpt>
      <trkpt lat="45.42561" lon="5.77466">
        <ele>497.9</ele>
        <time>2019-04-18T09:31:24Z</time>
      </trkpt>
      <trkpt lat="45.42555" lon="5.77462">
        <ele>497.9</ele>
        <time>2019-04-18T09:31:25Z</time>
      </trkpt>
      <trkpt lat="45.42548" lon="5.77458">
        <ele>497.9</ele>
        <time>2019-04-18T09:31:26Z</time>
      </trkpt>
      <trkpt lat="45.42542" lon="5.77454">
        <ele>497.9</ele>
        <time>2019-04-18T09:31:27Z</time>
      </trkpt>
      <trkpt lat="45.42536" lon="5.77451">
        <ele>497.9</ele>
        <time>2019-04-18T09:31:28Z</time>
      </trkpt>
      <trkpt lat="45.42529" lon="5.77446">
        <ele>497.9</ele>
        <time>2019-04-18T09:31:29Z</time>
      </trkpt>
      <trkpt lat="45.42523" lon="5.77444">
        <ele>497.8</ele>
        <time>2019-04-18T09:31:30Z</time>
      </trkpt>
      <trkpt lat="45.42517" lon="5.7744">
        <ele>497.8</ele>
        <time>2019-04-18T09:31:31Z</time>
      </trkpt>
      <trkpt lat="45.4251" lon="5.77437">
        <ele>497.8</ele>
        <time>2019-04-18T09:31:32Z</time>
      </trkpt>
      <trkpt lat="45.42504" lon="5.77433">
        <ele>497.7</ele>
        <time>2019-04-18T09:31:33Z</time>
      </trkpt>
      <trkpt lat="45.42498" lon="5.77429">
        <ele>497.7</ele>
        <time>2019-04-18T09:31:34Z</time>
      </trkpt>
      <trkpt lat="45.42491" lon="5.77425">
        <ele>497.7</ele>
        <time>2019-04-18T09:31:35Z</time>
      </trkpt>
      <trkpt lat="45.42486" lon="5.7742">
        <ele>497.7</ele>
        <time>2019-04-18T09:31:36Z</time>
      </trkpt>
      <trkpt lat="45.4248" lon="5.77416">
        <ele>497.7</ele>
        <time>2019-04-18T09:31:37Z</time>
      </trkpt>
      <trkpt lat="45.42474" lon="5.7741">
        <ele>497.7</ele>
        <time>2019-04-18T09:31:38Z</time>
      </trkpt>
      <trkpt lat="45.42469" lon="5.77406">
        <ele>497.6</ele>
        <time>2019-04-18T09:31:39Z</time>
      </trkpt>
      <trkpt lat="45.42465" lon="5.774">
        <ele>497.6</ele>
        <time>2019-04-18T09:31:40Z</time>
      </trkpt>
      <trkpt lat="45.42459" lon="5.77395">
        <ele>497.6</ele>
        <time>2019-04-18T09:31:41Z</time>
      </trkpt>
      <trkpt lat="45.42454" lon="5.77389">
        <ele>497.5</ele>
        <time>2019-04-18T09:31:42Z</time>
      </trkpt>
      <trkpt lat="45.42449" lon="5.77385">
        <ele>497.5</ele>
        <time>2019-04-18T09:31:43Z</time>
      </trkpt>
      <trkpt lat="45.42444" lon="5.7738">
        <ele>497.5</ele>
        <time>2019-04-18T09:31:44Z</time>
      </trkpt>
      <trkpt lat="45.42439" lon="5.77375">
        <ele>497.4</ele>
        <time>2019-04-18T09:31:45Z</time>
      </trkpt>
      <trkpt lat="45.42434" lon="5.7737">
        <ele>497.4</ele>
        <time>2019-04-18T09:31:46Z</time>
      </trkpt>
      <trkpt lat="45.42429" lon="5.77366">
        <ele>497.3</ele>
        <time>2019-04-18T09:31:47Z</time>
      </trkpt>
      <trkpt lat="45.42424" lon="5.77361">
        <ele>497.3</ele>
        <time>2019-04-18T09:31:48Z</time>
      </trkpt>
      <trkpt lat="45.42419" lon="5.77358">
        <ele>497.2</ele>
        <time>2019-04-18T09:31:49Z</time>
      </trkpt>
      <trkpt lat="45.42414" lon="5.77354">
        <ele>497.1</ele>
        <time>2019-04-18T09:31:50Z</time>
      </trkpt>
      <trkpt lat="45.42409" lon="5.77349">
        <ele>497.1</ele>
        <time>2019-04-18T09:31:51Z</time>
      </trkpt>
      <trkpt lat="45.42403" lon="5.77343">
        <ele>497</ele>
        <time>2019-04-18T09:31:52Z</time>
      </trkpt>
      <trkpt lat="45.42398" lon="5.77338">
        <ele>497</ele>
        <time>2019-04-18T09:31:53Z</time>
      </trkpt>
      <trkpt lat="45.42392" lon="5.77333">
        <ele>496.9</ele>
        <time>2019-04-18T09:31:54Z</time>
      </trkpt>
      <trkpt lat="45.42388" lon="5.77328">
        <ele>496.9</ele>
        <time>2019-04-18T09:31:55Z</time>
      </trkpt>
      <trkpt lat="45.42383" lon="5.77323">
        <ele>496.9</ele>
        <time>2019-04-18T09:31:56Z</time>
      </trkpt>
      <trkpt lat="45.42378" lon="5.77318">
        <ele>496.9</ele>
        <time>2019-04-18T09:31:57Z</time>
      </trkpt>
      <trkpt lat="45.42372" lon="5.77313">
        <ele>496.9</ele>
        <time>2019-04-18T09:31:58Z</time>
      </trkpt>
      <trkpt lat="45.42366" lon="5.77308">
        <ele>496.9</ele>
        <time>2019-04-18T09:31:59Z</time>
      </trkpt>
      <trkpt lat="45.42361" lon="5.77304">
        <ele>496.9</ele>
        <time>2019-04-18T09:32:00Z</time>
      </trkpt>
      <trkpt lat="45.42355" lon="5.77298">
        <ele>496.9</ele>
        <time>2019-04-18T09:32:01Z</time>
      </trkpt>
      <trkpt lat="45.4235" lon="5.77293">
        <ele>496.9</ele>
        <time>2019-04-18T09:32:02Z</time>
      </trkpt>
      <trkpt lat="45.42344" lon="5.77288">
        <ele>496.9</ele>
        <time>2019-04-18T09:32:03Z</time>
      </trkpt>
      <trkpt lat="45.42339" lon="5.77284">
        <ele>497</ele>
        <time>2019-04-18T09:32:04Z</time>
      </trkpt>
      <trkpt lat="45.42335" lon="5.77282">
        <ele>497</ele>
        <time>2019-04-18T09:32:05Z</time>
      </trkpt>
      <trkpt lat="45.42331" lon="5.77277">
        <ele>497.1</ele>
        <time>2019-04-18T09:32:06Z</time>
      </trkpt>
      <trkpt lat="45.42325" lon="5.77275">
        <ele>497.2</ele>
        <time>2019-04-18T09:32:07Z</time>
      </trkpt>
      <trkpt lat="45.42319" lon="5.77271">
        <ele>497.2</ele>
        <time>2019-04-18T09:32:08Z</time>
      </trkpt>
      <trkpt lat="45.42314" lon="5.77266">
        <ele>497.3</ele>
        <time>2019-04-18T09:32:09Z</time>
      </trkpt>
      <trkpt lat="45.42308" lon="5.77261">
        <ele>497.3</ele>
        <time>2019-04-18T09:32:10Z</time>
      </trkpt>
      <trkpt lat="45.42303" lon="5.77258">
        <ele>497.4</ele>
        <time>2019-04-18T09:32:11Z</time>
      </trkpt>
      <trkpt lat="45.42297" lon="5.77254">
        <ele>497.4</ele>
        <time>2019-04-18T09:32:12Z</time>
      </trkpt>
      <trkpt lat="45.42292" lon="5.7725">
        <ele>497.4</ele>
        <time>2019-04-18T09:32:13Z</time>
      </trkpt>
      <trkpt lat="45.42288" lon="5.77247">
        <ele>497.5</ele>
        <time>2019-04-18T09:32:14Z</time>
      </trkpt>
      <trkpt lat="45.42283" lon="5.77242">
        <ele>497.5</ele>
        <time>2019-04-18T09:32:15Z</time>
      </trkpt>
      <trkpt lat="45.42278" lon="5.77239">
        <ele>497.5</ele>
        <time>2019-04-18T09:32:16Z</time>
      </trkpt>
      <trkpt lat="45.42273" lon="5.77236">
        <ele>497.5</ele>
        <time>2019-04-18T09:32:17Z</time>
      </trkpt>
      <trkpt lat="45.42268" lon="5.77233">
        <ele>497.5</ele>
        <time>2019-04-18T09:32:18Z</time>
      </trkpt>
      <trkpt lat="45.42262" lon="5.7723">
        <ele>497.6</ele>
        <time>2019-04-18T09:32:19Z</time>
      </trkpt>
      <trkpt lat="45.42258" lon="5.77225">
        <ele>497.6</ele>
        <time>2019-04-18T09:32:20Z</time>
      </trkpt>
      <trkpt lat="45.42252" lon="5.77222">
        <ele>497.6</ele>
        <time>2019-04-18T09:32:21Z</time>
      </trkpt>
      <trkpt lat="45.42247" lon="5.77219">
        <ele>497.6</ele>
        <time>2019-04-18T09:32:22Z</time>
      </trkpt>
      <trkpt lat="45.42244" lon="5.77215">
        <ele>497.6</ele>
        <time>2019-04-18T09:32:23Z</time>
      </trkpt>
      <trkpt lat="45.42239" lon="5.77211">
        <ele>497.6</ele>
        <time>2019-04-18T09:32:24Z</time>
      </trkpt>
      <trkpt lat="45.42234" lon="5.77209">
        <ele>497.7</ele>
        <time>2019-04-18T09:32:25Z</time>
      </trkpt>
      <trkpt lat="45.4223" lon="5.77204">
        <ele>497.7</ele>
        <time>2019-04-18T09:32:26Z</time>
      </trkpt>
      <trkpt lat="45.42225" lon="5.77201">
        <ele>497.7</ele>
        <time>2019-04-18T09:32:27Z</time>
      </trkpt>
      <trkpt lat="45.4222" lon="5.77196">
        <ele>497.8</ele>
        <time>2019-04-18T09:32:28Z</time>
      </trkpt>
      <trkpt lat="45.42215" lon="5.77193">
        <ele>497.8</ele>
        <time>2019-04-18T09:32:29Z</time>
      </trkpt>
      <trkpt lat="45.4221" lon="5.77189">
        <ele>497.8</ele>
        <time>2019-04-18T09:32:30Z</time>
      </trkpt>
      <trkpt lat="45.42205" lon="5.77187">
        <ele>497.8</ele>
        <time>2019-04-18T09:32:31Z</time>
      </trkpt>
      <trkpt lat="45.42201" lon="5.77184">
        <ele>497.8</ele>
        <time>2019-04-18T09:32:32Z</time>
      </trkpt>
      <trkpt lat="45.42196" lon="5.7718">
        <ele>497.8</ele>
        <time>2019-04-18T09:32:33Z</time>
      </trkpt>
      <trkpt lat="45.42192" lon="5.77175">
        <ele>497.8</ele>
        <time>2019-04-18T09:32:34Z</time>
      </trkpt>
      <trkpt lat="45.42187" lon="5.77172">
        <ele>497.8</ele>
        <time>2019-04-18T09:32:35Z</time>
      </trkpt>
      <trkpt lat="45.42183" lon="5.77168">
        <ele>497.8</ele>
        <time>2019-04-18T09:32:36Z</time>
      </trkpt>
      <trkpt lat="45.42178" lon="5.77164">
        <ele>497.9</ele>
        <time>2019-04-18T09:32:37Z</time>
      </trkpt>
      <trkpt lat="45.42173" lon="5.77162">
        <ele>497.9</ele>
        <time>2019-04-18T09:32:38Z</time>
      </trkpt>
      <trkpt lat="45.42169" lon="5.77159">
        <ele>497.9</ele>
        <time>2019-04-18T09:32:39Z</time>
      </trkpt>
      <trkpt lat="45.42164" lon="5.77156">
        <ele>498</ele>
        <time>2019-04-18T09:32:40Z</time>
      </trkpt>
      <trkpt lat="45.4216" lon="5.77153">
        <ele>498</ele>
        <time>2019-04-18T09:32:41Z</time>
      </trkpt>
      <trkpt lat="45.42156" lon="5.77149">
        <ele>498</ele>
        <time>2019-04-18T09:32:42Z</time>
      </trkpt>
      <trkpt lat="45.42152" lon="5.77146">
        <ele>498.1</ele>
        <time>2019-04-18T09:32:43Z</time>
      </trkpt>
      <trkpt lat="45.42146" lon="5.77144">
        <ele>498.1</ele>
        <time>2019-04-18T09:32:44Z</time>
      </trkpt>
      <trkpt lat="45.42141" lon="5.77141">
        <ele>498.1</ele>
        <time>2019-04-18T09:32:45Z</time>
      </trkpt>
      <trkpt lat="45.42137" lon="5.77137">
        <ele>498.1</ele>
        <time>2019-04-18T09:32:46Z</time>
      </trkpt>
      <trkpt lat="45.42133" lon="5.77133">
        <ele>498.2</ele>
        <time>2019-04-18T09:32:47Z</time>
      </trkpt>
      <trkpt lat="45.42129" lon="5.77128">
        <ele>498.2</ele>
        <time>2019-04-18T09:32:48Z</time>
      </trkpt>
      <trkpt lat="45.42124" lon="5.77125">
        <ele>498.2</ele>
        <time>2019-04-18T09:32:49Z</time>
      </trkpt>
      <trkpt lat="45.42119" lon="5.77122">
        <ele>498.2</ele>
        <time>2019-04-18T09:32:50Z</time>
      </trkpt>
      <trkpt lat="45.42115" lon="5.77118">
        <ele>498.2</ele>
        <time>2019-04-18T09:32:51Z</time>
      </trkpt>
      <trkpt lat="45.42111" lon="5.77116">
        <ele>498.1</ele>
        <time>2019-04-18T09:32:52Z</time>
      </trkpt>
      <trkpt lat="45.42107" lon="5.77112">
        <ele>498.1</ele>
        <time>2019-04-18T09:32:53Z</time>
      </trkpt>
      <trkpt lat="45.42104" lon="5.77103">
        <ele>498.1</ele>
        <time>2019-04-18T09:32:54Z</time>
      </trkpt>
      <trkpt lat="45.421" lon="5.77099">
        <ele>498</ele>
        <time>2019-04-18T09:32:55Z</time>
      </trkpt>
      <trkpt lat="45.42097" lon="5.77096">
        <ele>498</ele>
        <time>2019-04-18T09:32:56Z</time>
      </trkpt>
      <trkpt lat="45.42092" lon="5.77094">
        <ele>497.9</ele>
        <time>2019-04-18T09:32:57Z</time>
      </trkpt>
      <trkpt lat="45.42087" lon="5.7709">
        <ele>497.8</ele>
        <time>2019-04-18T09:32:58Z</time>
      </trkpt>
      <trkpt lat="45.42082" lon="5.77086">
        <ele>497.8</ele>
        <time>2019-04-18T09:32:59Z</time>
      </trkpt>
      <trkpt lat="45.42077" lon="5.77082">
        <ele>497.7</ele>
        <time>2019-04-18T09:33:00Z</time>
      </trkpt>
      <trkpt lat="45.42072" lon="5.77079">
        <ele>497.6</ele>
        <time>2019-04-18T09:33:01Z</time>
      </trkpt>
      <trkpt lat="45.42067" lon="5.77077">
        <ele>497.5</ele>
        <time>2019-04-18T09:33:02Z</time>
      </trkpt>
      <trkpt lat="45.42062" lon="5.77073">
        <ele>497.4</ele>
        <time>2019-04-18T09:33:03Z</time>
      </trkpt>
      <trkpt lat="45.42057" lon="5.7707">
        <ele>497.3</ele>
        <time>2019-04-18T09:33:04Z</time>
      </trkpt>
      <trkpt lat="45.42053" lon="5.77067">
        <ele>497.2</ele>
        <time>2019-04-18T09:33:05Z</time>
      </trkpt>
      <trkpt lat="45.4205" lon="5.77063">
        <ele>497.2</ele>
        <time>2019-04-18T09:33:06Z</time>
      </trkpt>
      <trkpt lat="45.42046" lon="5.7706">
        <ele>497.1</ele>
        <time>2019-04-18T09:33:07Z</time>
      </trkpt>
      <trkpt lat="45.42042" lon="5.77058">
        <ele>497</ele>
        <time>2019-04-18T09:33:08Z</time>
      </trkpt>
      <trkpt lat="45.42038" lon="5.77056">
        <ele>496.9</ele>
        <time>2019-04-18T09:33:09Z</time>
      </trkpt>
      <trkpt lat="45.42034" lon="5.77055">
        <ele>496.8</ele>
        <time>2019-04-18T09:33:10Z</time>
      </trkpt>
      <trkpt lat="45.42029" lon="5.77053">
        <ele>496.8</ele>
        <time>2019-04-18T09:33:11Z</time>
      </trkpt>
      <trkpt lat="45.42022" lon="5.77051">
        <ele>496.7</ele>
        <time>2019-04-18T09:33:12Z</time>
      </trkpt>
      <trkpt lat="45.42017" lon="5.77049">
        <ele>496.6</ele>
        <time>2019-04-18T09:33:13Z</time>
      </trkpt>
      <trkpt lat="45.42011" lon="5.77049">
        <ele>496.4</ele>
        <time>2019-04-18T09:33:14Z</time>
      </trkpt>
      <trkpt lat="45.42006" lon="5.77047">
        <ele>496.3</ele>
        <time>2019-04-18T09:33:15Z</time>
      </trkpt>
      <trkpt lat="45.42002" lon="5.77047">
        <ele>496.2</ele>
        <time>2019-04-18T09:33:16Z</time>
      </trkpt>
      <trkpt lat="45.41997" lon="5.77045">
        <ele>496.1</ele>
        <time>2019-04-18T09:33:17Z</time>
      </trkpt>
      <trkpt lat="45.41992" lon="5.77045">
        <ele>496</ele>
        <time>2019-04-18T09:33:18Z</time>
      </trkpt>
      <trkpt lat="45.41987" lon="5.77043">
        <ele>495.9</ele>
        <time>2019-04-18T09:33:19Z</time>
      </trkpt>
      <trkpt lat="45.41983" lon="5.7704">
        <ele>495.8</ele>
        <time>2019-04-18T09:33:20Z</time>
      </trkpt>
      <trkpt lat="45.41978" lon="5.77036">
        <ele>495.6</ele>
        <time>2019-04-18T09:33:21Z</time>
      </trkpt>
      <trkpt lat="45.41972" lon="5.77036">
        <ele>495.5</ele>
        <time>2019-04-18T09:33:22Z</time>
      </trkpt>
      <trkpt lat="45.41966" lon="5.77035">
        <ele>495.4</ele>
        <time>2019-04-18T09:33:23Z</time>
      </trkpt>
      <trkpt lat="45.4196" lon="5.77034">
        <ele>495.3</ele>
        <time>2019-04-18T09:33:24Z</time>
      </trkpt>
      <trkpt lat="45.41953" lon="5.77033">
        <ele>495.2</ele>
        <time>2019-04-18T09:33:25Z</time>
      </trkpt>
      <trkpt lat="45.41947" lon="5.7703">
        <ele>495.1</ele>
        <time>2019-04-18T09:33:26Z</time>
      </trkpt>
      <trkpt lat="45.41941" lon="5.77027">
        <ele>495</ele>
        <time>2019-04-18T09:33:27Z</time>
      </trkpt>
      <trkpt lat="45.41936" lon="5.77024">
        <ele>494.9</ele>
        <time>2019-04-18T09:33:28Z</time>
      </trkpt>
      <trkpt lat="45.41928" lon="5.77018">
        <ele>494.6</ele>
        <time>2019-04-18T09:33:29Z</time>
      </trkpt>
      <trkpt lat="45.41923" lon="5.77015">
        <ele>494.5</ele>
        <time>2019-04-18T09:33:30Z</time>
      </trkpt>
      <trkpt lat="45.41918" lon="5.77012">
        <ele>494.4</ele>
        <time>2019-04-18T09:33:31Z</time>
      </trkpt>
      <trkpt lat="45.41912" lon="5.77008">
        <ele>494.2</ele>
        <time>2019-04-18T09:33:32Z</time>
      </trkpt>
      <trkpt lat="45.41907" lon="5.77004">
        <ele>494.1</ele>
        <time>2019-04-18T09:33:33Z</time>
      </trkpt>
      <trkpt lat="45.41902" lon="5.77001">
        <ele>494</ele>
        <time>2019-04-18T09:33:34Z</time>
      </trkpt>
      <trkpt lat="45.41896" lon="5.77">
        <ele>493.9</ele>
        <time>2019-04-18T09:33:35Z</time>
      </trkpt>
      <trkpt lat="45.41891" lon="5.76996">
        <ele>493.7</ele>
        <time>2019-04-18T09:33:36Z</time>
      </trkpt>
      <trkpt lat="45.41886" lon="5.76992">
        <ele>493.6</ele>
        <time>2019-04-18T09:33:37Z</time>
      </trkpt>
      <trkpt lat="45.41882" lon="5.76988">
        <ele>493.5</ele>
        <time>2019-04-18T09:33:38Z</time>
      </trkpt>
      <trkpt lat="45.41877" lon="5.76983">
        <ele>493.4</ele>
        <time>2019-04-18T09:33:39Z</time>
      </trkpt>
      <trkpt lat="45.41871" lon="5.76982">
        <ele>493.3</ele>
        <time>2019-04-18T09:33:40Z</time>
      </trkpt>
      <trkpt lat="45.41868" lon="5.76978">
        <ele>493.2</ele>
        <time>2019-04-18T09:33:41Z</time>
      </trkpt>
      <trkpt lat="45.41864" lon="5.76975">
        <ele>493.1</ele>
        <time>2019-04-18T09:33:42Z</time>
      </trkpt>
      <trkpt lat="45.4186" lon="5.76971">
        <ele>492.9</ele>
        <time>2019-04-18T09:33:43Z</time>
      </trkpt>
      <trkpt lat="45.41856" lon="5.76967">
        <ele>492.8</ele>
        <time>2019-04-18T09:33:44Z</time>
      </trkpt>
      <trkpt lat="45.41851" lon="5.76963">
        <ele>492.6</ele>
        <time>2019-04-18T09:33:45Z</time>
      </trkpt>
      <trkpt lat="45.41846" lon="5.76961">
        <ele>492.5</ele>
        <time>2019-04-18T09:33:46Z</time>
      </trkpt>
      <trkpt lat="45.41841" lon="5.76959">
        <ele>492.4</ele>
        <time>2019-04-18T09:33:47Z</time>
      </trkpt>
      <trkpt lat="45.41835" lon="5.76956">
        <ele>492.3</ele>
        <time>2019-04-18T09:33:48Z</time>
      </trkpt>
      <trkpt lat="45.41829" lon="5.76955">
        <ele>492.2</ele>
        <time>2019-04-18T09:33:49Z</time>
      </trkpt>
      <trkpt lat="45.41824" lon="5.76953">
        <ele>492</ele>
        <time>2019-04-18T09:33:50Z</time>
      </trkpt>
      <trkpt lat="45.41817" lon="5.76952">
        <ele>491.8</ele>
        <time>2019-04-18T09:33:51Z</time>
      </trkpt>
      <trkpt lat="45.41812" lon="5.7695">
        <ele>491.7</ele>
        <time>2019-04-18T09:33:52Z</time>
      </trkpt>
      <trkpt lat="45.41805" lon="5.76952">
        <ele>491.6</ele>
        <time>2019-04-18T09:33:53Z</time>
      </trkpt>
      <trkpt lat="45.41799" lon="5.76954">
        <ele>491.4</ele>
        <time>2019-04-18T09:33:54Z</time>
      </trkpt>
      <trkpt lat="45.41792" lon="5.76956">
        <ele>491.2</ele>
        <time>2019-04-18T09:33:55Z</time>
      </trkpt>
      <trkpt lat="45.41786" lon="5.76958">
        <ele>491</ele>
        <time>2019-04-18T09:33:56Z</time>
      </trkpt>
      <trkpt lat="45.41779" lon="5.76961">
        <ele>490.9</ele>
        <time>2019-04-18T09:33:57Z</time>
      </trkpt>
      <trkpt lat="45.41774" lon="5.76964">
        <ele>490.8</ele>
        <time>2019-04-18T09:33:58Z</time>
      </trkpt>
      <trkpt lat="45.41768" lon="5.76966">
        <ele>490.7</ele>
        <time>2019-04-18T09:33:59Z</time>
      </trkpt>
      <trkpt lat="45.4176" lon="5.76967">
        <ele>490.5</ele>
        <time>2019-04-18T09:34:00Z</time>
      </trkpt>
      <trkpt lat="45.41754" lon="5.76971">
        <ele>490.2</ele>
        <time>2019-04-18T09:34:01Z</time>
      </trkpt>
      <trkpt lat="45.41746" lon="5.76976">
        <ele>490</ele>
        <time>2019-04-18T09:34:02Z</time>
      </trkpt>
      <trkpt lat="45.41738" lon="5.76978">
        <ele>489.9</ele>
        <time>2019-04-18T09:34:03Z</time>
      </trkpt>
      <trkpt lat="45.4173" lon="5.76981">
        <ele>489.7</ele>
        <time>2019-04-18T09:34:04Z</time>
      </trkpt>
      <trkpt lat="45.41723" lon="5.76985">
        <ele>489.4</ele>
        <time>2019-04-18T09:34:05Z</time>
      </trkpt>
      <trkpt lat="45.41716" lon="5.76989">
        <ele>489.2</ele>
        <time>2019-04-18T09:34:06Z</time>
      </trkpt>
      <trkpt lat="45.41709" lon="5.76991">
        <ele>489.1</ele>
        <time>2019-04-18T09:34:07Z</time>
      </trkpt>
      <trkpt lat="45.41702" lon="5.76995">
        <ele>488.9</ele>
        <time>2019-04-18T09:34:08Z</time>
      </trkpt>
      <trkpt lat="45.41696" lon="5.76998">
        <ele>488.8</ele>
        <time>2019-04-18T09:34:09Z</time>
      </trkpt>
      <trkpt lat="45.4169" lon="5.77002">
        <ele>488.7</ele>
        <time>2019-04-18T09:34:10Z</time>
      </trkpt>
      <trkpt lat="45.41682" lon="5.77005">
        <ele>488.4</ele>
        <time>2019-04-18T09:34:11Z</time>
      </trkpt>
      <trkpt lat="45.41676" lon="5.77009">
        <ele>488.2</ele>
        <time>2019-04-18T09:34:12Z</time>
      </trkpt>
      <trkpt lat="45.4167" lon="5.7701">
        <ele>488</ele>
        <time>2019-04-18T09:34:13Z</time>
      </trkpt>
      <trkpt lat="45.41663" lon="5.77013">
        <ele>487.8</ele>
        <time>2019-04-18T09:34:14Z</time>
      </trkpt>
      <trkpt lat="45.41659" lon="5.77012">
        <ele>487.7</ele>
        <time>2019-04-18T09:34:15Z</time>
      </trkpt>
      <trkpt lat="45.41652" lon="5.77012">
        <ele>487.8</ele>
        <time>2019-04-18T09:34:16Z</time>
      </trkpt>
      <trkpt lat="45.41646" lon="5.77011">
        <ele>487.6</ele>
        <time>2019-04-18T09:34:17Z</time>
      </trkpt>
      <trkpt lat="45.4164" lon="5.7701">
        <ele>487.4</ele>
        <time>2019-04-18T09:34:18Z</time>
      </trkpt>
      <trkpt lat="45.41635" lon="5.77009">
        <ele>487.2</ele>
        <time>2019-04-18T09:34:19Z</time>
      </trkpt>
      <trkpt lat="45.41629" lon="5.77007">
        <ele>487</ele>
        <time>2019-04-18T09:34:20Z</time>
      </trkpt>
      <trkpt lat="45.41625" lon="5.77004">
        <ele>486.8</ele>
        <time>2019-04-18T09:34:21Z</time>
      </trkpt>
      <trkpt lat="45.41621" lon="5.77001">
        <ele>486.7</ele>
        <time>2019-04-18T09:34:22Z</time>
      </trkpt>
      <trkpt lat="45.41615" lon="5.76998">
        <ele>486.5</ele>
        <time>2019-04-18T09:34:23Z</time>
      </trkpt>
      <trkpt lat="45.4161" lon="5.76995">
        <ele>486.2</ele>
        <time>2019-04-18T09:34:24Z</time>
      </trkpt>
      <trkpt lat="45.41603" lon="5.76992">
        <ele>485.9</ele>
        <time>2019-04-18T09:34:25Z</time>
      </trkpt>
      <trkpt lat="45.41597" lon="5.76988">
        <ele>485.4</ele>
        <time>2019-04-18T09:34:26Z</time>
      </trkpt>
      <trkpt lat="45.41589" lon="5.76985">
        <ele>485</ele>
        <time>2019-04-18T09:34:27Z</time>
      </trkpt>
      <trkpt lat="45.41583" lon="5.76982">
        <ele>484.5</ele>
        <time>2019-04-18T09:34:28Z</time>
      </trkpt>
      <trkpt lat="45.41576" lon="5.76979">
        <ele>484.1</ele>
        <time>2019-04-18T09:34:29Z</time>
      </trkpt>
      <trkpt lat="45.4157" lon="5.76976">
        <ele>483.6</ele>
        <time>2019-04-18T09:34:30Z</time>
      </trkpt>
      <trkpt lat="45.41563" lon="5.76973">
        <ele>483.1</ele>
        <time>2019-04-18T09:34:31Z</time>
      </trkpt>
      <trkpt lat="45.41556" lon="5.76969">
        <ele>482.5</ele>
        <time>2019-04-18T09:34:32Z</time>
      </trkpt>
      <trkpt lat="45.41549" lon="5.76965">
        <ele>482</ele>
        <time>2019-04-18T09:34:33Z</time>
      </trkpt>
      <trkpt lat="45.41542" lon="5.76962">
        <ele>481.6</ele>
        <time>2019-04-18T09:34:34Z</time>
      </trkpt>
      <trkpt lat="45.41534" lon="5.76961">
        <ele>481.2</ele>
        <time>2019-04-18T09:34:35Z</time>
      </trkpt>
      <trkpt lat="45.41526" lon="5.76959">
        <ele>480.8</ele>
        <time>2019-04-18T09:34:36Z</time>
      </trkpt>
      <trkpt lat="45.4152" lon="5.76955">
        <ele>480.5</ele>
        <time>2019-04-18T09:34:37Z</time>
      </trkpt>
      <trkpt lat="45.41512" lon="5.76951">
        <ele>480.3</ele>
        <time>2019-04-18T09:34:38Z</time>
      </trkpt>
      <trkpt lat="45.41504" lon="5.76947">
        <ele>480</ele>
        <time>2019-04-18T09:34:39Z</time>
      </trkpt>
      <trkpt lat="45.41496" lon="5.76943">
        <ele>479.7</ele>
        <time>2019-04-18T09:34:40Z</time>
      </trkpt>
      <trkpt lat="45.41488" lon="5.7694">
        <ele>479.6</ele>
        <time>2019-04-18T09:34:41Z</time>
      </trkpt>
      <trkpt lat="45.41481" lon="5.76937">
        <ele>479.5</ele>
        <time>2019-04-18T09:34:42Z</time>
      </trkpt>
      <trkpt lat="45.41473" lon="5.76932">
        <ele>479.4</ele>
        <time>2019-04-18T09:34:43Z</time>
      </trkpt>
      <trkpt lat="45.41466" lon="5.7693">
        <ele>479.3</ele>
        <time>2019-04-18T09:34:44Z</time>
      </trkpt>
      <trkpt lat="45.41459" lon="5.76928">
        <ele>479.2</ele>
        <time>2019-04-18T09:34:45Z</time>
      </trkpt>
      <trkpt lat="45.41453" lon="5.76924">
        <ele>479.2</ele>
        <time>2019-04-18T09:34:46Z</time>
      </trkpt>
      <trkpt lat="45.41445" lon="5.76923">
        <ele>478.7</ele>
        <time>2019-04-18T09:34:47Z</time>
      </trkpt>
      <trkpt lat="45.41439" lon="5.76918">
        <ele>478.4</ele>
        <time>2019-04-18T09:34:48Z</time>
      </trkpt>
      <trkpt lat="45.41431" lon="5.76916">
        <ele>478.1</ele>
        <time>2019-04-18T09:34:49Z</time>
      </trkpt>
      <trkpt lat="45.41423" lon="5.76911">
        <ele>477.8</ele>
        <time>2019-04-18T09:34:50Z</time>
      </trkpt>
      <trkpt lat="45.41415" lon="5.76907">
        <ele>477.5</ele>
        <time>2019-04-18T09:34:51Z</time>
      </trkpt>
      <trkpt lat="45.41406" lon="5.76903">
        <ele>477.1</ele>
        <time>2019-04-18T09:34:52Z</time>
      </trkpt>
      <trkpt lat="45.41399" lon="5.76898">
        <ele>476.8</ele>
        <time>2019-04-18T09:34:53Z</time>
      </trkpt>
      <trkpt lat="45.41392" lon="5.76894">
        <ele>476.6</ele>
        <time>2019-04-18T09:34:54Z</time>
      </trkpt>
      <trkpt lat="45.41385" lon="5.76889">
        <ele>476.4</ele>
        <time>2019-04-18T09:34:55Z</time>
      </trkpt>
      <trkpt lat="45.41379" lon="5.76883">
        <ele>476.1</ele>
        <time>2019-04-18T09:34:56Z</time>
      </trkpt>
      <trkpt lat="45.41374" lon="5.76876">
        <ele>475.8</ele>
        <time>2019-04-18T09:34:57Z</time>
      </trkpt>
      <trkpt lat="45.41368" lon="5.76867">
        <ele>474.8</ele>
        <time>2019-04-18T09:34:58Z</time>
      </trkpt>
      <trkpt lat="45.41363" lon="5.76859">
        <ele>474.1</ele>
        <time>2019-04-18T09:34:59Z</time>
      </trkpt>
      <trkpt lat="45.41358" lon="5.76849">
        <ele>473.6</ele>
        <time>2019-04-18T09:35:00Z</time>
      </trkpt>
      <trkpt lat="45.41353" lon="5.7684">
        <ele>473</ele>
        <time>2019-04-18T09:35:01Z</time>
      </trkpt>
      <trkpt lat="45.41349" lon="5.76829">
        <ele>472.4</ele>
        <time>2019-04-18T09:35:02Z</time>
      </trkpt>
      <trkpt lat="45.41344" lon="5.76819">
        <ele>471.8</ele>
        <time>2019-04-18T09:35:03Z</time>
      </trkpt>
      <trkpt lat="45.4134" lon="5.76809">
        <ele>471.3</ele>
        <time>2019-04-18T09:35:04Z</time>
      </trkpt>
      <trkpt lat="45.41335" lon="5.76799">
        <ele>470.7</ele>
        <time>2019-04-18T09:35:05Z</time>
      </trkpt>
      <trkpt lat="45.4133" lon="5.7679">
        <ele>470.1</ele>
        <time>2019-04-18T09:35:06Z</time>
      </trkpt>
      <trkpt lat="45.41325" lon="5.76781">
        <ele>469.4</ele>
        <time>2019-04-18T09:35:07Z</time>
      </trkpt>
      <trkpt lat="45.4132" lon="5.76772">
        <ele>468.7</ele>
        <time>2019-04-18T09:35:08Z</time>
      </trkpt>
      <trkpt lat="45.41314" lon="5.76762">
        <ele>468</ele>
        <time>2019-04-18T09:35:09Z</time>
      </trkpt>
      <trkpt lat="45.41307" lon="5.76753">
        <ele>467.5</ele>
        <time>2019-04-18T09:35:10Z</time>
      </trkpt>
      <trkpt lat="45.413" lon="5.76743">
        <ele>467</ele>
        <time>2019-04-18T09:35:11Z</time>
      </trkpt>
      <trkpt lat="45.41294" lon="5.76734">
        <ele>466.6</ele>
        <time>2019-04-18T09:35:12Z</time>
      </trkpt>
      <trkpt lat="45.41288" lon="5.76725">
        <ele>465.9</ele>
        <time>2019-04-18T09:35:13Z</time>
      </trkpt>
      <trkpt lat="45.41282" lon="5.76715">
        <ele>465.2</ele>
        <time>2019-04-18T09:35:14Z</time>
      </trkpt>
      <trkpt lat="45.41275" lon="5.76705">
        <ele>464.6</ele>
        <time>2019-04-18T09:35:15Z</time>
      </trkpt>
      <trkpt lat="45.41268" lon="5.76695">
        <ele>464.1</ele>
        <time>2019-04-18T09:35:16Z</time>
      </trkpt>
      <trkpt lat="45.4126" lon="5.76686">
        <ele>463.6</ele>
        <time>2019-04-18T09:35:17Z</time>
      </trkpt>
      <trkpt lat="45.41254" lon="5.76677">
        <ele>463.2</ele>
        <time>2019-04-18T09:35:18Z</time>
      </trkpt>
      <trkpt lat="45.41248" lon="5.76668">
        <ele>462.7</ele>
        <time>2019-04-18T09:35:19Z</time>
      </trkpt>
      <trkpt lat="45.41243" lon="5.7666">
        <ele>462.5</ele>
        <time>2019-04-18T09:35:20Z</time>
      </trkpt>
      <trkpt lat="45.41238" lon="5.76653">
        <ele>462.2</ele>
        <time>2019-04-18T09:35:21Z</time>
      </trkpt>
      <trkpt lat="45.41233" lon="5.76646">
        <ele>462</ele>
        <time>2019-04-18T09:35:22Z</time>
      </trkpt>
      <trkpt lat="45.41228" lon="5.76639">
        <ele>461.7</ele>
        <time>2019-04-18T09:35:23Z</time>
      </trkpt>
      <trkpt lat="45.41224" lon="5.76632">
        <ele>461.5</ele>
        <time>2019-04-18T09:35:24Z</time>
      </trkpt>
      <trkpt lat="45.4122" lon="5.76627">
        <ele>461.3</ele>
        <time>2019-04-18T09:35:25Z</time>
      </trkpt>
      <trkpt lat="45.41218" lon="5.76623">
        <ele>461.2</ele>
        <time>2019-04-18T09:35:26Z</time>
      </trkpt>
      <trkpt lat="45.41216" lon="5.76619">
        <ele>461.1</ele>
        <time>2019-04-18T09:35:27Z</time>
      </trkpt>
      <trkpt lat="45.41214" lon="5.76615">
        <ele>460.9</ele>
        <time>2019-04-18T09:35:28Z</time>
      </trkpt>
      <trkpt lat="45.41214" lon="5.7661">
        <ele>460.8</ele>
        <time>2019-04-18T09:35:29Z</time>
      </trkpt>
      <trkpt lat="45.41216" lon="5.76608">
        <ele>460.7</ele>
        <time>2019-04-18T09:35:34Z</time>
      </trkpt>
      <trkpt lat="45.41215" lon="5.76604">
        <ele>460.6</ele>
        <time>2019-04-18T09:35:42Z</time>
      </trkpt>
      <trkpt lat="45.41212" lon="5.76606">
        <ele>460.7</ele>
        <time>2019-04-18T09:36:19Z</time>
      </trkpt>
      <trkpt lat="45.41208" lon="5.76609">
        <ele>460.9</ele>
        <time>2019-04-18T09:36:27Z</time>
      </trkpt>
      <trkpt lat="45.41205" lon="5.76613">
        <ele>461</ele>
        <time>2019-04-18T09:36:29Z</time>
      </trkpt>
      <trkpt lat="45.41208" lon="5.76616">
        <ele>461.1</ele>
        <time>2019-04-18T09:36:31Z</time>
      </trkpt>
      <trkpt lat="45.41211" lon="5.76616">
        <ele>461.2</ele>
        <time>2019-04-18T09:36:34Z</time>
      </trkpt>
      <trkpt lat="45.41213" lon="5.76622">
        <ele>461.3</ele>
        <time>2019-04-18T09:36:38Z</time>
      </trkpt>
      <trkpt lat="45.41215" lon="5.76628">
        <ele>461.5</ele>
        <time>2019-04-18T09:36:40Z</time>
      </trkpt>
      <trkpt lat="45.41217" lon="5.76631">
        <ele>461.6</ele>
        <time>2019-04-18T09:36:41Z</time>
      </trkpt>
      <trkpt lat="45.4122" lon="5.76634">
        <ele>461.7</ele>
        <time>2019-04-18T09:36:42Z</time>
      </trkpt>
      <trkpt lat="45.41222" lon="5.76637">
        <ele>461.8</ele>
        <time>2019-04-18T09:36:43Z</time>
      </trkpt>
      <trkpt lat="45.41225" lon="5.7664">
        <ele>461.9</ele>
        <time>2019-04-18T09:36:44Z</time>
      </trkpt>
      <trkpt lat="45.41228" lon="5.76643">
        <ele>462</ele>
        <time>2019-04-18T09:36:45Z</time>
      </trkpt>
      <trkpt lat="45.41231" lon="5.76646">
        <ele>462.1</ele>
        <time>2019-04-18T09:36:46Z</time>
      </trkpt>
      <trkpt lat="45.41234" lon="5.76648">
        <ele>462.2</ele>
        <time>2019-04-18T09:36:47Z</time>
      </trkpt>
      <trkpt lat="45.41235" lon="5.76652">
        <ele>462.3</ele>
        <time>2019-04-18T09:36:48Z</time>
      </trkpt>
      <trkpt lat="45.41237" lon="5.76656">
        <ele>462.4</ele>
        <time>2019-04-18T09:36:49Z</time>
      </trkpt>
      <trkpt lat="45.41239" lon="5.7666">
        <ele>462.5</ele>
        <time>2019-04-18T09:36:50Z</time>
      </trkpt>
      <trkpt lat="45.41242" lon="5.76664">
        <ele>462.7</ele>
        <time>2019-04-18T09:36:51Z</time>
      </trkpt>
      <trkpt lat="45.41245" lon="5.76668">
        <ele>462.8</ele>
        <time>2019-04-18T09:36:52Z</time>
      </trkpt>
      <trkpt lat="45.41248" lon="5.76672">
        <ele>463</ele>
        <time>2019-04-18T09:36:53Z</time>
      </trkpt>
      <trkpt lat="45.41251" lon="5.76676">
        <ele>463.2</ele>
        <time>2019-04-18T09:36:54Z</time>
      </trkpt>
      <trkpt lat="45.41254" lon="5.7668">
        <ele>463.3</ele>
        <time>2019-04-18T09:36:55Z</time>
      </trkpt>
      <trkpt lat="45.41254" lon="5.76684">
        <ele>463.5</ele>
        <time>2019-04-18T09:36:56Z</time>
      </trkpt>
      <trkpt lat="45.41255" lon="5.76688">
        <ele>463.6</ele>
        <time>2019-04-18T09:36:57Z</time>
      </trkpt>
      <trkpt lat="45.41256" lon="5.76692">
        <ele>463.7</ele>
        <time>2019-04-18T09:36:58Z</time>
      </trkpt>
      <trkpt lat="45.41259" lon="5.76696">
        <ele>463.9</ele>
        <time>2019-04-18T09:36:59Z</time>
      </trkpt>
      <trkpt lat="45.41261" lon="5.76699">
        <ele>464</ele>
        <time>2019-04-18T09:37:00Z</time>
      </trkpt>
      <trkpt lat="45.41264" lon="5.76702">
        <ele>464.2</ele>
        <time>2019-04-18T09:37:01Z</time>
      </trkpt>
      <trkpt lat="45.41267" lon="5.76705">
        <ele>464.4</ele>
        <time>2019-04-18T09:37:02Z</time>
      </trkpt>
      <trkpt lat="45.41269" lon="5.76707">
        <ele>464.5</ele>
        <time>2019-04-18T09:37:03Z</time>
      </trkpt>
      <trkpt lat="45.41272" lon="5.76709">
        <ele>464.7</ele>
        <time>2019-04-18T09:37:04Z</time>
      </trkpt>
      <trkpt lat="45.41274" lon="5.76712">
        <ele>464.8</ele>
        <time>2019-04-18T09:37:05Z</time>
      </trkpt>
      <trkpt lat="45.41277" lon="5.76716">
        <ele>465</ele>
        <time>2019-04-18T09:37:06Z</time>
      </trkpt>
      <trkpt lat="45.41279" lon="5.7672">
        <ele>465.2</ele>
        <time>2019-04-18T09:37:07Z</time>
      </trkpt>
      <trkpt lat="45.41281" lon="5.76724">
        <ele>465.4</ele>
        <time>2019-04-18T09:37:08Z</time>
      </trkpt>
      <trkpt lat="45.41287" lon="5.76734">
        <ele>466.1</ele>
        <time>2019-04-18T09:37:11Z</time>
      </trkpt>
      <trkpt lat="45.41292" lon="5.76739">
        <ele>466.5</ele>
        <time>2019-04-18T09:37:13Z</time>
      </trkpt>
      <trkpt lat="45.41296" lon="5.76744">
        <ele>467</ele>
        <time>2019-04-18T09:37:15Z</time>
      </trkpt>
      <trkpt lat="45.41303" lon="5.76753">
        <ele>467.3</ele>
        <time>2019-04-18T09:37:19Z</time>
      </trkpt>
      <trkpt lat="45.41306" lon="5.76756">
        <ele>467.4</ele>
        <time>2019-04-18T09:37:20Z</time>
      </trkpt>
      <trkpt lat="45.4131" lon="5.76762">
        <ele>467.7</ele>
        <time>2019-04-18T09:37:21Z</time>
      </trkpt>
      <trkpt lat="45.41314" lon="5.76768">
        <ele>468.1</ele>
        <time>2019-04-18T09:37:22Z</time>
      </trkpt>
      <trkpt lat="45.41319" lon="5.76775">
        <ele>468.5</ele>
        <time>2019-04-18T09:37:23Z</time>
      </trkpt>
      <trkpt lat="45.41323" lon="5.7678">
        <ele>468.6</ele>
        <time>2019-04-18T09:37:24Z</time>
      </trkpt>
      <trkpt lat="45.41327" lon="5.76783">
        <ele>469</ele>
        <time>2019-04-18T09:37:25Z</time>
      </trkpt>
      <trkpt lat="45.41329" lon="5.76785">
        <ele>469.3</ele>
        <time>2019-04-18T09:37:26Z</time>
      </trkpt>
      <trkpt lat="45.41332" lon="5.76788">
        <ele>469.6</ele>
        <time>2019-04-18T09:37:27Z</time>
      </trkpt>
      <trkpt lat="45.41335" lon="5.76791">
        <ele>469.9</ele>
        <time>2019-04-18T09:37:28Z</time>
      </trkpt>
      <trkpt lat="45.41338" lon="5.76794">
        <ele>470.2</ele>
        <time>2019-04-18T09:37:29Z</time>
      </trkpt>
      <trkpt lat="45.4134" lon="5.76798">
        <ele>470.3</ele>
        <time>2019-04-18T09:37:30Z</time>
      </trkpt>
      <trkpt lat="45.41342" lon="5.76801">
        <ele>470.5</ele>
        <time>2019-04-18T09:37:31Z</time>
      </trkpt>
      <trkpt lat="45.41344" lon="5.76804">
        <ele>470.6</ele>
        <time>2019-04-18T09:37:32Z</time>
      </trkpt>
      <trkpt lat="45.41347" lon="5.76807">
        <ele>470.7</ele>
        <time>2019-04-18T09:37:33Z</time>
      </trkpt>
      <trkpt lat="45.41349" lon="5.76809">
        <ele>470.8</ele>
        <time>2019-04-18T09:37:34Z</time>
      </trkpt>
      <trkpt lat="45.41351" lon="5.76806">
        <ele>470.8</ele>
        <time>2019-04-18T09:37:41Z</time>
      </trkpt>
      <trkpt lat="45.41353" lon="5.76801">
        <ele>470.8</ele>
        <time>2019-04-18T09:37:43Z</time>
      </trkpt>
      <trkpt lat="45.41355" lon="5.76797">
        <ele>470.8</ele>
        <time>2019-04-18T09:37:45Z</time>
      </trkpt>
      <trkpt lat="45.41354" lon="5.76793">
        <ele>470.8</ele>
        <time>2019-04-18T09:37:51Z</time>
      </trkpt>
      <trkpt lat="45.41356" lon="5.76792">
        <ele>470.8</ele>
        <time>2019-04-18T09:38:14Z</time>
      </trkpt>
      <trkpt lat="45.41358" lon="5.76788">
        <ele>470.9</ele>
        <time>2019-04-18T09:38:16Z</time>
      </trkpt>
      <trkpt lat="45.4136" lon="5.76782">
        <ele>470.9</ele>
        <time>2019-04-18T09:38:18Z</time>
      </trkpt>
      <trkpt lat="45.41362" lon="5.76779">
        <ele>470.9</ele>
        <time>2019-04-18T09:38:19Z</time>
      </trkpt>
      <trkpt lat="45.41364" lon="5.76775">
        <ele>470.8</ele>
        <time>2019-04-18T09:38:21Z</time>
      </trkpt>
      <trkpt lat="45.41366" lon="5.7677">
        <ele>470.8</ele>
        <time>2019-04-18T09:38:23Z</time>
      </trkpt>
      <trkpt lat="45.41368" lon="5.76765">
        <ele>470.8</ele>
        <time>2019-04-18T09:38:25Z</time>
      </trkpt>
      <trkpt lat="45.41371" lon="5.76758">
        <ele>470.8</ele>
        <time>2019-04-18T09:38:27Z</time>
      </trkpt>
      <trkpt lat="45.41372" lon="5.76753">
        <ele>470.8</ele>
        <time>2019-04-18T09:38:28Z</time>
      </trkpt>
      <trkpt lat="45.41374" lon="5.76749">
        <ele>470.8</ele>
        <time>2019-04-18T09:38:29Z</time>
      </trkpt>
      <trkpt lat="45.41375" lon="5.76743">
        <ele>470.8</ele>
        <time>2019-04-18T09:38:30Z</time>
      </trkpt>
      <trkpt lat="45.41377" lon="5.76738">
        <ele>470.8</ele>
        <time>2019-04-18T09:38:31Z</time>
      </trkpt>
      <trkpt lat="45.41378" lon="5.76731">
        <ele>470.8</ele>
        <time>2019-04-18T09:38:32Z</time>
      </trkpt>
      <trkpt lat="45.41381" lon="5.76725">
        <ele>470.7</ele>
        <time>2019-04-18T09:38:33Z</time>
      </trkpt>
      <trkpt lat="45.41385" lon="5.76717">
        <ele>470.7</ele>
        <time>2019-04-18T09:38:34Z</time>
      </trkpt>
      <trkpt lat="45.41388" lon="5.76709">
        <ele>470.7</ele>
        <time>2019-04-18T09:38:35Z</time>
      </trkpt>
      <trkpt lat="45.41392" lon="5.76702">
        <ele>470.7</ele>
        <time>2019-04-18T09:38:36Z</time>
      </trkpt>
      <trkpt lat="45.41397" lon="5.76693">
        <ele>470.6</ele>
        <time>2019-04-18T09:38:37Z</time>
      </trkpt>
      <trkpt lat="45.41399" lon="5.76687">
        <ele>470.6</ele>
        <time>2019-04-18T09:38:38Z</time>
      </trkpt>
      <trkpt lat="45.41402" lon="5.7668">
        <ele>470.6</ele>
        <time>2019-04-18T09:38:39Z</time>
      </trkpt>
      <trkpt lat="45.41404" lon="5.76674">
        <ele>470.6</ele>
        <time>2019-04-18T09:38:40Z</time>
      </trkpt>
      <trkpt lat="45.41406" lon="5.76667">
        <ele>470.6</ele>
        <time>2019-04-18T09:38:41Z</time>
      </trkpt>
      <trkpt lat="45.41408" lon="5.76658">
        <ele>470.5</ele>
        <time>2019-04-18T09:38:42Z</time>
      </trkpt>
      <trkpt lat="45.4141" lon="5.76647">
        <ele>470.5</ele>
        <time>2019-04-18T09:38:43Z</time>
      </trkpt>
      <trkpt lat="45.41412" lon="5.76636">
        <ele>470.4</ele>
        <time>2019-04-18T09:38:44Z</time>
      </trkpt>
      <trkpt lat="45.41413" lon="5.76625">
        <ele>470.4</ele>
        <time>2019-04-18T09:38:45Z</time>
      </trkpt>
      <trkpt lat="45.41414" lon="5.76615">
        <ele>470.3</ele>
        <time>2019-04-18T09:38:46Z</time>
      </trkpt>
      <trkpt lat="45.41416" lon="5.76607">
        <ele>470.2</ele>
        <time>2019-04-18T09:38:47Z</time>
      </trkpt>
      <trkpt lat="45.41416" lon="5.76603">
        <ele>470.1</ele>
        <time>2019-04-18T09:38:48Z</time>
      </trkpt>
      <trkpt lat="45.41416" lon="5.76598">
        <ele>470</ele>
        <time>2019-04-18T09:38:49Z</time>
      </trkpt>
      <trkpt lat="45.41416" lon="5.76593">
        <ele>469.9</ele>
        <time>2019-04-18T09:38:50Z</time>
      </trkpt>
      <trkpt lat="45.41415" lon="5.76584">
        <ele>469.7</ele>
        <time>2019-04-18T09:38:51Z</time>
      </trkpt>
      <trkpt lat="45.41415" lon="5.76574">
        <ele>469.5</ele>
        <time>2019-04-18T09:38:52Z</time>
      </trkpt>
      <trkpt lat="45.41414" lon="5.7657">
        <ele>469.4</ele>
        <time>2019-04-18T09:38:53Z</time>
      </trkpt>
      <trkpt lat="45.41414" lon="5.76564">
        <ele>469.1</ele>
        <time>2019-04-18T09:38:54Z</time>
      </trkpt>
      <trkpt lat="45.41417" lon="5.76577">
        <ele>468.6</ele>
        <time>2019-04-18T09:38:55Z</time>
      </trkpt>
      <trkpt lat="45.4141" lon="5.76526">
        <ele>466.6</ele>
        <time>2019-04-18T09:38:57Z</time>
      </trkpt>
      <trkpt lat="45.41411" lon="5.76515">
        <ele>467.1</ele>
        <time>2019-04-18T09:38:58Z</time>
      </trkpt>
      <trkpt lat="45.41411" lon="5.76504">
        <ele>467.3</ele>
        <time>2019-04-18T09:38:59Z</time>
      </trkpt>
      <trkpt lat="45.41412" lon="5.76494">
        <ele>467.7</ele>
        <time>2019-04-18T09:39:00Z</time>
      </trkpt>
      <trkpt lat="45.41412" lon="5.76484">
        <ele>468</ele>
        <time>2019-04-18T09:39:01Z</time>
      </trkpt>
      <trkpt lat="45.41412" lon="5.76477">
        <ele>468.8</ele>
        <time>2019-04-18T09:39:02Z</time>
      </trkpt>
      <trkpt lat="45.41411" lon="5.76469">
        <ele>469</ele>
        <time>2019-04-18T09:39:03Z</time>
      </trkpt>
      <trkpt lat="45.4141" lon="5.76462">
        <ele>469.3</ele>
        <time>2019-04-18T09:39:04Z</time>
      </trkpt>
      <trkpt lat="45.4141" lon="5.76457">
        <ele>469.5</ele>
        <time>2019-04-18T09:39:05Z</time>
      </trkpt>
      <trkpt lat="45.41409" lon="5.76451">
        <ele>469.7</ele>
        <time>2019-04-18T09:39:06Z</time>
      </trkpt>
      <trkpt lat="45.41408" lon="5.76444">
        <ele>469.9</ele>
        <time>2019-04-18T09:39:07Z</time>
      </trkpt>
      <trkpt lat="45.41407" lon="5.76438">
        <ele>470.4</ele>
        <time>2019-04-18T09:39:09Z</time>
      </trkpt>
      <trkpt lat="45.41405" lon="5.76432">
        <ele>470.3</ele>
        <time>2019-04-18T09:39:10Z</time>
      </trkpt>
      <trkpt lat="45.41404" lon="5.76425">
        <ele>470.7</ele>
        <time>2019-04-18T09:39:11Z</time>
      </trkpt>
      <trkpt lat="45.41403" lon="5.76418">
        <ele>470.9</ele>
        <time>2019-04-18T09:39:12Z</time>
      </trkpt>
      <trkpt lat="45.41404" lon="5.76412">
        <ele>471.2</ele>
        <time>2019-04-18T09:39:13Z</time>
      </trkpt>
      <trkpt lat="45.41406" lon="5.76406">
        <ele>471.9</ele>
        <time>2019-04-18T09:39:14Z</time>
      </trkpt>
      <trkpt lat="45.41408" lon="5.76401">
        <ele>472</ele>
        <time>2019-04-18T09:39:15Z</time>
      </trkpt>
      <trkpt lat="45.41409" lon="5.7639">
        <ele>472.3</ele>
        <time>2019-04-18T09:39:16Z</time>
      </trkpt>
      <trkpt lat="45.41409" lon="5.76384">
        <ele>473</ele>
        <time>2019-04-18T09:39:17Z</time>
      </trkpt>
      <trkpt lat="45.41407" lon="5.76376">
        <ele>472.6</ele>
        <time>2019-04-18T09:39:18Z</time>
      </trkpt>
      <trkpt lat="45.41407" lon="5.7637">
        <ele>472.7</ele>
        <time>2019-04-18T09:39:19Z</time>
      </trkpt>
      <trkpt lat="45.41406" lon="5.76364">
        <ele>472.8</ele>
        <time>2019-04-18T09:39:20Z</time>
      </trkpt>
      <trkpt lat="45.41406" lon="5.76355">
        <ele>473</ele>
        <time>2019-04-18T09:39:21Z</time>
      </trkpt>
      <trkpt lat="45.41405" lon="5.76347">
        <ele>472.4</ele>
        <time>2019-04-18T09:39:22Z</time>
      </trkpt>
      <trkpt lat="45.41405" lon="5.7634">
        <ele>472.5</ele>
        <time>2019-04-18T09:39:23Z</time>
      </trkpt>
      <trkpt lat="45.41405" lon="5.76333">
        <ele>472.5</ele>
        <time>2019-04-18T09:39:24Z</time>
      </trkpt>
      <trkpt lat="45.41404" lon="5.76327">
        <ele>472.5</ele>
        <time>2019-04-18T09:39:25Z</time>
      </trkpt>
      <trkpt lat="45.41406" lon="5.76324">
        <ele>472.5</ele>
        <time>2019-04-18T09:39:26Z</time>
      </trkpt>
      <trkpt lat="45.41406" lon="5.76317">
        <ele>473</ele>
        <time>2019-04-18T09:39:27Z</time>
      </trkpt>
      <trkpt lat="45.41404" lon="5.76313">
        <ele>472.3</ele>
        <time>2019-04-18T09:39:28Z</time>
      </trkpt>
      <trkpt lat="45.41404" lon="5.76307">
        <ele>472.2</ele>
        <time>2019-04-18T09:39:30Z</time>
      </trkpt>
      <trkpt lat="45.41404" lon="5.76301">
        <ele>471.9</ele>
        <time>2019-04-18T09:39:32Z</time>
      </trkpt>
      <trkpt lat="45.41404" lon="5.76292">
        <ele>471.6</ele>
        <time>2019-04-18T09:39:33Z</time>
      </trkpt>
      <trkpt lat="45.41405" lon="5.76285">
        <ele>471.5</ele>
        <time>2019-04-18T09:39:34Z</time>
      </trkpt>
      <trkpt lat="45.41406" lon="5.7628">
        <ele>471.9</ele>
        <time>2019-04-18T09:39:35Z</time>
      </trkpt>
      <trkpt lat="45.41406" lon="5.76274">
        <ele>471.8</ele>
        <time>2019-04-18T09:39:37Z</time>
      </trkpt>
      <trkpt lat="45.41406" lon="5.76269">
        <ele>471.6</ele>
        <time>2019-04-18T09:39:38Z</time>
      </trkpt>
      <trkpt lat="45.41405" lon="5.76262">
        <ele>470.8</ele>
        <time>2019-04-18T09:39:39Z</time>
      </trkpt>
      <trkpt lat="45.41405" lon="5.76255">
        <ele>470.6</ele>
        <time>2019-04-18T09:39:40Z</time>
      </trkpt>
      <trkpt lat="45.41403" lon="5.76246">
        <ele>470.3</ele>
        <time>2019-04-18T09:39:41Z</time>
      </trkpt>
      <trkpt lat="45.41401" lon="5.76236">
        <ele>469</ele>
        <time>2019-04-18T09:39:42Z</time>
      </trkpt>
      <trkpt lat="45.41398" lon="5.76226">
        <ele>467.9</ele>
        <time>2019-04-18T09:39:43Z</time>
      </trkpt>
      <trkpt lat="45.41395" lon="5.76219">
        <ele>466.6</ele>
        <time>2019-04-18T09:39:44Z</time>
      </trkpt>
      <trkpt lat="45.41392" lon="5.76217">
        <ele>466</ele>
        <time>2019-04-18T09:39:45Z</time>
      </trkpt>
      <trkpt lat="45.41389" lon="5.76214">
        <ele>464.8</ele>
        <time>2019-04-18T09:39:46Z</time>
      </trkpt>
      <trkpt lat="45.41385" lon="5.76208">
        <ele>463.1</ele>
        <time>2019-04-18T09:39:47Z</time>
      </trkpt>
      <trkpt lat="45.41382" lon="5.762">
        <ele>461.2</ele>
        <time>2019-04-18T09:39:48Z</time>
      </trkpt>
      <trkpt lat="45.4138" lon="5.76192">
        <ele>459.2</ele>
        <time>2019-04-18T09:39:49Z</time>
      </trkpt>
      <trkpt lat="45.4138" lon="5.76184">
        <ele>458</ele>
        <time>2019-04-18T09:39:50Z</time>
      </trkpt>
      <trkpt lat="45.4138" lon="5.76178">
        <ele>457.4</ele>
        <time>2019-04-18T09:39:51Z</time>
      </trkpt>
      <trkpt lat="45.41381" lon="5.76174">
        <ele>456.7</ele>
        <time>2019-04-18T09:39:53Z</time>
      </trkpt>
      <trkpt lat="45.41381" lon="5.76168">
        <ele>455.4</ele>
        <time>2019-04-18T09:39:56Z</time>
      </trkpt>
      <trkpt lat="45.41382" lon="5.76163">
        <ele>454.7</ele>
        <time>2019-04-18T09:39:58Z</time>
      </trkpt>
      <trkpt lat="45.41383" lon="5.76157">
        <ele>454.6</ele>
        <time>2019-04-18T09:40:00Z</time>
      </trkpt>
      <trkpt lat="45.41385" lon="5.7615">
        <ele>453.8</ele>
        <time>2019-04-18T09:40:02Z</time>
      </trkpt>
      <trkpt lat="45.41387" lon="5.76144">
        <ele>453</ele>
        <time>2019-04-18T09:40:04Z</time>
      </trkpt>
      <trkpt lat="45.41391" lon="5.76131">
        <ele>452.5</ele>
        <time>2019-04-18T09:40:05Z</time>
      </trkpt>
      <trkpt lat="45.41393" lon="5.76116">
        <ele>448.9</ele>
        <time>2019-04-18T09:40:06Z</time>
      </trkpt>
      <trkpt lat="45.41392" lon="5.76112">
        <ele>447.9</ele>
        <time>2019-04-18T09:40:07Z</time>
      </trkpt>
      <trkpt lat="45.41397" lon="5.76107">
        <ele>447.6</ele>
        <time>2019-04-18T09:40:09Z</time>
      </trkpt>
      <trkpt lat="45.414" lon="5.76103">
        <ele>447.6</ele>
        <time>2019-04-18T09:40:10Z</time>
      </trkpt>
      <trkpt lat="45.41403" lon="5.76098">
        <ele>447.3</ele>
        <time>2019-04-18T09:40:12Z</time>
      </trkpt>
      <trkpt lat="45.41407" lon="5.76091">
        <ele>447</ele>
        <time>2019-04-18T09:40:14Z</time>
      </trkpt>
      <trkpt lat="45.41409" lon="5.76087">
        <ele>446.8</ele>
        <time>2019-04-18T09:40:15Z</time>
      </trkpt>
      <trkpt lat="45.41413" lon="5.76081">
        <ele>445.8</ele>
        <time>2019-04-18T09:40:16Z</time>
      </trkpt>
      <trkpt lat="45.41418" lon="5.76074">
        <ele>445.3</ele>
        <time>2019-04-18T09:40:17Z</time>
      </trkpt>
      <trkpt lat="45.41427" lon="5.76063">
        <ele>445</ele>
        <time>2019-04-18T09:40:18Z</time>
      </trkpt>
      <trkpt lat="45.41431" lon="5.76058">
        <ele>444.6</ele>
        <time>2019-04-18T09:40:20Z</time>
      </trkpt>
      <trkpt lat="45.41435" lon="5.76057">
        <ele>445</ele>
        <time>2019-04-18T09:40:21Z</time>
      </trkpt>
      <trkpt lat="45.41437" lon="5.7605">
        <ele>443.7</ele>
        <time>2019-04-18T09:40:23Z</time>
      </trkpt>
      <trkpt lat="45.41439" lon="5.76044">
        <ele>442.2</ele>
        <time>2019-04-18T09:40:24Z</time>
      </trkpt>
      <trkpt lat="45.41438" lon="5.76039">
        <ele>441.5</ele>
        <time>2019-04-18T09:40:25Z</time>
      </trkpt>
      <trkpt lat="45.41438" lon="5.7603">
        <ele>440.2</ele>
        <time>2019-04-18T09:40:27Z</time>
      </trkpt>
      <trkpt lat="45.41439" lon="5.76023">
        <ele>439.9</ele>
        <time>2019-04-18T09:40:28Z</time>
      </trkpt>
      <trkpt lat="45.4144" lon="5.76014">
        <ele>438.8</ele>
        <time>2019-04-18T09:40:29Z</time>
      </trkpt>
      <trkpt lat="45.41442" lon="5.76005">
        <ele>437.8</ele>
        <time>2019-04-18T09:40:30Z</time>
      </trkpt>
      <trkpt lat="45.41447" lon="5.76003">
        <ele>438</ele>
        <time>2019-04-18T09:40:31Z</time>
      </trkpt>
      <trkpt lat="45.41449" lon="5.75997">
        <ele>437.4</ele>
        <time>2019-04-18T09:40:33Z</time>
      </trkpt>
      <trkpt lat="45.41448" lon="5.75993">
        <ele>436.9</ele>
        <time>2019-04-18T09:40:34Z</time>
      </trkpt>
      <trkpt lat="45.41451" lon="5.75987">
        <ele>436.5</ele>
        <time>2019-04-18T09:40:36Z</time>
      </trkpt>
      <trkpt lat="45.41454" lon="5.75984">
        <ele>436</ele>
        <time>2019-04-18T09:40:38Z</time>
      </trkpt>
      <trkpt lat="45.41456" lon="5.75982">
        <ele>436</ele>
        <time>2019-04-18T09:40:41Z</time>
      </trkpt>
      <trkpt lat="45.41457" lon="5.75977">
        <ele>435.4</ele>
        <time>2019-04-18T09:40:46Z</time>
      </trkpt>
      <trkpt lat="45.41457" lon="5.75973">
        <ele>434.9</ele>
        <time>2019-04-18T09:40:49Z</time>
      </trkpt>
      <trkpt lat="45.41458" lon="5.75968">
        <ele>434.4</ele>
        <time>2019-04-18T09:40:55Z</time>
      </trkpt>
      <trkpt lat="45.41459" lon="5.75964">
        <ele>433.9</ele>
        <time>2019-04-18T09:41:01Z</time>
      </trkpt>
      <trkpt lat="45.41459" lon="5.75961">
        <ele>433.5</ele>
        <time>2019-04-18T09:41:03Z</time>
      </trkpt>
      <trkpt lat="45.4146" lon="5.75956">
        <ele>433.1</ele>
        <time>2019-04-18T09:41:05Z</time>
      </trkpt>
      <trkpt lat="45.41461" lon="5.75951">
        <ele>432.6</ele>
        <time>2019-04-18T09:41:07Z</time>
      </trkpt>
      <trkpt lat="45.41463" lon="5.75946">
        <ele>432.2</ele>
        <time>2019-04-18T09:41:09Z</time>
      </trkpt>
      <trkpt lat="45.41465" lon="5.75939">
        <ele>431.1</ele>
        <time>2019-04-18T09:41:11Z</time>
      </trkpt>
      <trkpt lat="45.41466" lon="5.75935">
        <ele>430.7</ele>
        <time>2019-04-18T09:41:12Z</time>
      </trkpt>
      <trkpt lat="45.41467" lon="5.7593">
        <ele>429.9</ele>
        <time>2019-04-18T09:41:13Z</time>
      </trkpt>
      <trkpt lat="45.41469" lon="5.75926">
        <ele>429.5</ele>
        <time>2019-04-18T09:41:14Z</time>
      </trkpt>
      <trkpt lat="45.41474" lon="5.75913">
        <ele>427.2</ele>
        <time>2019-04-18T09:41:15Z</time>
      </trkpt>
      <trkpt lat="45.41482" lon="5.7589">
        <ele>422.6</ele>
        <time>2019-04-18T09:41:16Z</time>
      </trkpt>
      <trkpt lat="45.41485" lon="5.75886">
        <ele>422.1</ele>
        <time>2019-04-18T09:41:17Z</time>
      </trkpt>
      <trkpt lat="45.41488" lon="5.75886">
        <ele>421.5</ele>
        <time>2019-04-18T09:41:18Z</time>
      </trkpt>
      <trkpt lat="45.41493" lon="5.75885">
        <ele>420.3</ele>
        <time>2019-04-18T09:41:19Z</time>
      </trkpt>
      <trkpt lat="45.41498" lon="5.75886">
        <ele>419.6</ele>
        <time>2019-04-18T09:41:20Z</time>
      </trkpt>
      <trkpt lat="45.41501" lon="5.75886">
        <ele>418.9</ele>
        <time>2019-04-18T09:41:21Z</time>
      </trkpt>
      <trkpt lat="45.41504" lon="5.75887">
        <ele>418.2</ele>
        <time>2019-04-18T09:41:23Z</time>
      </trkpt>
      <trkpt lat="45.41508" lon="5.7589">
        <ele>418.2</ele>
        <time>2019-04-18T09:41:24Z</time>
      </trkpt>
      <trkpt lat="45.41513" lon="5.75895">
        <ele>417.5</ele>
        <time>2019-04-18T09:41:25Z</time>
      </trkpt>
      <trkpt lat="45.41517" lon="5.75899">
        <ele>416.7</ele>
        <time>2019-04-18T09:41:26Z</time>
      </trkpt>
      <trkpt lat="45.41522" lon="5.75901">
        <ele>416</ele>
        <time>2019-04-18T09:41:27Z</time>
      </trkpt>
      <trkpt lat="45.41525" lon="5.75902">
        <ele>415.3</ele>
        <time>2019-04-18T09:41:28Z</time>
      </trkpt>
      <trkpt lat="45.41528" lon="5.75902">
        <ele>414.5</ele>
        <time>2019-04-18T09:41:29Z</time>
      </trkpt>
      <trkpt lat="45.41532" lon="5.75904">
        <ele>414.2</ele>
        <time>2019-04-18T09:41:30Z</time>
      </trkpt>
      <trkpt lat="45.41535" lon="5.75906">
        <ele>413.3</ele>
        <time>2019-04-18T09:41:31Z</time>
      </trkpt>
      <trkpt lat="45.41538" lon="5.75911">
        <ele>413</ele>
        <time>2019-04-18T09:41:33Z</time>
      </trkpt>
      <trkpt lat="45.4154" lon="5.75914">
        <ele>412.7</ele>
        <time>2019-04-18T09:41:34Z</time>
      </trkpt>
      <trkpt lat="45.41543" lon="5.75918">
        <ele>412.4</ele>
        <time>2019-04-18T09:41:35Z</time>
      </trkpt>
      <trkpt lat="45.41546" lon="5.75923">
        <ele>412.1</ele>
        <time>2019-04-18T09:41:36Z</time>
      </trkpt>
      <trkpt lat="45.41549" lon="5.75928">
        <ele>411.8</ele>
        <time>2019-04-18T09:41:37Z</time>
      </trkpt>
      <trkpt lat="45.41553" lon="5.75933">
        <ele>412.1</ele>
        <time>2019-04-18T09:41:38Z</time>
      </trkpt>
      <trkpt lat="45.41556" lon="5.75938">
        <ele>411.8</ele>
        <time>2019-04-18T09:41:39Z</time>
      </trkpt>
      <trkpt lat="45.41558" lon="5.75945">
        <ele>411.5</ele>
        <time>2019-04-18T09:41:40Z</time>
      </trkpt>
      <trkpt lat="45.41564" lon="5.7595">
        <ele>410.5</ele>
        <time>2019-04-18T09:41:41Z</time>
      </trkpt>
      <trkpt lat="45.41568" lon="5.75954">
        <ele>411.1</ele>
        <time>2019-04-18T09:41:42Z</time>
      </trkpt>
      <trkpt lat="45.41573" lon="5.75956">
        <ele>409.7</ele>
        <time>2019-04-18T09:41:43Z</time>
      </trkpt>
      <trkpt lat="45.41578" lon="5.7596">
        <ele>408.8</ele>
        <time>2019-04-18T09:41:44Z</time>
      </trkpt>
      <trkpt lat="45.41583" lon="5.75963">
        <ele>408.6</ele>
        <time>2019-04-18T09:41:45Z</time>
      </trkpt>
      <trkpt lat="45.41588" lon="5.75966">
        <ele>407.2</ele>
        <time>2019-04-18T09:41:46Z</time>
      </trkpt>
      <trkpt lat="45.41591" lon="5.75969">
        <ele>407.2</ele>
        <time>2019-04-18T09:41:47Z</time>
      </trkpt>
      <trkpt lat="45.41595" lon="5.75971">
        <ele>406.5</ele>
        <time>2019-04-18T09:41:48Z</time>
      </trkpt>
      <trkpt lat="45.416" lon="5.75974">
        <ele>405.8</ele>
        <time>2019-04-18T09:41:49Z</time>
      </trkpt>
      <trkpt lat="45.41606" lon="5.75973">
        <ele>404.5</ele>
        <time>2019-04-18T09:41:50Z</time>
      </trkpt>
      <trkpt lat="45.41609" lon="5.75972">
        <ele>403.8</ele>
        <time>2019-04-18T09:41:51Z</time>
      </trkpt>
      <trkpt lat="45.41612" lon="5.75972">
        <ele>403.1</ele>
        <time>2019-04-18T09:41:53Z</time>
      </trkpt>
      <trkpt lat="45.41618" lon="5.75966">
        <ele>400.8</ele>
        <time>2019-04-18T09:41:56Z</time>
      </trkpt>
      <trkpt lat="45.41648" lon="5.75947">
        <ele>395.3</ele>
        <time>2019-04-18T09:41:58Z</time>
      </trkpt>
      <trkpt lat="45.41656" lon="5.75942">
        <ele>394.3</ele>
        <time>2019-04-18T09:41:59Z</time>
      </trkpt>
      <trkpt lat="45.41659" lon="5.75941">
        <ele>394</ele>
        <time>2019-04-18T09:42:00Z</time>
      </trkpt>
      <trkpt lat="45.41663" lon="5.75937">
        <ele>393</ele>
        <time>2019-04-18T09:42:01Z</time>
      </trkpt>
      <trkpt lat="45.41668" lon="5.75933">
        <ele>392</ele>
        <time>2019-04-18T09:42:02Z</time>
      </trkpt>
      <trkpt lat="45.41674" lon="5.75929">
        <ele>391.4</ele>
        <time>2019-04-18T09:42:03Z</time>
      </trkpt>
      <trkpt lat="45.41678" lon="5.75924">
        <ele>390.8</ele>
        <time>2019-04-18T09:42:04Z</time>
      </trkpt>
      <trkpt lat="45.41681" lon="5.75921">
        <ele>390.9</ele>
        <time>2019-04-18T09:42:05Z</time>
      </trkpt>
      <trkpt lat="45.41687" lon="5.75918">
        <ele>391</ele>
        <time>2019-04-18T09:42:06Z</time>
      </trkpt>
      <trkpt lat="45.4169" lon="5.75914">
        <ele>391.1</ele>
        <time>2019-04-18T09:42:07Z</time>
      </trkpt>
      <trkpt lat="45.41693" lon="5.75907">
        <ele>391.3</ele>
        <time>2019-04-18T09:42:08Z</time>
      </trkpt>
      <trkpt lat="45.41695" lon="5.759">
        <ele>391.4</ele>
        <time>2019-04-18T09:42:09Z</time>
      </trkpt>
      <trkpt lat="45.41696" lon="5.75893">
        <ele>391.5</ele>
        <time>2019-04-18T09:42:10Z</time>
      </trkpt>
      <trkpt lat="45.41697" lon="5.75884">
        <ele>391.7</ele>
        <time>2019-04-18T09:42:11Z</time>
      </trkpt>
      <trkpt lat="45.41697" lon="5.75874">
        <ele>391.9</ele>
        <time>2019-04-18T09:42:12Z</time>
      </trkpt>
      <trkpt lat="45.41697" lon="5.75863">
        <ele>392.2</ele>
        <time>2019-04-18T09:42:13Z</time>
      </trkpt>
      <trkpt lat="45.41698" lon="5.75853">
        <ele>392.3</ele>
        <time>2019-04-18T09:42:14Z</time>
      </trkpt>
      <trkpt lat="45.41698" lon="5.75844">
        <ele>392.5</ele>
        <time>2019-04-18T09:42:15Z</time>
      </trkpt>
      <trkpt lat="45.41699" lon="5.75835">
        <ele>392.6</ele>
        <time>2019-04-18T09:42:16Z</time>
      </trkpt>
      <trkpt lat="45.41699" lon="5.75826">
        <ele>392.8</ele>
        <time>2019-04-18T09:42:17Z</time>
      </trkpt>
      <trkpt lat="45.417" lon="5.75817">
        <ele>393</ele>
        <time>2019-04-18T09:42:18Z</time>
      </trkpt>
      <trkpt lat="45.41701" lon="5.75808">
        <ele>393.3</ele>
        <time>2019-04-18T09:42:19Z</time>
      </trkpt>
      <trkpt lat="45.41702" lon="5.75799">
        <ele>393.6</ele>
        <time>2019-04-18T09:42:20Z</time>
      </trkpt>
      <trkpt lat="45.41705" lon="5.75791">
        <ele>393.8</ele>
        <time>2019-04-18T09:42:21Z</time>
      </trkpt>
      <trkpt lat="45.41705" lon="5.75784">
        <ele>394</ele>
        <time>2019-04-18T09:42:22Z</time>
      </trkpt>
      <trkpt lat="45.41707" lon="5.75778">
        <ele>394.1</ele>
        <time>2019-04-18T09:42:23Z</time>
      </trkpt>
      <trkpt lat="45.4171" lon="5.75774">
        <ele>394.3</ele>
        <time>2019-04-18T09:42:24Z</time>
      </trkpt>
      <trkpt lat="45.41714" lon="5.75773">
        <ele>394.3</ele>
        <time>2019-04-18T09:42:25Z</time>
      </trkpt>
      <trkpt lat="45.41718" lon="5.75775">
        <ele>394.3</ele>
        <time>2019-04-18T09:42:26Z</time>
      </trkpt>
      <trkpt lat="45.41722" lon="5.75778">
        <ele>394.3</ele>
        <time>2019-04-18T09:42:27Z</time>
      </trkpt>
      <trkpt lat="45.41725" lon="5.75784">
        <ele>394.2</ele>
        <time>2019-04-18T09:42:28Z</time>
      </trkpt>
      <trkpt lat="45.41729" lon="5.75789">
        <ele>394.2</ele>
        <time>2019-04-18T09:42:29Z</time>
      </trkpt>
      <trkpt lat="45.41733" lon="5.75793">
        <ele>394.1</ele>
        <time>2019-04-18T09:42:30Z</time>
      </trkpt>
      <trkpt lat="45.41737" lon="5.75797">
        <ele>394</ele>
        <time>2019-04-18T09:42:31Z</time>
      </trkpt>
      <trkpt lat="45.41741" lon="5.758">
        <ele>393.9</ele>
        <time>2019-04-18T09:42:32Z</time>
      </trkpt>
      <trkpt lat="45.41744" lon="5.75803">
        <ele>393.8</ele>
        <time>2019-04-18T09:42:33Z</time>
      </trkpt>
      <trkpt lat="45.41749" lon="5.75808">
        <ele>393.6</ele>
        <time>2019-04-18T09:42:34Z</time>
      </trkpt>
      <trkpt lat="45.41753" lon="5.75812">
        <ele>393.4</ele>
        <time>2019-04-18T09:42:35Z</time>
      </trkpt>
      <trkpt lat="45.41756" lon="5.75817">
        <ele>393.3</ele>
        <time>2019-04-18T09:42:36Z</time>
      </trkpt>
      <trkpt lat="45.41761" lon="5.75822">
        <ele>393.1</ele>
        <time>2019-04-18T09:42:37Z</time>
      </trkpt>
      <trkpt lat="45.41765" lon="5.75828">
        <ele>393</ele>
        <time>2019-04-18T09:42:38Z</time>
      </trkpt>
      <trkpt lat="45.4177" lon="5.75832">
        <ele>392.8</ele>
        <time>2019-04-18T09:42:39Z</time>
      </trkpt>
      <trkpt lat="45.41775" lon="5.75837">
        <ele>392.7</ele>
        <time>2019-04-18T09:42:40Z</time>
      </trkpt>
      <trkpt lat="45.41779" lon="5.75841">
        <ele>392.5</ele>
        <time>2019-04-18T09:42:41Z</time>
      </trkpt>
      <trkpt lat="45.41784" lon="5.75845">
        <ele>392.3</ele>
        <time>2019-04-18T09:42:42Z</time>
      </trkpt>
      <trkpt lat="45.41789" lon="5.7585">
        <ele>392.1</ele>
        <time>2019-04-18T09:42:43Z</time>
      </trkpt>
      <trkpt lat="45.41793" lon="5.75855">
        <ele>391.9</ele>
        <time>2019-04-18T09:42:44Z</time>
      </trkpt>
      <trkpt lat="45.41798" lon="5.7586">
        <ele>391.7</ele>
        <time>2019-04-18T09:42:45Z</time>
      </trkpt>
      <trkpt lat="45.41802" lon="5.75865">
        <ele>391.5</ele>
        <time>2019-04-18T09:42:46Z</time>
      </trkpt>
      <trkpt lat="45.41807" lon="5.7587">
        <ele>391.3</ele>
        <time>2019-04-18T09:42:47Z</time>
      </trkpt>
      <trkpt lat="45.41811" lon="5.75876">
        <ele>391.1</ele>
        <time>2019-04-18T09:42:48Z</time>
      </trkpt>
      <trkpt lat="45.41816" lon="5.75881">
        <ele>390.8</ele>
        <time>2019-04-18T09:42:49Z</time>
      </trkpt>
      <trkpt lat="45.41821" lon="5.75884">
        <ele>390.7</ele>
        <time>2019-04-18T09:42:50Z</time>
      </trkpt>
      <trkpt lat="45.41826" lon="5.75889">
        <ele>390.5</ele>
        <time>2019-04-18T09:42:51Z</time>
      </trkpt>
      <trkpt lat="45.41831" lon="5.75894">
        <ele>390.3</ele>
        <time>2019-04-18T09:42:52Z</time>
      </trkpt>
      <trkpt lat="45.41835" lon="5.75898">
        <ele>390.1</ele>
        <time>2019-04-18T09:42:53Z</time>
      </trkpt>
      <trkpt lat="45.4184" lon="5.75904">
        <ele>389.8</ele>
        <time>2019-04-18T09:42:54Z</time>
      </trkpt>
      <trkpt lat="45.41844" lon="5.75909">
        <ele>389.6</ele>
        <time>2019-04-18T09:42:55Z</time>
      </trkpt>
      <trkpt lat="45.41849" lon="5.75914">
        <ele>389.4</ele>
        <time>2019-04-18T09:42:56Z</time>
      </trkpt>
      <trkpt lat="45.41853" lon="5.75918">
        <ele>389.2</ele>
        <time>2019-04-18T09:42:57Z</time>
      </trkpt>
      <trkpt lat="45.41857" lon="5.75922">
        <ele>388.9</ele>
        <time>2019-04-18T09:42:58Z</time>
      </trkpt>
      <trkpt lat="45.41861" lon="5.75926">
        <ele>388.7</ele>
        <time>2019-04-18T09:42:59Z</time>
      </trkpt>
      <trkpt lat="45.41865" lon="5.75931">
        <ele>388.5</ele>
        <time>2019-04-18T09:43:00Z</time>
      </trkpt>
      <trkpt lat="45.4187" lon="5.75936">
        <ele>388.4</ele>
        <time>2019-04-18T09:43:01Z</time>
      </trkpt>
      <trkpt lat="45.41874" lon="5.75942">
        <ele>388.4</ele>
        <time>2019-04-18T09:43:02Z</time>
      </trkpt>
      <trkpt lat="45.41879" lon="5.75946">
        <ele>388.4</ele>
        <time>2019-04-18T09:43:03Z</time>
      </trkpt>
      <trkpt lat="45.41883" lon="5.7595">
        <ele>388.4</ele>
        <time>2019-04-18T09:43:04Z</time>
      </trkpt>
      <trkpt lat="45.41888" lon="5.75956">
        <ele>388.3</ele>
        <time>2019-04-18T09:43:05Z</time>
      </trkpt>
      <trkpt lat="45.41892" lon="5.75962">
        <ele>388.3</ele>
        <time>2019-04-18T09:43:06Z</time>
      </trkpt>
      <trkpt lat="45.41896" lon="5.75966">
        <ele>388.3</ele>
        <time>2019-04-18T09:43:07Z</time>
      </trkpt>
      <trkpt lat="45.419" lon="5.75969">
        <ele>388.3</ele>
        <time>2019-04-18T09:43:08Z</time>
      </trkpt>
      <trkpt lat="45.41905" lon="5.75974">
        <ele>388.3</ele>
        <time>2019-04-18T09:43:09Z</time>
      </trkpt>
      <trkpt lat="45.41909" lon="5.75979">
        <ele>388.3</ele>
        <time>2019-04-18T09:43:10Z</time>
      </trkpt>
      <trkpt lat="45.41913" lon="5.75984">
        <ele>388.3</ele>
        <time>2019-04-18T09:43:11Z</time>
      </trkpt>
      <trkpt lat="45.41917" lon="5.75988">
        <ele>388.3</ele>
        <time>2019-04-18T09:43:12Z</time>
      </trkpt>
      <trkpt lat="45.41922" lon="5.75993">
        <ele>388.4</ele>
        <time>2019-04-18T09:43:13Z</time>
      </trkpt>
      <trkpt lat="45.41926" lon="5.75998">
        <ele>388.5</ele>
        <time>2019-04-18T09:43:14Z</time>
      </trkpt>
      <trkpt lat="45.41932" lon="5.76002">
        <ele>388.6</ele>
        <time>2019-04-18T09:43:15Z</time>
      </trkpt>
      <trkpt lat="45.41936" lon="5.76006">
        <ele>388.7</ele>
        <time>2019-04-18T09:43:16Z</time>
      </trkpt>
      <trkpt lat="45.41941" lon="5.7601">
        <ele>388.8</ele>
        <time>2019-04-18T09:43:17Z</time>
      </trkpt>
      <trkpt lat="45.41945" lon="5.76014">
        <ele>388.9</ele>
        <time>2019-04-18T09:43:18Z</time>
      </trkpt>
      <trkpt lat="45.4195" lon="5.76019">
        <ele>389</ele>
        <time>2019-04-18T09:43:19Z</time>
      </trkpt>
      <trkpt lat="45.41954" lon="5.76023">
        <ele>389</ele>
        <time>2019-04-18T09:43:20Z</time>
      </trkpt>
      <trkpt lat="45.41957" lon="5.76029">
        <ele>389</ele>
        <time>2019-04-18T09:43:21Z</time>
      </trkpt>
      <trkpt lat="45.41961" lon="5.76033">
        <ele>389</ele>
        <time>2019-04-18T09:43:22Z</time>
      </trkpt>
      <trkpt lat="45.41966" lon="5.76037">
        <ele>389</ele>
        <time>2019-04-18T09:43:23Z</time>
      </trkpt>
      <trkpt lat="45.4197" lon="5.76041">
        <ele>389</ele>
        <time>2019-04-18T09:43:24Z</time>
      </trkpt>
      <trkpt lat="45.41974" lon="5.76045">
        <ele>389</ele>
        <time>2019-04-18T09:43:25Z</time>
      </trkpt>
      <trkpt lat="45.41978" lon="5.7605">
        <ele>389</ele>
        <time>2019-04-18T09:43:26Z</time>
      </trkpt>
      <trkpt lat="45.41982" lon="5.76055">
        <ele>389</ele>
        <time>2019-04-18T09:43:27Z</time>
      </trkpt>
      <trkpt lat="45.41986" lon="5.76059">
        <ele>389</ele>
        <time>2019-04-18T09:43:28Z</time>
      </trkpt>
      <trkpt lat="45.41989" lon="5.76063">
        <ele>389</ele>
        <time>2019-04-18T09:43:29Z</time>
      </trkpt>
      <trkpt lat="45.41993" lon="5.76066">
        <ele>389</ele>
        <time>2019-04-18T09:43:30Z</time>
      </trkpt>
      <trkpt lat="45.41998" lon="5.76071">
        <ele>389</ele>
        <time>2019-04-18T09:43:31Z</time>
      </trkpt>
      <trkpt lat="45.42002" lon="5.76074">
        <ele>389</ele>
        <time>2019-04-18T09:43:32Z</time>
      </trkpt>
      <trkpt lat="45.42006" lon="5.76078">
        <ele>389</ele>
        <time>2019-04-18T09:43:33Z</time>
      </trkpt>
      <trkpt lat="45.42011" lon="5.76083">
        <ele>389</ele>
        <time>2019-04-18T09:43:34Z</time>
      </trkpt>
      <trkpt lat="45.42014" lon="5.76087">
        <ele>389</ele>
        <time>2019-04-18T09:43:35Z</time>
      </trkpt>
      <trkpt lat="45.42019" lon="5.76093">
        <ele>389.1</ele>
        <time>2019-04-18T09:43:36Z</time>
      </trkpt>
      <trkpt lat="45.42023" lon="5.76097">
        <ele>389.1</ele>
        <time>2019-04-18T09:43:37Z</time>
      </trkpt>
      <trkpt lat="45.42027" lon="5.76102">
        <ele>389.1</ele>
        <time>2019-04-18T09:43:38Z</time>
      </trkpt>
      <trkpt lat="45.42031" lon="5.76106">
        <ele>389.1</ele>
        <time>2019-04-18T09:43:39Z</time>
      </trkpt>
      <trkpt lat="45.42035" lon="5.76111">
        <ele>389.1</ele>
        <time>2019-04-18T09:43:40Z</time>
      </trkpt>
      <trkpt lat="45.42039" lon="5.76115">
        <ele>389.1</ele>
        <time>2019-04-18T09:43:41Z</time>
      </trkpt>
      <trkpt lat="45.42043" lon="5.7612">
        <ele>389.1</ele>
        <time>2019-04-18T09:43:42Z</time>
      </trkpt>
      <trkpt lat="45.42047" lon="5.76124">
        <ele>389.1</ele>
        <time>2019-04-18T09:43:43Z</time>
      </trkpt>
      <trkpt lat="45.42051" lon="5.76128">
        <ele>389.1</ele>
        <time>2019-04-18T09:43:44Z</time>
      </trkpt>
      <trkpt lat="45.42055" lon="5.76132">
        <ele>389.1</ele>
        <time>2019-04-18T09:43:45Z</time>
      </trkpt>
      <trkpt lat="45.42059" lon="5.76137">
        <ele>389.2</ele>
        <time>2019-04-18T09:43:46Z</time>
      </trkpt>
      <trkpt lat="45.42063" lon="5.76142">
        <ele>389.3</ele>
        <time>2019-04-18T09:43:47Z</time>
      </trkpt>
      <trkpt lat="45.42067" lon="5.76146">
        <ele>389.4</ele>
        <time>2019-04-18T09:43:48Z</time>
      </trkpt>
      <trkpt lat="45.42071" lon="5.7615">
        <ele>389.6</ele>
        <time>2019-04-18T09:43:49Z</time>
      </trkpt>
      <trkpt lat="45.42075" lon="5.76156">
        <ele>389.7</ele>
        <time>2019-04-18T09:43:50Z</time>
      </trkpt>
      <trkpt lat="45.4208" lon="5.7616">
        <ele>389.9</ele>
        <time>2019-04-18T09:43:51Z</time>
      </trkpt>
      <trkpt lat="45.42083" lon="5.76164">
        <ele>390</ele>
        <time>2019-04-18T09:43:52Z</time>
      </trkpt>
      <trkpt lat="45.42087" lon="5.76168">
        <ele>390.1</ele>
        <time>2019-04-18T09:43:53Z</time>
      </trkpt>
      <trkpt lat="45.42091" lon="5.76174">
        <ele>390.1</ele>
        <time>2019-04-18T09:43:54Z</time>
      </trkpt>
      <trkpt lat="45.42095" lon="5.76178">
        <ele>390.1</ele>
        <time>2019-04-18T09:43:55Z</time>
      </trkpt>
      <trkpt lat="45.421" lon="5.76182">
        <ele>390.1</ele>
        <time>2019-04-18T09:43:56Z</time>
      </trkpt>
      <trkpt lat="45.42104" lon="5.76186">
        <ele>390.2</ele>
        <time>2019-04-18T09:43:57Z</time>
      </trkpt>
      <trkpt lat="45.42108" lon="5.76191">
        <ele>390.2</ele>
        <time>2019-04-18T09:43:58Z</time>
      </trkpt>
      <trkpt lat="45.42112" lon="5.76194">
        <ele>390.2</ele>
        <time>2019-04-18T09:43:59Z</time>
      </trkpt>
      <trkpt lat="45.42116" lon="5.76198">
        <ele>390.2</ele>
        <time>2019-04-18T09:44:00Z</time>
      </trkpt>
      <trkpt lat="45.4212" lon="5.76203">
        <ele>390.2</ele>
        <time>2019-04-18T09:44:01Z</time>
      </trkpt>
      <trkpt lat="45.42125" lon="5.76207">
        <ele>390.2</ele>
        <time>2019-04-18T09:44:02Z</time>
      </trkpt>
      <trkpt lat="45.42129" lon="5.76212">
        <ele>390.2</ele>
        <time>2019-04-18T09:44:03Z</time>
      </trkpt>
      <trkpt lat="45.42133" lon="5.76217">
        <ele>390.2</ele>
        <time>2019-04-18T09:44:04Z</time>
      </trkpt>
      <trkpt lat="45.42137" lon="5.76223">
        <ele>390.1</ele>
        <time>2019-04-18T09:44:05Z</time>
      </trkpt>
      <trkpt lat="45.42141" lon="5.76228">
        <ele>390.1</ele>
        <time>2019-04-18T09:44:06Z</time>
      </trkpt>
      <trkpt lat="45.42146" lon="5.76232">
        <ele>390</ele>
        <time>2019-04-18T09:44:07Z</time>
      </trkpt>
      <trkpt lat="45.42151" lon="5.76237">
        <ele>389.8</ele>
        <time>2019-04-18T09:44:08Z</time>
      </trkpt>
      <trkpt lat="45.42155" lon="5.76241">
        <ele>389.6</ele>
        <time>2019-04-18T09:44:09Z</time>
      </trkpt>
      <trkpt lat="45.4216" lon="5.76245">
        <ele>389.4</ele>
        <time>2019-04-18T09:44:10Z</time>
      </trkpt>
      <trkpt lat="45.42164" lon="5.76251">
        <ele>389.3</ele>
        <time>2019-04-18T09:44:11Z</time>
      </trkpt>
      <trkpt lat="45.42168" lon="5.76256">
        <ele>389.3</ele>
        <time>2019-04-18T09:44:12Z</time>
      </trkpt>
      <trkpt lat="45.42172" lon="5.7626">
        <ele>389.3</ele>
        <time>2019-04-18T09:44:13Z</time>
      </trkpt>
      <trkpt lat="45.42176" lon="5.76265">
        <ele>389.4</ele>
        <time>2019-04-18T09:44:14Z</time>
      </trkpt>
      <trkpt lat="45.4218" lon="5.7627">
        <ele>389.4</ele>
        <time>2019-04-18T09:44:15Z</time>
      </trkpt>
      <trkpt lat="45.42185" lon="5.76274">
        <ele>389.5</ele>
        <time>2019-04-18T09:44:16Z</time>
      </trkpt>
      <trkpt lat="45.4219" lon="5.76279">
        <ele>389.6</ele>
        <time>2019-04-18T09:44:17Z</time>
      </trkpt>
      <trkpt lat="45.42195" lon="5.76284">
        <ele>389.6</ele>
        <time>2019-04-18T09:44:18Z</time>
      </trkpt>
      <trkpt lat="45.42201" lon="5.76289">
        <ele>389.7</ele>
        <time>2019-04-18T09:44:19Z</time>
      </trkpt>
      <trkpt lat="45.42205" lon="5.76292">
        <ele>389.7</ele>
        <time>2019-04-18T09:44:20Z</time>
      </trkpt>
      <trkpt lat="45.4221" lon="5.76296">
        <ele>389.7</ele>
        <time>2019-04-18T09:44:21Z</time>
      </trkpt>
      <trkpt lat="45.42214" lon="5.76299">
        <ele>389.8</ele>
        <time>2019-04-18T09:44:22Z</time>
      </trkpt>
      <trkpt lat="45.42218" lon="5.76305">
        <ele>389.8</ele>
        <time>2019-04-18T09:44:23Z</time>
      </trkpt>
      <trkpt lat="45.42222" lon="5.76308">
        <ele>389.9</ele>
        <time>2019-04-18T09:44:24Z</time>
      </trkpt>
      <trkpt lat="45.42227" lon="5.76313">
        <ele>389.9</ele>
        <time>2019-04-18T09:44:25Z</time>
      </trkpt>
      <trkpt lat="45.42231" lon="5.76318">
        <ele>390</ele>
        <time>2019-04-18T09:44:26Z</time>
      </trkpt>
      <trkpt lat="45.42235" lon="5.76322">
        <ele>390.1</ele>
        <time>2019-04-18T09:44:27Z</time>
      </trkpt>
      <trkpt lat="45.42239" lon="5.76326">
        <ele>390.1</ele>
        <time>2019-04-18T09:44:28Z</time>
      </trkpt>
      <trkpt lat="45.42244" lon="5.7633">
        <ele>390.1</ele>
        <time>2019-04-18T09:44:29Z</time>
      </trkpt>
      <trkpt lat="45.42248" lon="5.76335">
        <ele>390.2</ele>
        <time>2019-04-18T09:44:30Z</time>
      </trkpt>
      <trkpt lat="45.42252" lon="5.76339">
        <ele>390.2</ele>
        <time>2019-04-18T09:44:31Z</time>
      </trkpt>
      <trkpt lat="45.42256" lon="5.76344">
        <ele>390.3</ele>
        <time>2019-04-18T09:44:32Z</time>
      </trkpt>
      <trkpt lat="45.4226" lon="5.76348">
        <ele>390.3</ele>
        <time>2019-04-18T09:44:33Z</time>
      </trkpt>
      <trkpt lat="45.42264" lon="5.76352">
        <ele>390.3</ele>
        <time>2019-04-18T09:44:34Z</time>
      </trkpt>
      <trkpt lat="45.42268" lon="5.76357">
        <ele>390.4</ele>
        <time>2019-04-18T09:44:35Z</time>
      </trkpt>
      <trkpt lat="45.42272" lon="5.76362">
        <ele>390.4</ele>
        <time>2019-04-18T09:44:36Z</time>
      </trkpt>
      <trkpt lat="45.42276" lon="5.76367">
        <ele>390.4</ele>
        <time>2019-04-18T09:44:37Z</time>
      </trkpt>
      <trkpt lat="45.4228" lon="5.76371">
        <ele>390.4</ele>
        <time>2019-04-18T09:44:38Z</time>
      </trkpt>
      <trkpt lat="45.42284" lon="5.76375">
        <ele>390.4</ele>
        <time>2019-04-18T09:44:39Z</time>
      </trkpt>
      <trkpt lat="45.42288" lon="5.76378">
        <ele>390.4</ele>
        <time>2019-04-18T09:44:40Z</time>
      </trkpt>
      <trkpt lat="45.42293" lon="5.76381">
        <ele>390.5</ele>
        <time>2019-04-18T09:44:41Z</time>
      </trkpt>
      <trkpt lat="45.42297" lon="5.76386">
        <ele>390.5</ele>
        <time>2019-04-18T09:44:42Z</time>
      </trkpt>
      <trkpt lat="45.423" lon="5.76389">
        <ele>390.5</ele>
        <time>2019-04-18T09:44:43Z</time>
      </trkpt>
      <trkpt lat="45.42305" lon="5.76391">
        <ele>390.5</ele>
        <time>2019-04-18T09:44:44Z</time>
      </trkpt>
      <trkpt lat="45.42308" lon="5.76393">
        <ele>390.5</ele>
        <time>2019-04-18T09:44:45Z</time>
      </trkpt>
      <trkpt lat="45.42311" lon="5.76395">
        <ele>390.5</ele>
        <time>2019-04-18T09:44:46Z</time>
      </trkpt>
      <trkpt lat="45.42316" lon="5.76398">
        <ele>390.5</ele>
        <time>2019-04-18T09:44:48Z</time>
      </trkpt>
      <trkpt lat="45.42319" lon="5.76398">
        <ele>390.5</ele>
        <time>2019-04-18T09:44:52Z</time>
      </trkpt>
      <trkpt lat="45.42321" lon="5.764">
        <ele>390.5</ele>
        <time>2019-04-18T09:45:45Z</time>
      </trkpt>
      <trkpt lat="45.42327" lon="5.76401">
        <ele>390.6</ele>
        <time>2019-04-18T09:45:47Z</time>
      </trkpt>
      <trkpt lat="45.4233" lon="5.76401">
        <ele>390.6</ele>
        <time>2019-04-18T09:45:48Z</time>
      </trkpt>
      <trkpt lat="45.42334" lon="5.76402">
        <ele>390.6</ele>
        <time>2019-04-18T09:45:49Z</time>
      </trkpt>
      <trkpt lat="45.42338" lon="5.76403">
        <ele>390.6</ele>
        <time>2019-04-18T09:45:50Z</time>
      </trkpt>
      <trkpt lat="45.42343" lon="5.76405">
        <ele>390.7</ele>
        <time>2019-04-18T09:45:51Z</time>
      </trkpt>
      <trkpt lat="45.42347" lon="5.76404">
        <ele>390.7</ele>
        <time>2019-04-18T09:45:52Z</time>
      </trkpt>
      <trkpt lat="45.42351" lon="5.76406">
        <ele>390.8</ele>
        <time>2019-04-18T09:45:53Z</time>
      </trkpt>
      <trkpt lat="45.42356" lon="5.76407">
        <ele>390.8</ele>
        <time>2019-04-18T09:45:54Z</time>
      </trkpt>
      <trkpt lat="45.4236" lon="5.76408">
        <ele>390.9</ele>
        <time>2019-04-18T09:45:55Z</time>
      </trkpt>
      <trkpt lat="45.42366" lon="5.76411">
        <ele>391</ele>
        <time>2019-04-18T09:45:56Z</time>
      </trkpt>
      <trkpt lat="45.42371" lon="5.76411">
        <ele>391.1</ele>
        <time>2019-04-18T09:45:57Z</time>
      </trkpt>
      <trkpt lat="45.42375" lon="5.76413">
        <ele>391.2</ele>
        <time>2019-04-18T09:45:58Z</time>
      </trkpt>
      <trkpt lat="45.4238" lon="5.76414">
        <ele>391.3</ele>
        <time>2019-04-18T09:45:59Z</time>
      </trkpt>
      <trkpt lat="45.42386" lon="5.76416">
        <ele>391.3</ele>
        <time>2019-04-18T09:46:00Z</time>
      </trkpt>
      <trkpt lat="45.42391" lon="5.76417">
        <ele>391.4</ele>
        <time>2019-04-18T09:46:01Z</time>
      </trkpt>
      <trkpt lat="45.42395" lon="5.76418">
        <ele>391.5</ele>
        <time>2019-04-18T09:46:02Z</time>
      </trkpt>
      <trkpt lat="45.424" lon="5.7642">
        <ele>391.5</ele>
        <time>2019-04-18T09:46:03Z</time>
      </trkpt>
      <trkpt lat="45.42405" lon="5.76421">
        <ele>391.6</ele>
        <time>2019-04-18T09:46:04Z</time>
      </trkpt>
      <trkpt lat="45.4241" lon="5.76423">
        <ele>391.6</ele>
        <time>2019-04-18T09:46:05Z</time>
      </trkpt>
      <trkpt lat="45.42414" lon="5.76425">
        <ele>391.7</ele>
        <time>2019-04-18T09:46:06Z</time>
      </trkpt>
      <trkpt lat="45.42419" lon="5.76427">
        <ele>391.7</ele>
        <time>2019-04-18T09:46:07Z</time>
      </trkpt>
      <trkpt lat="45.42424" lon="5.76429">
        <ele>391.7</ele>
        <time>2019-04-18T09:46:08Z</time>
      </trkpt>
      <trkpt lat="45.42428" lon="5.76432">
        <ele>391.8</ele>
        <time>2019-04-18T09:46:09Z</time>
      </trkpt>
      <trkpt lat="45.42433" lon="5.76436">
        <ele>391.8</ele>
        <time>2019-04-18T09:46:10Z</time>
      </trkpt>
      <trkpt lat="45.42438" lon="5.76439">
        <ele>391.9</ele>
        <time>2019-04-18T09:46:11Z</time>
      </trkpt>
      <trkpt lat="45.42442" lon="5.76443">
        <ele>391.9</ele>
        <time>2019-04-18T09:46:12Z</time>
      </trkpt>
      <trkpt lat="45.42447" lon="5.76446">
        <ele>392</ele>
        <time>2019-04-18T09:46:13Z</time>
      </trkpt>
      <trkpt lat="45.42452" lon="5.76447">
        <ele>392</ele>
        <time>2019-04-18T09:46:14Z</time>
      </trkpt>
      <trkpt lat="45.42456" lon="5.76451">
        <ele>392.1</ele>
        <time>2019-04-18T09:46:15Z</time>
      </trkpt>
      <trkpt lat="45.42461" lon="5.76456">
        <ele>392.2</ele>
        <time>2019-04-18T09:46:16Z</time>
      </trkpt>
      <trkpt lat="45.42465" lon="5.7646">
        <ele>392.3</ele>
        <time>2019-04-18T09:46:17Z</time>
      </trkpt>
      <trkpt lat="45.42469" lon="5.76464">
        <ele>392.4</ele>
        <time>2019-04-18T09:46:18Z</time>
      </trkpt>
      <trkpt lat="45.42474" lon="5.7647">
        <ele>392.6</ele>
        <time>2019-04-18T09:46:19Z</time>
      </trkpt>
      <trkpt lat="45.42477" lon="5.76475">
        <ele>392.7</ele>
        <time>2019-04-18T09:46:20Z</time>
      </trkpt>
      <trkpt lat="45.42482" lon="5.76479">
        <ele>392.8</ele>
        <time>2019-04-18T09:46:21Z</time>
      </trkpt>
      <trkpt lat="45.42486" lon="5.76483">
        <ele>392.9</ele>
        <time>2019-04-18T09:46:22Z</time>
      </trkpt>
      <trkpt lat="45.42489" lon="5.76488">
        <ele>393</ele>
        <time>2019-04-18T09:46:23Z</time>
      </trkpt>
      <trkpt lat="45.42493" lon="5.76492">
        <ele>393.1</ele>
        <time>2019-04-18T09:46:24Z</time>
      </trkpt>
      <trkpt lat="45.42496" lon="5.76497">
        <ele>393.2</ele>
        <time>2019-04-18T09:46:25Z</time>
      </trkpt>
      <trkpt lat="45.425" lon="5.76501">
        <ele>393.3</ele>
        <time>2019-04-18T09:46:26Z</time>
      </trkpt>
      <trkpt lat="45.42504" lon="5.76505">
        <ele>393.4</ele>
        <time>2019-04-18T09:46:27Z</time>
      </trkpt>
      <trkpt lat="45.42507" lon="5.76509">
        <ele>393.5</ele>
        <time>2019-04-18T09:46:28Z</time>
      </trkpt>
      <trkpt lat="45.42511" lon="5.76513">
        <ele>393.6</ele>
        <time>2019-04-18T09:46:29Z</time>
      </trkpt>
      <trkpt lat="45.42516" lon="5.76516">
        <ele>393.6</ele>
        <time>2019-04-18T09:46:30Z</time>
      </trkpt>
      <trkpt lat="45.42519" lon="5.76521">
        <ele>393.7</ele>
        <time>2019-04-18T09:46:31Z</time>
      </trkpt>
      <trkpt lat="45.42523" lon="5.76526">
        <ele>393.8</ele>
        <time>2019-04-18T09:46:32Z</time>
      </trkpt>
      <trkpt lat="45.42528" lon="5.7653">
        <ele>393.8</ele>
        <time>2019-04-18T09:46:33Z</time>
      </trkpt>
      <trkpt lat="45.42531" lon="5.76536">
        <ele>393.9</ele>
        <time>2019-04-18T09:46:34Z</time>
      </trkpt>
      <trkpt lat="45.42533" lon="5.76542">
        <ele>394</ele>
        <time>2019-04-18T09:46:35Z</time>
      </trkpt>
      <trkpt lat="45.42537" lon="5.76547">
        <ele>394</ele>
        <time>2019-04-18T09:46:36Z</time>
      </trkpt>
      <trkpt lat="45.42541" lon="5.76553">
        <ele>394.1</ele>
        <time>2019-04-18T09:46:37Z</time>
      </trkpt>
      <trkpt lat="45.42544" lon="5.76556">
        <ele>394.1</ele>
        <time>2019-04-18T09:46:38Z</time>
      </trkpt>
      <trkpt lat="45.42548" lon="5.7656">
        <ele>394.2</ele>
        <time>2019-04-18T09:46:39Z</time>
      </trkpt>
      <trkpt lat="45.42552" lon="5.76563">
        <ele>394.2</ele>
        <time>2019-04-18T09:46:40Z</time>
      </trkpt>
      <trkpt lat="45.42555" lon="5.76567">
        <ele>394.3</ele>
        <time>2019-04-18T09:46:41Z</time>
      </trkpt>
      <trkpt lat="45.42559" lon="5.76572">
        <ele>394.4</ele>
        <time>2019-04-18T09:46:42Z</time>
      </trkpt>
      <trkpt lat="45.42563" lon="5.76576">
        <ele>394.4</ele>
        <time>2019-04-18T09:46:43Z</time>
      </trkpt>
      <trkpt lat="45.42567" lon="5.76577">
        <ele>394.5</ele>
        <time>2019-04-18T09:46:44Z</time>
      </trkpt>
      <trkpt lat="45.42571" lon="5.7658">
        <ele>394.5</ele>
        <time>2019-04-18T09:46:45Z</time>
      </trkpt>
      <trkpt lat="45.42576" lon="5.76581">
        <ele>394.5</ele>
        <time>2019-04-18T09:46:46Z</time>
      </trkpt>
      <trkpt lat="45.4258" lon="5.76585">
        <ele>394.6</ele>
        <time>2019-04-18T09:46:47Z</time>
      </trkpt>
      <trkpt lat="45.42584" lon="5.76587">
        <ele>394.6</ele>
        <time>2019-04-18T09:46:48Z</time>
      </trkpt>
      <trkpt lat="45.42588" lon="5.7659">
        <ele>394.6</ele>
        <time>2019-04-18T09:46:49Z</time>
      </trkpt>
      <trkpt lat="45.42592" lon="5.76593">
        <ele>394.6</ele>
        <time>2019-04-18T09:46:50Z</time>
      </trkpt>
      <trkpt lat="45.42595" lon="5.76596">
        <ele>394.6</ele>
        <time>2019-04-18T09:46:51Z</time>
      </trkpt>
      <trkpt lat="45.42599" lon="5.76599">
        <ele>394.7</ele>
        <time>2019-04-18T09:46:52Z</time>
      </trkpt>
      <trkpt lat="45.42604" lon="5.76604">
        <ele>394.7</ele>
        <time>2019-04-18T09:46:54Z</time>
      </trkpt>
      <trkpt lat="45.42606" lon="5.76607">
        <ele>394.7</ele>
        <time>2019-04-18T09:46:55Z</time>
      </trkpt>
      <trkpt lat="45.42612" lon="5.76613">
        <ele>394.8</ele>
        <time>2019-04-18T09:46:56Z</time>
      </trkpt>
      <trkpt lat="45.42618" lon="5.76618">
        <ele>394.8</ele>
        <time>2019-04-18T09:46:57Z</time>
      </trkpt>
      <trkpt lat="45.42624" lon="5.76623">
        <ele>394.9</ele>
        <time>2019-04-18T09:46:58Z</time>
      </trkpt>
      <trkpt lat="45.42627" lon="5.76626">
        <ele>394.9</ele>
        <time>2019-04-18T09:46:59Z</time>
      </trkpt>
      <trkpt lat="45.42629" lon="5.76628">
        <ele>394.9</ele>
        <time>2019-04-18T09:47:02Z</time>
      </trkpt>
      <trkpt lat="45.42633" lon="5.76632">
        <ele>395</ele>
        <time>2019-04-18T09:47:04Z</time>
      </trkpt>
      <trkpt lat="45.42636" lon="5.76634">
        <ele>395</ele>
        <time>2019-04-18T09:47:05Z</time>
      </trkpt>
      <trkpt lat="45.42639" lon="5.76636">
        <ele>395</ele>
        <time>2019-04-18T09:47:06Z</time>
      </trkpt>
      <trkpt lat="45.42641" lon="5.76638">
        <ele>395</ele>
        <time>2019-04-18T09:47:07Z</time>
      </trkpt>
      <trkpt lat="45.42645" lon="5.76641">
        <ele>395.1</ele>
        <time>2019-04-18T09:47:08Z</time>
      </trkpt>
      <trkpt lat="45.42648" lon="5.76644">
        <ele>395.1</ele>
        <time>2019-04-18T09:47:09Z</time>
      </trkpt>
      <trkpt lat="45.42653" lon="5.76647">
        <ele>395.2</ele>
        <time>2019-04-18T09:47:10Z</time>
      </trkpt>
      <trkpt lat="45.42657" lon="5.76651">
        <ele>395.3</ele>
        <time>2019-04-18T09:47:11Z</time>
      </trkpt>
      <trkpt lat="45.42662" lon="5.76653">
        <ele>395.3</ele>
        <time>2019-04-18T09:47:12Z</time>
      </trkpt>
      <trkpt lat="45.42666" lon="5.76656">
        <ele>395.4</ele>
        <time>2019-04-18T09:47:13Z</time>
      </trkpt>
      <trkpt lat="45.4267" lon="5.76658">
        <ele>395.5</ele>
        <time>2019-04-18T09:47:14Z</time>
      </trkpt>
      <trkpt lat="45.42674" lon="5.7666">
        <ele>395.6</ele>
        <time>2019-04-18T09:47:16Z</time>
      </trkpt>
      <trkpt lat="45.42677" lon="5.76662">
        <ele>395.6</ele>
        <time>2019-04-18T09:47:17Z</time>
      </trkpt>
      <trkpt lat="45.42682" lon="5.76665">
        <ele>395.7</ele>
        <time>2019-04-18T09:47:19Z</time>
      </trkpt>
      <trkpt lat="45.42685" lon="5.76667">
        <ele>395.8</ele>
        <time>2019-04-18T09:47:20Z</time>
      </trkpt>
      <trkpt lat="45.42689" lon="5.76669">
        <ele>396</ele>
        <time>2019-04-18T09:47:22Z</time>
      </trkpt>
      <trkpt lat="45.42693" lon="5.76674">
        <ele>396.1</ele>
        <time>2019-04-18T09:47:24Z</time>
      </trkpt>
      <trkpt lat="45.42695" lon="5.76676">
        <ele>396.1</ele>
        <time>2019-04-18T09:47:25Z</time>
      </trkpt>
      <trkpt lat="45.42698" lon="5.76677">
        <ele>396.2</ele>
        <time>2019-04-18T09:47:26Z</time>
      </trkpt>
      <trkpt lat="45.42701" lon="5.7668">
        <ele>396.2</ele>
        <time>2019-04-18T09:47:27Z</time>
      </trkpt>
      <trkpt lat="45.42704" lon="5.76682">
        <ele>396.3</ele>
        <time>2019-04-18T09:47:28Z</time>
      </trkpt>
      <trkpt lat="45.42708" lon="5.76684">
        <ele>396.4</ele>
        <time>2019-04-18T09:47:29Z</time>
      </trkpt>
      <trkpt lat="45.42711" lon="5.76686">
        <ele>396.5</ele>
        <time>2019-04-18T09:47:30Z</time>
      </trkpt>
      <trkpt lat="45.42714" lon="5.76688">
        <ele>396.6</ele>
        <time>2019-04-18T09:47:31Z</time>
      </trkpt>
      <trkpt lat="45.42719" lon="5.76691">
        <ele>396.7</ele>
        <time>2019-04-18T09:47:33Z</time>
      </trkpt>
      <trkpt lat="45.42722" lon="5.76692">
        <ele>396.8</ele>
        <time>2019-04-18T09:47:34Z</time>
      </trkpt>
      <trkpt lat="45.42727" lon="5.76695">
        <ele>396.9</ele>
        <time>2019-04-18T09:47:36Z</time>
      </trkpt>
      <trkpt lat="45.4273" lon="5.76696">
        <ele>396.9</ele>
        <time>2019-04-18T09:47:37Z</time>
      </trkpt>
      <trkpt lat="45.42733" lon="5.76697">
        <ele>396.9</ele>
        <time>2019-04-18T09:47:38Z</time>
      </trkpt>
      <trkpt lat="45.42735" lon="5.76698">
        <ele>397</ele>
        <time>2019-04-18T09:47:39Z</time>
      </trkpt>
      <trkpt lat="45.42739" lon="5.767">
        <ele>397</ele>
        <time>2019-04-18T09:47:40Z</time>
      </trkpt>
      <trkpt lat="45.42742" lon="5.76702">
        <ele>397.1</ele>
        <time>2019-04-18T09:47:41Z</time>
      </trkpt>
      <trkpt lat="45.42745" lon="5.76703">
        <ele>397.1</ele>
        <time>2019-04-18T09:47:42Z</time>
      </trkpt>
      <trkpt lat="45.42753" lon="5.76707">
        <ele>397.2</ele>
        <time>2019-04-18T09:47:44Z</time>
      </trkpt>
      <trkpt lat="45.42758" lon="5.76709">
        <ele>397.3</ele>
        <time>2019-04-18T09:47:46Z</time>
      </trkpt>
      <trkpt lat="45.42763" lon="5.76712">
        <ele>397.4</ele>
        <time>2019-04-18T09:47:47Z</time>
      </trkpt>
      <trkpt lat="45.42768" lon="5.76715">
        <ele>397.4</ele>
        <time>2019-04-18T09:47:48Z</time>
      </trkpt>
      <trkpt lat="45.42772" lon="5.76718">
        <ele>397.5</ele>
        <time>2019-04-18T09:47:49Z</time>
      </trkpt>
      <trkpt lat="45.42777" lon="5.7672">
        <ele>397.5</ele>
        <time>2019-04-18T09:47:50Z</time>
      </trkpt>
      <trkpt lat="45.42782" lon="5.76722">
        <ele>397.6</ele>
        <time>2019-04-18T09:47:51Z</time>
      </trkpt>
      <trkpt lat="45.42785" lon="5.76723">
        <ele>397.6</ele>
        <time>2019-04-18T09:47:53Z</time>
      </trkpt>
      <trkpt lat="45.42792" lon="5.76726">
        <ele>397.7</ele>
        <time>2019-04-18T09:47:55Z</time>
      </trkpt>
      <trkpt lat="45.42796" lon="5.76727">
        <ele>397.8</ele>
        <time>2019-04-18T09:47:56Z</time>
      </trkpt>
      <trkpt lat="45.428" lon="5.76729">
        <ele>397.8</ele>
        <time>2019-04-18T09:47:57Z</time>
      </trkpt>
      <trkpt lat="45.42805" lon="5.76731">
        <ele>397.9</ele>
        <time>2019-04-18T09:47:58Z</time>
      </trkpt>
      <trkpt lat="45.4281" lon="5.76732">
        <ele>397.9</ele>
        <time>2019-04-18T09:47:59Z</time>
      </trkpt>
      <trkpt lat="45.42814" lon="5.76734">
        <ele>398</ele>
        <time>2019-04-18T09:48:00Z</time>
      </trkpt>
      <trkpt lat="45.42817" lon="5.76736">
        <ele>398</ele>
        <time>2019-04-18T09:48:01Z</time>
      </trkpt>
      <trkpt lat="45.42819" lon="5.76738">
        <ele>398</ele>
        <time>2019-04-18T09:48:02Z</time>
      </trkpt>
      <trkpt lat="45.42823" lon="5.7674">
        <ele>398.1</ele>
        <time>2019-04-18T09:48:03Z</time>
      </trkpt>
      <trkpt lat="45.42828" lon="5.76742">
        <ele>398.1</ele>
        <time>2019-04-18T09:48:04Z</time>
      </trkpt>
      <trkpt lat="45.42832" lon="5.76744">
        <ele>398.2</ele>
        <time>2019-04-18T09:48:05Z</time>
      </trkpt>
      <trkpt lat="45.42835" lon="5.76746">
        <ele>398.2</ele>
        <time>2019-04-18T09:48:06Z</time>
      </trkpt>
      <trkpt lat="45.42839" lon="5.76748">
        <ele>398.3</ele>
        <time>2019-04-18T09:48:07Z</time>
      </trkpt>
      <trkpt lat="45.42844" lon="5.7675">
        <ele>398.3</ele>
        <time>2019-04-18T09:48:08Z</time>
      </trkpt>
      <trkpt lat="45.42849" lon="5.76753">
        <ele>398.4</ele>
        <time>2019-04-18T09:48:09Z</time>
      </trkpt>
      <trkpt lat="45.42854" lon="5.76756">
        <ele>398.5</ele>
        <time>2019-04-18T09:48:10Z</time>
      </trkpt>
      <trkpt lat="45.42859" lon="5.76758">
        <ele>398.5</ele>
        <time>2019-04-18T09:48:11Z</time>
      </trkpt>
      <trkpt lat="45.42865" lon="5.7676">
        <ele>398.6</ele>
        <time>2019-04-18T09:48:12Z</time>
      </trkpt>
      <trkpt lat="45.4287" lon="5.76762">
        <ele>398.7</ele>
        <time>2019-04-18T09:48:13Z</time>
      </trkpt>
      <trkpt lat="45.42875" lon="5.76764">
        <ele>398.7</ele>
        <time>2019-04-18T09:48:14Z</time>
      </trkpt>
      <trkpt lat="45.42881" lon="5.76766">
        <ele>398.8</ele>
        <time>2019-04-18T09:48:15Z</time>
      </trkpt>
      <trkpt lat="45.42885" lon="5.76767">
        <ele>398.9</ele>
        <time>2019-04-18T09:48:16Z</time>
      </trkpt>
      <trkpt lat="45.4289" lon="5.76768">
        <ele>399</ele>
        <time>2019-04-18T09:48:17Z</time>
      </trkpt>
      <trkpt lat="45.42895" lon="5.76769">
        <ele>399</ele>
        <time>2019-04-18T09:48:18Z</time>
      </trkpt>
      <trkpt lat="45.42899" lon="5.76771">
        <ele>399.1</ele>
        <time>2019-04-18T09:48:19Z</time>
      </trkpt>
      <trkpt lat="45.42902" lon="5.76772">
        <ele>399.1</ele>
        <time>2019-04-18T09:48:20Z</time>
      </trkpt>
      <trkpt lat="45.42906" lon="5.76773">
        <ele>399.2</ele>
        <time>2019-04-18T09:48:21Z</time>
      </trkpt>
      <trkpt lat="45.4291" lon="5.76775">
        <ele>399.3</ele>
        <time>2019-04-18T09:48:22Z</time>
      </trkpt>
      <trkpt lat="45.42914" lon="5.76777">
        <ele>399.3</ele>
        <time>2019-04-18T09:48:23Z</time>
      </trkpt>
      <trkpt lat="45.42917" lon="5.76778">
        <ele>399.4</ele>
        <time>2019-04-18T09:48:24Z</time>
      </trkpt>
      <trkpt lat="45.42921" lon="5.76779">
        <ele>399.4</ele>
        <time>2019-04-18T09:48:25Z</time>
      </trkpt>
      <trkpt lat="45.42925" lon="5.7678">
        <ele>399.5</ele>
        <time>2019-04-18T09:48:26Z</time>
      </trkpt>
      <trkpt lat="45.42929" lon="5.76782">
        <ele>399.6</ele>
        <time>2019-04-18T09:48:27Z</time>
      </trkpt>
      <trkpt lat="45.42933" lon="5.76783">
        <ele>399.7</ele>
        <time>2019-04-18T09:48:28Z</time>
      </trkpt>
      <trkpt lat="45.42937" lon="5.76784">
        <ele>399.8</ele>
        <time>2019-04-18T09:48:29Z</time>
      </trkpt>
      <trkpt lat="45.42941" lon="5.76787">
        <ele>399.8</ele>
        <time>2019-04-18T09:48:30Z</time>
      </trkpt>
      <trkpt lat="45.42945" lon="5.76789">
        <ele>399.9</ele>
        <time>2019-04-18T09:48:31Z</time>
      </trkpt>
      <trkpt lat="45.42949" lon="5.7679">
        <ele>399.9</ele>
        <time>2019-04-18T09:48:32Z</time>
      </trkpt>
      <trkpt lat="45.42953" lon="5.76791">
        <ele>399.9</ele>
        <time>2019-04-18T09:48:33Z</time>
      </trkpt>
      <trkpt lat="45.42959" lon="5.76794">
        <ele>400</ele>
        <time>2019-04-18T09:48:34Z</time>
      </trkpt>
      <trkpt lat="45.42972" lon="5.76804">
        <ele>400</ele>
        <time>2019-04-18T09:48:35Z</time>
      </trkpt>
      <trkpt lat="45.42975" lon="5.76805">
        <ele>400</ele>
        <time>2019-04-18T09:48:36Z</time>
      </trkpt>
      <trkpt lat="45.42979" lon="5.76807">
        <ele>400.1</ele>
        <time>2019-04-18T09:48:37Z</time>
      </trkpt>
      <trkpt lat="45.42983" lon="5.7681">
        <ele>400.1</ele>
        <time>2019-04-18T09:48:38Z</time>
      </trkpt>
      <trkpt lat="45.43006" lon="5.7682">
        <ele>400.2</ele>
        <time>2019-04-18T09:48:40Z</time>
      </trkpt>
      <trkpt lat="45.43011" lon="5.76821">
        <ele>400.2</ele>
        <time>2019-04-18T09:48:42Z</time>
      </trkpt>
      <trkpt lat="45.43015" lon="5.76823">
        <ele>400.2</ele>
        <time>2019-04-18T09:48:43Z</time>
      </trkpt>
      <trkpt lat="45.43018" lon="5.76824">
        <ele>400.2</ele>
        <time>2019-04-18T09:48:44Z</time>
      </trkpt>
      <trkpt lat="45.43022" lon="5.76825">
        <ele>400.2</ele>
        <time>2019-04-18T09:48:45Z</time>
      </trkpt>
      <trkpt lat="45.43028" lon="5.76828">
        <ele>400.3</ele>
        <time>2019-04-18T09:48:46Z</time>
      </trkpt>
      <trkpt lat="45.43035" lon="5.76832">
        <ele>400.3</ele>
        <time>2019-04-18T09:48:47Z</time>
      </trkpt>
      <trkpt lat="45.43042" lon="5.76835">
        <ele>400.3</ele>
        <time>2019-04-18T09:48:48Z</time>
      </trkpt>
      <trkpt lat="45.43047" lon="5.76837">
        <ele>400.3</ele>
        <time>2019-04-18T09:48:49Z</time>
      </trkpt>
      <trkpt lat="45.43053" lon="5.7684">
        <ele>400.3</ele>
        <time>2019-04-18T09:48:50Z</time>
      </trkpt>
      <trkpt lat="45.43059" lon="5.76841">
        <ele>400.3</ele>
        <time>2019-04-18T09:48:51Z</time>
      </trkpt>
      <trkpt lat="45.43065" lon="5.76845">
        <ele>400.3</ele>
        <time>2019-04-18T09:48:52Z</time>
      </trkpt>
      <trkpt lat="45.43071" lon="5.76849">
        <ele>400.3</ele>
        <time>2019-04-18T09:48:53Z</time>
      </trkpt>
      <trkpt lat="45.43082" lon="5.76852">
        <ele>400.4</ele>
        <time>2019-04-18T09:48:54Z</time>
      </trkpt>
      <trkpt lat="45.43093" lon="5.76858">
        <ele>400.4</ele>
        <time>2019-04-18T09:48:55Z</time>
      </trkpt>
      <trkpt lat="45.43098" lon="5.7686">
        <ele>400.4</ele>
        <time>2019-04-18T09:48:56Z</time>
      </trkpt>
      <trkpt lat="45.43103" lon="5.76863">
        <ele>400.4</ele>
        <time>2019-04-18T09:48:57Z</time>
      </trkpt>
      <trkpt lat="45.4311" lon="5.76866">
        <ele>400.4</ele>
        <time>2019-04-18T09:48:58Z</time>
      </trkpt>
      <trkpt lat="45.43113" lon="5.76868">
        <ele>400.4</ele>
        <time>2019-04-18T09:48:59Z</time>
      </trkpt>
      <trkpt lat="45.43117" lon="5.76871">
        <ele>400.4</ele>
        <time>2019-04-18T09:49:00Z</time>
      </trkpt>
      <trkpt lat="45.43121" lon="5.76876">
        <ele>400.4</ele>
        <time>2019-04-18T09:49:01Z</time>
      </trkpt>
      <trkpt lat="45.43127" lon="5.76881">
        <ele>400.4</ele>
        <time>2019-04-18T09:49:03Z</time>
      </trkpt>
      <trkpt lat="45.43133" lon="5.76885">
        <ele>400.4</ele>
        <time>2019-04-18T09:49:04Z</time>
      </trkpt>
      <trkpt lat="45.43121" lon="5.76882">
        <ele>400.5</ele>
        <time>2019-04-18T09:49:05Z</time>
      </trkpt>
      <trkpt lat="45.43125" lon="5.76884">
        <ele>400.5</ele>
        <time>2019-04-18T09:49:06Z</time>
      </trkpt>
      <trkpt lat="45.4313" lon="5.76886">
        <ele>400.5</ele>
        <time>2019-04-18T09:49:07Z</time>
      </trkpt>
      <trkpt lat="45.43135" lon="5.76886">
        <ele>400.5</ele>
        <time>2019-04-18T09:49:08Z</time>
      </trkpt>
      <trkpt lat="45.43139" lon="5.76884">
        <ele>400.5</ele>
        <time>2019-04-18T09:49:09Z</time>
      </trkpt>
      <trkpt lat="45.43144" lon="5.76882">
        <ele>400.5</ele>
        <time>2019-04-18T09:49:10Z</time>
      </trkpt>
      <trkpt lat="45.43149" lon="5.76878">
        <ele>400.5</ele>
        <time>2019-04-18T09:49:11Z</time>
      </trkpt>
      <trkpt lat="45.43153" lon="5.76874">
        <ele>400.5</ele>
        <time>2019-04-18T09:49:12Z</time>
      </trkpt>
      <trkpt lat="45.43156" lon="5.76869">
        <ele>400.5</ele>
        <time>2019-04-18T09:49:13Z</time>
      </trkpt>
      <trkpt lat="45.43158" lon="5.76865">
        <ele>400.6</ele>
        <time>2019-04-18T09:49:14Z</time>
      </trkpt>
      <trkpt lat="45.4316" lon="5.76859">
        <ele>400.6</ele>
        <time>2019-04-18T09:49:15Z</time>
      </trkpt>
      <trkpt lat="45.43163" lon="5.76853">
        <ele>400.6</ele>
        <time>2019-04-18T09:49:16Z</time>
      </trkpt>
      <trkpt lat="45.43164" lon="5.76846">
        <ele>400.6</ele>
        <time>2019-04-18T09:49:17Z</time>
      </trkpt>
      <trkpt lat="45.43167" lon="5.76839">
        <ele>400.6</ele>
        <time>2019-04-18T09:49:18Z</time>
      </trkpt>
      <trkpt lat="45.4317" lon="5.76831">
        <ele>400.6</ele>
        <time>2019-04-18T09:49:19Z</time>
      </trkpt>
      <trkpt lat="45.43173" lon="5.76823">
        <ele>400.6</ele>
        <time>2019-04-18T09:49:20Z</time>
      </trkpt>
      <trkpt lat="45.43177" lon="5.76816">
        <ele>400.6</ele>
        <time>2019-04-18T09:49:21Z</time>
      </trkpt>
      <trkpt lat="45.43179" lon="5.76808">
        <ele>400.6</ele>
        <time>2019-04-18T09:49:22Z</time>
      </trkpt>
      <trkpt lat="45.43182" lon="5.76801">
        <ele>400.6</ele>
        <time>2019-04-18T09:49:23Z</time>
      </trkpt>
      <trkpt lat="45.43184" lon="5.76797">
        <ele>400.6</ele>
        <time>2019-04-18T09:49:24Z</time>
      </trkpt>
      <trkpt lat="45.43186" lon="5.76792">
        <ele>400.6</ele>
        <time>2019-04-18T09:49:25Z</time>
      </trkpt>
      <trkpt lat="45.4319" lon="5.76783">
        <ele>400.6</ele>
        <time>2019-04-18T09:49:26Z</time>
      </trkpt>
      <trkpt lat="45.43195" lon="5.76776">
        <ele>400.6</ele>
        <time>2019-04-18T09:49:27Z</time>
      </trkpt>
      <trkpt lat="45.43199" lon="5.76767">
        <ele>400.6</ele>
        <time>2019-04-18T09:49:28Z</time>
      </trkpt>
      <trkpt lat="45.43204" lon="5.76756">
        <ele>400.5</ele>
        <time>2019-04-18T09:49:29Z</time>
      </trkpt>
      <trkpt lat="45.43208" lon="5.76743">
        <ele>400.4</ele>
        <time>2019-04-18T09:49:30Z</time>
      </trkpt>
      <trkpt lat="45.43211" lon="5.76729">
        <ele>400.3</ele>
        <time>2019-04-18T09:49:31Z</time>
      </trkpt>
      <trkpt lat="45.43214" lon="5.76725">
        <ele>400.3</ele>
        <time>2019-04-18T09:49:32Z</time>
      </trkpt>
      <trkpt lat="45.43211" lon="5.76721">
        <ele>400.3</ele>
        <time>2019-04-18T09:49:34Z</time>
      </trkpt>
      <trkpt lat="45.43217" lon="5.76717">
        <ele>400.2</ele>
        <time>2019-04-18T09:49:35Z</time>
      </trkpt>
      <trkpt lat="45.43222" lon="5.76713">
        <ele>400.2</ele>
        <time>2019-04-18T09:49:36Z</time>
      </trkpt>
      <trkpt lat="45.43228" lon="5.76713">
        <ele>400.3</ele>
        <time>2019-04-18T09:49:37Z</time>
      </trkpt>
      <trkpt lat="45.43233" lon="5.76715">
        <ele>400.4</ele>
        <time>2019-04-18T09:49:38Z</time>
      </trkpt>
      <trkpt lat="45.43237" lon="5.76718">
        <ele>400.5</ele>
        <time>2019-04-18T09:49:39Z</time>
      </trkpt>
      <trkpt lat="45.43242" lon="5.76721">
        <ele>400.5</ele>
        <time>2019-04-18T09:49:40Z</time>
      </trkpt>
      <trkpt lat="45.43246" lon="5.76724">
        <ele>400.6</ele>
        <time>2019-04-18T09:49:41Z</time>
      </trkpt>
      <trkpt lat="45.43251" lon="5.76727">
        <ele>400.7</ele>
        <time>2019-04-18T09:49:42Z</time>
      </trkpt>
      <trkpt lat="45.43255" lon="5.76732">
        <ele>400.8</ele>
        <time>2019-04-18T09:49:43Z</time>
      </trkpt>
      <trkpt lat="45.43259" lon="5.76737">
        <ele>400.9</ele>
        <time>2019-04-18T09:49:44Z</time>
      </trkpt>
      <trkpt lat="45.43263" lon="5.76741">
        <ele>400.9</ele>
        <time>2019-04-18T09:49:45Z</time>
      </trkpt>
      <trkpt lat="45.43268" lon="5.76747">
        <ele>401</ele>
        <time>2019-04-18T09:49:46Z</time>
      </trkpt>
      <trkpt lat="45.43272" lon="5.76751">
        <ele>401.1</ele>
        <time>2019-04-18T09:49:47Z</time>
      </trkpt>
      <trkpt lat="45.43275" lon="5.76756">
        <ele>401.3</ele>
        <time>2019-04-18T09:49:48Z</time>
      </trkpt>
      <trkpt lat="45.4328" lon="5.7676">
        <ele>401.4</ele>
        <time>2019-04-18T09:49:49Z</time>
      </trkpt>
      <trkpt lat="45.43283" lon="5.76764">
        <ele>401.5</ele>
        <time>2019-04-18T09:49:50Z</time>
      </trkpt>
      <trkpt lat="45.43287" lon="5.76767">
        <ele>401.5</ele>
        <time>2019-04-18T09:49:51Z</time>
      </trkpt>
      <trkpt lat="45.4329" lon="5.76771">
        <ele>401.6</ele>
        <time>2019-04-18T09:49:52Z</time>
      </trkpt>
      <trkpt lat="45.43293" lon="5.76774">
        <ele>401.7</ele>
        <time>2019-04-18T09:49:53Z</time>
      </trkpt>
      <trkpt lat="45.43296" lon="5.76777">
        <ele>401.7</ele>
        <time>2019-04-18T09:49:54Z</time>
      </trkpt>
      <trkpt lat="45.433" lon="5.76779">
        <ele>401.8</ele>
        <time>2019-04-18T09:49:55Z</time>
      </trkpt>
      <trkpt lat="45.43303" lon="5.76783">
        <ele>401.8</ele>
        <time>2019-04-18T09:49:56Z</time>
      </trkpt>
      <trkpt lat="45.43305" lon="5.76784">
        <ele>401.9</ele>
        <time>2019-04-18T09:49:57Z</time>
      </trkpt>
      <trkpt lat="45.43311" lon="5.76789">
        <ele>402</ele>
        <time>2019-04-18T09:49:59Z</time>
      </trkpt>
      <trkpt lat="45.43316" lon="5.76793">
        <ele>402</ele>
        <time>2019-04-18T09:50:00Z</time>
      </trkpt>
      <trkpt lat="45.43322" lon="5.76797">
        <ele>402.1</ele>
        <time>2019-04-18T09:50:01Z</time>
      </trkpt>
      <trkpt lat="45.43327" lon="5.76801">
        <ele>402.2</ele>
        <time>2019-04-18T09:50:02Z</time>
      </trkpt>
      <trkpt lat="45.43333" lon="5.76805">
        <ele>402.2</ele>
        <time>2019-04-18T09:50:03Z</time>
      </trkpt>
      <trkpt lat="45.43338" lon="5.76809">
        <ele>402.3</ele>
        <time>2019-04-18T09:50:04Z</time>
      </trkpt>
      <trkpt lat="45.43341" lon="5.76813">
        <ele>402.3</ele>
        <time>2019-04-18T09:50:05Z</time>
      </trkpt>
      <trkpt lat="45.43345" lon="5.76817">
        <ele>402.3</ele>
        <time>2019-04-18T09:50:06Z</time>
      </trkpt>
      <trkpt lat="45.43348" lon="5.7682">
        <ele>402.4</ele>
        <time>2019-04-18T09:50:07Z</time>
      </trkpt>
      <trkpt lat="45.43351" lon="5.76823">
        <ele>402.4</ele>
        <time>2019-04-18T09:50:08Z</time>
      </trkpt>
      <trkpt lat="45.43353" lon="5.76826">
        <ele>402.4</ele>
        <time>2019-04-18T09:50:09Z</time>
      </trkpt>
      <trkpt lat="45.43354" lon="5.7683">
        <ele>402.4</ele>
        <time>2019-04-18T09:50:10Z</time>
      </trkpt>
      <trkpt lat="45.43356" lon="5.76834">
        <ele>402.5</ele>
        <time>2019-04-18T09:50:11Z</time>
      </trkpt>
      <trkpt lat="45.43358" lon="5.76838">
        <ele>402.5</ele>
        <time>2019-04-18T09:50:12Z</time>
      </trkpt>
      <trkpt lat="45.43361" lon="5.76843">
        <ele>402.5</ele>
        <time>2019-04-18T09:50:13Z</time>
      </trkpt>
      <trkpt lat="45.43364" lon="5.76848">
        <ele>402.6</ele>
        <time>2019-04-18T09:50:14Z</time>
      </trkpt>
      <trkpt lat="45.43368" lon="5.76853">
        <ele>402.6</ele>
        <time>2019-04-18T09:50:15Z</time>
      </trkpt>
      <trkpt lat="45.43371" lon="5.76858">
        <ele>402.6</ele>
        <time>2019-04-18T09:50:16Z</time>
      </trkpt>
      <trkpt lat="45.43374" lon="5.76862">
        <ele>402.7</ele>
        <time>2019-04-18T09:50:17Z</time>
      </trkpt>
      <trkpt lat="45.43378" lon="5.76866">
        <ele>402.7</ele>
        <time>2019-04-18T09:50:18Z</time>
      </trkpt>
      <trkpt lat="45.4338" lon="5.7687">
        <ele>402.7</ele>
        <time>2019-04-18T09:50:19Z</time>
      </trkpt>
      <trkpt lat="45.43382" lon="5.76873">
        <ele>402.7</ele>
        <time>2019-04-18T09:50:20Z</time>
      </trkpt>
      <trkpt lat="45.43385" lon="5.76877">
        <ele>402.8</ele>
        <time>2019-04-18T09:50:21Z</time>
      </trkpt>
      <trkpt lat="45.43387" lon="5.7688">
        <ele>402.8</ele>
        <time>2019-04-18T09:50:22Z</time>
      </trkpt>
      <trkpt lat="45.43389" lon="5.76884">
        <ele>402.8</ele>
        <time>2019-04-18T09:50:23Z</time>
      </trkpt>
      <trkpt lat="45.43392" lon="5.76887">
        <ele>402.9</ele>
        <time>2019-04-18T09:50:24Z</time>
      </trkpt>
      <trkpt lat="45.43394" lon="5.76891">
        <ele>402.9</ele>
        <time>2019-04-18T09:50:25Z</time>
      </trkpt>
      <trkpt lat="45.43396" lon="5.76895">
        <ele>402.9</ele>
        <time>2019-04-18T09:50:26Z</time>
      </trkpt>
      <trkpt lat="45.43401" lon="5.76902">
        <ele>403</ele>
        <time>2019-04-18T09:50:28Z</time>
      </trkpt>
      <trkpt lat="45.43404" lon="5.76905">
        <ele>403</ele>
        <time>2019-04-18T09:50:29Z</time>
      </trkpt>
      <trkpt lat="45.43407" lon="5.7691">
        <ele>403.1</ele>
        <time>2019-04-18T09:50:30Z</time>
      </trkpt>
      <trkpt lat="45.4341" lon="5.76914">
        <ele>403.1</ele>
        <time>2019-04-18T09:50:31Z</time>
      </trkpt>
      <trkpt lat="45.43412" lon="5.76919">
        <ele>403.1</ele>
        <time>2019-04-18T09:50:32Z</time>
      </trkpt>
      <trkpt lat="45.43415" lon="5.76923">
        <ele>403.2</ele>
        <time>2019-04-18T09:50:33Z</time>
      </trkpt>
      <trkpt lat="45.43418" lon="5.76927">
        <ele>403.2</ele>
        <time>2019-04-18T09:50:34Z</time>
      </trkpt>
      <trkpt lat="45.4342" lon="5.76929">
        <ele>403.2</ele>
        <time>2019-04-18T09:50:35Z</time>
      </trkpt>
      <trkpt lat="45.43426" lon="5.76935">
        <ele>403.3</ele>
        <time>2019-04-18T09:50:38Z</time>
      </trkpt>
      <trkpt lat="45.4343" lon="5.76941">
        <ele>403.3</ele>
        <time>2019-04-18T09:50:39Z</time>
      </trkpt>
      <trkpt lat="45.43434" lon="5.76946">
        <ele>403.4</ele>
        <time>2019-04-18T09:50:40Z</time>
      </trkpt>
      <trkpt lat="45.43438" lon="5.76952">
        <ele>403.5</ele>
        <time>2019-04-18T09:50:41Z</time>
      </trkpt>
      <trkpt lat="45.43442" lon="5.76957">
        <ele>403.5</ele>
        <time>2019-04-18T09:50:42Z</time>
      </trkpt>
      <trkpt lat="45.43446" lon="5.76962">
        <ele>403.6</ele>
        <time>2019-04-18T09:50:43Z</time>
      </trkpt>
      <trkpt lat="45.4345" lon="5.76967">
        <ele>403.6</ele>
        <time>2019-04-18T09:50:44Z</time>
      </trkpt>
      <trkpt lat="45.43454" lon="5.76972">
        <ele>403.7</ele>
        <time>2019-04-18T09:50:45Z</time>
      </trkpt>
      <trkpt lat="45.43458" lon="5.76977">
        <ele>403.8</ele>
        <time>2019-04-18T09:50:46Z</time>
      </trkpt>
      <trkpt lat="45.43462" lon="5.76982">
        <ele>403.8</ele>
        <time>2019-04-18T09:50:47Z</time>
      </trkpt>
      <trkpt lat="45.43464" lon="5.76986">
        <ele>403.9</ele>
        <time>2019-04-18T09:50:48Z</time>
      </trkpt>
      <trkpt lat="45.43467" lon="5.76989">
        <ele>403.9</ele>
        <time>2019-04-18T09:50:49Z</time>
      </trkpt>
      <trkpt lat="45.4347" lon="5.76993">
        <ele>404</ele>
        <time>2019-04-18T09:50:50Z</time>
      </trkpt>
      <trkpt lat="45.43473" lon="5.76997">
        <ele>404</ele>
        <time>2019-04-18T09:50:51Z</time>
      </trkpt>
      <trkpt lat="45.43475" lon="5.77">
        <ele>404.1</ele>
        <time>2019-04-18T09:50:53Z</time>
      </trkpt>
      <trkpt lat="45.43477" lon="5.77003">
        <ele>404.1</ele>
        <time>2019-04-18T09:50:55Z</time>
      </trkpt>
      <trkpt lat="45.4348" lon="5.77009">
        <ele>404.2</ele>
        <time>2019-04-18T09:50:57Z</time>
      </trkpt>
      <trkpt lat="45.43482" lon="5.77012">
        <ele>404.2</ele>
        <time>2019-04-18T09:50:58Z</time>
      </trkpt>
      <trkpt lat="45.43487" lon="5.77017">
        <ele>404.3</ele>
        <time>2019-04-18T09:51:00Z</time>
      </trkpt>
      <trkpt lat="45.43491" lon="5.77025">
        <ele>404.4</ele>
        <time>2019-04-18T09:51:01Z</time>
      </trkpt>
      <trkpt lat="45.43494" lon="5.7703">
        <ele>404.4</ele>
        <time>2019-04-18T09:51:02Z</time>
      </trkpt>
      <trkpt lat="45.43497" lon="5.77035">
        <ele>404.5</ele>
        <time>2019-04-18T09:51:03Z</time>
      </trkpt>
      <trkpt lat="45.43501" lon="5.7704">
        <ele>404.6</ele>
        <time>2019-04-18T09:51:04Z</time>
      </trkpt>
      <trkpt lat="45.43505" lon="5.77045">
        <ele>404.7</ele>
        <time>2019-04-18T09:51:05Z</time>
      </trkpt>
      <trkpt lat="45.43509" lon="5.77049">
        <ele>404.7</ele>
        <time>2019-04-18T09:51:06Z</time>
      </trkpt>
      <trkpt lat="45.43513" lon="5.77054">
        <ele>404.8</ele>
        <time>2019-04-18T09:51:07Z</time>
      </trkpt>
      <trkpt lat="45.43518" lon="5.77059">
        <ele>404.9</ele>
        <time>2019-04-18T09:51:08Z</time>
      </trkpt>
      <trkpt lat="45.43523" lon="5.77065">
        <ele>405</ele>
        <time>2019-04-18T09:51:09Z</time>
      </trkpt>
      <trkpt lat="45.43527" lon="5.7707">
        <ele>405.1</ele>
        <time>2019-04-18T09:51:10Z</time>
      </trkpt>
      <trkpt lat="45.43532" lon="5.77075">
        <ele>405.2</ele>
        <time>2019-04-18T09:51:11Z</time>
      </trkpt>
      <trkpt lat="45.43533" lon="5.7708">
        <ele>405.2</ele>
        <time>2019-04-18T09:51:12Z</time>
      </trkpt>
      <trkpt lat="45.43534" lon="5.77083">
        <ele>405.3</ele>
        <time>2019-04-18T09:51:13Z</time>
      </trkpt>
      <trkpt lat="45.43538" lon="5.77085">
        <ele>405.3</ele>
        <time>2019-04-18T09:51:14Z</time>
      </trkpt>
      <trkpt lat="45.43542" lon="5.77088">
        <ele>405.4</ele>
        <time>2019-04-18T09:51:16Z</time>
      </trkpt>
      <trkpt lat="45.43545" lon="5.77091">
        <ele>405.4</ele>
        <time>2019-04-18T09:51:17Z</time>
      </trkpt>
      <trkpt lat="45.43549" lon="5.77095">
        <ele>405.5</ele>
        <time>2019-04-18T09:51:18Z</time>
      </trkpt>
      <trkpt lat="45.43552" lon="5.77099">
        <ele>405.5</ele>
        <time>2019-04-18T09:51:19Z</time>
      </trkpt>
      <trkpt lat="45.43556" lon="5.77104">
        <ele>405.6</ele>
        <time>2019-04-18T09:51:20Z</time>
      </trkpt>
      <trkpt lat="45.43559" lon="5.77108">
        <ele>405.6</ele>
        <time>2019-04-18T09:51:21Z</time>
      </trkpt>
      <trkpt lat="45.43563" lon="5.77114">
        <ele>405.7</ele>
        <time>2019-04-18T09:51:23Z</time>
      </trkpt>
      <trkpt lat="45.43566" lon="5.77119">
        <ele>405.8</ele>
        <time>2019-04-18T09:51:24Z</time>
      </trkpt>
      <trkpt lat="45.4357" lon="5.77122">
        <ele>405.8</ele>
        <time>2019-04-18T09:51:25Z</time>
      </trkpt>
      <trkpt lat="45.43574" lon="5.77125">
        <ele>405.9</ele>
        <time>2019-04-18T09:51:26Z</time>
      </trkpt>
      <trkpt lat="45.43577" lon="5.77129">
        <ele>405.9</ele>
        <time>2019-04-18T09:51:27Z</time>
      </trkpt>
      <trkpt lat="45.4358" lon="5.77133">
        <ele>406</ele>
        <time>2019-04-18T09:51:28Z</time>
      </trkpt>
      <trkpt lat="45.43582" lon="5.77137">
        <ele>406.1</ele>
        <time>2019-04-18T09:51:29Z</time>
      </trkpt>
      <trkpt lat="45.43585" lon="5.7714">
        <ele>406.1</ele>
        <time>2019-04-18T09:51:30Z</time>
      </trkpt>
      <trkpt lat="45.43587" lon="5.77144">
        <ele>406.2</ele>
        <time>2019-04-18T09:51:31Z</time>
      </trkpt>
      <trkpt lat="45.43589" lon="5.77147">
        <ele>406.2</ele>
        <time>2019-04-18T09:51:32Z</time>
      </trkpt>
      <trkpt lat="45.43591" lon="5.7715">
        <ele>406.3</ele>
        <time>2019-04-18T09:51:33Z</time>
      </trkpt>
      <trkpt lat="45.43593" lon="5.77153">
        <ele>406.3</ele>
        <time>2019-04-18T09:51:34Z</time>
      </trkpt>
      <trkpt lat="45.43597" lon="5.77159">
        <ele>406.4</ele>
        <time>2019-04-18T09:51:36Z</time>
      </trkpt>
      <trkpt lat="45.43599" lon="5.77162">
        <ele>406.5</ele>
        <time>2019-04-18T09:51:37Z</time>
      </trkpt>
      <trkpt lat="45.43601" lon="5.77165">
        <ele>406.5</ele>
        <time>2019-04-18T09:51:38Z</time>
      </trkpt>
      <trkpt lat="45.43603" lon="5.77169">
        <ele>406.6</ele>
        <time>2019-04-18T09:51:39Z</time>
      </trkpt>
      <trkpt lat="45.43605" lon="5.77172">
        <ele>406.6</ele>
        <time>2019-04-18T09:51:40Z</time>
      </trkpt>
      <trkpt lat="45.43608" lon="5.77177">
        <ele>406.7</ele>
        <time>2019-04-18T09:51:42Z</time>
      </trkpt>
      <trkpt lat="45.43612" lon="5.77182">
        <ele>406.8</ele>
        <time>2019-04-18T09:51:44Z</time>
      </trkpt>
      <trkpt lat="45.43615" lon="5.77187">
        <ele>406.9</ele>
        <time>2019-04-18T09:51:46Z</time>
      </trkpt>
      <trkpt lat="45.43619" lon="5.77192">
        <ele>406.9</ele>
        <time>2019-04-18T09:51:48Z</time>
      </trkpt>
      <trkpt lat="45.43621" lon="5.77195">
        <ele>406.9</ele>
        <time>2019-04-18T09:51:49Z</time>
      </trkpt>
      <trkpt lat="45.43624" lon="5.77198">
        <ele>407</ele>
        <time>2019-04-18T09:51:50Z</time>
      </trkpt>
      <trkpt lat="45.43626" lon="5.77201">
        <ele>407</ele>
        <time>2019-04-18T09:51:51Z</time>
      </trkpt>
      <trkpt lat="45.43628" lon="5.77204">
        <ele>407</ele>
        <time>2019-04-18T09:51:52Z</time>
      </trkpt>
      <trkpt lat="45.4363" lon="5.77207">
        <ele>407.1</ele>
        <time>2019-04-18T09:51:53Z</time>
      </trkpt>
      <trkpt lat="45.43633" lon="5.77211">
        <ele>407.1</ele>
        <time>2019-04-18T09:51:54Z</time>
      </trkpt>
      <trkpt lat="45.43635" lon="5.77215">
        <ele>407.1</ele>
        <time>2019-04-18T09:51:55Z</time>
      </trkpt>
      <trkpt lat="45.43637" lon="5.77218">
        <ele>407.2</ele>
        <time>2019-04-18T09:51:56Z</time>
      </trkpt>
      <trkpt lat="45.4364" lon="5.77222">
        <ele>407.2</ele>
        <time>2019-04-18T09:51:57Z</time>
      </trkpt>
      <trkpt lat="45.43643" lon="5.77225">
        <ele>407.2</ele>
        <time>2019-04-18T09:51:58Z</time>
      </trkpt>
      <trkpt lat="45.43648" lon="5.77231">
        <ele>407.3</ele>
        <time>2019-04-18T09:51:59Z</time>
      </trkpt>
      <trkpt lat="45.43651" lon="5.77233">
        <ele>407.3</ele>
        <time>2019-04-18T09:52:00Z</time>
      </trkpt>
      <trkpt lat="45.43656" lon="5.77242">
        <ele>407.3</ele>
        <time>2019-04-18T09:52:01Z</time>
      </trkpt>
      <trkpt lat="45.43659" lon="5.77246">
        <ele>407.3</ele>
        <time>2019-04-18T09:52:02Z</time>
      </trkpt>
      <trkpt lat="45.43663" lon="5.77251">
        <ele>407.3</ele>
        <time>2019-04-18T09:52:03Z</time>
      </trkpt>
      <trkpt lat="45.43665" lon="5.77252">
        <ele>407.3</ele>
        <time>2019-04-18T09:52:04Z</time>
      </trkpt>
      <trkpt lat="45.4367" lon="5.77257">
        <ele>407.3</ele>
        <time>2019-04-18T09:52:05Z</time>
      </trkpt>
      <trkpt lat="45.43675" lon="5.77262">
        <ele>407.3</ele>
        <time>2019-04-18T09:52:06Z</time>
      </trkpt>
      <trkpt lat="45.4368" lon="5.77264">
        <ele>407.3</ele>
        <time>2019-04-18T09:52:07Z</time>
      </trkpt>
      <trkpt lat="45.43685" lon="5.77266">
        <ele>407.2</ele>
        <time>2019-04-18T09:52:08Z</time>
      </trkpt>
      <trkpt lat="45.4369" lon="5.77268">
        <ele>407.2</ele>
        <time>2019-04-18T09:52:09Z</time>
      </trkpt>
      <trkpt lat="45.43695" lon="5.7727">
        <ele>407.2</ele>
        <time>2019-04-18T09:52:10Z</time>
      </trkpt>
      <trkpt lat="45.437" lon="5.77272">
        <ele>407.1</ele>
        <time>2019-04-18T09:52:11Z</time>
      </trkpt>
      <trkpt lat="45.43705" lon="5.77274">
        <ele>407.1</ele>
        <time>2019-04-18T09:52:12Z</time>
      </trkpt>
      <trkpt lat="45.4371" lon="5.77275">
        <ele>407</ele>
        <time>2019-04-18T09:52:13Z</time>
      </trkpt>
      <trkpt lat="45.43714" lon="5.77276">
        <ele>407</ele>
        <time>2019-04-18T09:52:14Z</time>
      </trkpt>
      <trkpt lat="45.4372" lon="5.77278">
        <ele>407</ele>
        <time>2019-04-18T09:52:15Z</time>
      </trkpt>
      <trkpt lat="45.43725" lon="5.77279">
        <ele>406.9</ele>
        <time>2019-04-18T09:52:16Z</time>
      </trkpt>
      <trkpt lat="45.43734" lon="5.77281">
        <ele>406.9</ele>
        <time>2019-04-18T09:52:17Z</time>
      </trkpt>
      <trkpt lat="45.43741" lon="5.77283">
        <ele>406.9</ele>
        <time>2019-04-18T09:52:18Z</time>
      </trkpt>
      <trkpt lat="45.4375" lon="5.77284">
        <ele>406.9</ele>
        <time>2019-04-18T09:52:19Z</time>
      </trkpt>
      <trkpt lat="45.43758" lon="5.77286">
        <ele>406.9</ele>
        <time>2019-04-18T09:52:20Z</time>
      </trkpt>
      <trkpt lat="45.43766" lon="5.77288">
        <ele>407</ele>
        <time>2019-04-18T09:52:21Z</time>
      </trkpt>
      <trkpt lat="45.43773" lon="5.77287">
        <ele>407</ele>
        <time>2019-04-18T09:52:22Z</time>
      </trkpt>
      <trkpt lat="45.43781" lon="5.77288">
        <ele>407.1</ele>
        <time>2019-04-18T09:52:23Z</time>
      </trkpt>
      <trkpt lat="45.43785" lon="5.77286">
        <ele>407.1</ele>
        <time>2019-04-18T09:52:24Z</time>
      </trkpt>
      <trkpt lat="45.43789" lon="5.77285">
        <ele>407.2</ele>
        <time>2019-04-18T09:52:25Z</time>
      </trkpt>
      <trkpt lat="45.43792" lon="5.77284">
        <ele>407.2</ele>
        <time>2019-04-18T09:52:26Z</time>
      </trkpt>
      <trkpt lat="45.43796" lon="5.77284">
        <ele>407.2</ele>
        <time>2019-04-18T09:52:27Z</time>
      </trkpt>
      <trkpt lat="45.438" lon="5.77283">
        <ele>407.3</ele>
        <time>2019-04-18T09:52:28Z</time>
      </trkpt>
      <trkpt lat="45.43804" lon="5.77284">
        <ele>407.3</ele>
        <time>2019-04-18T09:52:29Z</time>
      </trkpt>
      <trkpt lat="45.43808" lon="5.77284">
        <ele>407.3</ele>
        <time>2019-04-18T09:52:30Z</time>
      </trkpt>
      <trkpt lat="45.43812" lon="5.77285">
        <ele>407.4</ele>
        <time>2019-04-18T09:52:31Z</time>
      </trkpt>
      <trkpt lat="45.43816" lon="5.77285">
        <ele>407.4</ele>
        <time>2019-04-18T09:52:32Z</time>
      </trkpt>
      <trkpt lat="45.43819" lon="5.77285">
        <ele>407.4</ele>
        <time>2019-04-18T09:52:33Z</time>
      </trkpt>
      <trkpt lat="45.43822" lon="5.77287">
        <ele>407.4</ele>
        <time>2019-04-18T09:52:34Z</time>
      </trkpt>
      <trkpt lat="45.43825" lon="5.77289">
        <ele>407.4</ele>
        <time>2019-04-18T09:52:35Z</time>
      </trkpt>
      <trkpt lat="45.43829" lon="5.7729">
        <ele>407.4</ele>
        <time>2019-04-18T09:52:36Z</time>
      </trkpt>
      <trkpt lat="45.43833" lon="5.77291">
        <ele>407.4</ele>
        <time>2019-04-18T09:52:37Z</time>
      </trkpt>
      <trkpt lat="45.43837" lon="5.77293">
        <ele>407.3</ele>
        <time>2019-04-18T09:52:38Z</time>
      </trkpt>
      <trkpt lat="45.43841" lon="5.77295">
        <ele>407.3</ele>
        <time>2019-04-18T09:52:39Z</time>
      </trkpt>
      <trkpt lat="45.43845" lon="5.77297">
        <ele>407.3</ele>
        <time>2019-04-18T09:52:40Z</time>
      </trkpt>
      <trkpt lat="45.43846" lon="5.77303">
        <ele>407.4</ele>
        <time>2019-04-18T09:52:42Z</time>
      </trkpt>
      <trkpt lat="45.43849" lon="5.77307">
        <ele>407.4</ele>
        <time>2019-04-18T09:52:43Z</time>
      </trkpt>
      <trkpt lat="45.43853" lon="5.77311">
        <ele>407.4</ele>
        <time>2019-04-18T09:52:44Z</time>
      </trkpt>
      <trkpt lat="45.43856" lon="5.77313">
        <ele>407.4</ele>
        <time>2019-04-18T09:52:45Z</time>
      </trkpt>
      <trkpt lat="45.4386" lon="5.77315">
        <ele>407.4</ele>
        <time>2019-04-18T09:52:46Z</time>
      </trkpt>
      <trkpt lat="45.43863" lon="5.77317">
        <ele>407.3</ele>
        <time>2019-04-18T09:52:47Z</time>
      </trkpt>
      <trkpt lat="45.43866" lon="5.77318">
        <ele>407.3</ele>
        <time>2019-04-18T09:52:48Z</time>
      </trkpt>
      <trkpt lat="45.43868" lon="5.77321">
        <ele>407.3</ele>
        <time>2019-04-18T09:52:49Z</time>
      </trkpt>
      <trkpt lat="45.4387" lon="5.77324">
        <ele>407.3</ele>
        <time>2019-04-18T09:52:50Z</time>
      </trkpt>
      <trkpt lat="45.43873" lon="5.77335">
        <ele>407.3</ele>
        <time>2019-04-18T09:52:51Z</time>
      </trkpt>
      <trkpt lat="45.43875" lon="5.77343">
        <ele>408</ele>
        <time>2019-04-18T09:52:52Z</time>
      </trkpt>
      <trkpt lat="45.43875" lon="5.77349">
        <ele>408.3</ele>
        <time>2019-04-18T09:52:53Z</time>
      </trkpt>
      <trkpt lat="45.43875" lon="5.77355">
        <ele>408.8</ele>
        <time>2019-04-18T09:52:54Z</time>
      </trkpt>
      <trkpt lat="45.43875" lon="5.77361">
        <ele>408.9</ele>
        <time>2019-04-18T09:52:55Z</time>
      </trkpt>
      <trkpt lat="45.43876" lon="5.77366">
        <ele>408.9</ele>
        <time>2019-04-18T09:52:56Z</time>
      </trkpt>
      <trkpt lat="45.43876" lon="5.77371">
        <ele>408.9</ele>
        <time>2019-04-18T09:52:57Z</time>
      </trkpt>
      <trkpt lat="45.43876" lon="5.77376">
        <ele>409.2</ele>
        <time>2019-04-18T09:52:58Z</time>
      </trkpt>
      <trkpt lat="45.43877" lon="5.7738">
        <ele>409.3</ele>
        <time>2019-04-18T09:52:59Z</time>
      </trkpt>
      <trkpt lat="45.43872" lon="5.77388">
        <ele>409.5</ele>
        <time>2019-04-18T09:53:00Z</time>
      </trkpt>
      <trkpt lat="45.43869" lon="5.77392">
        <ele>409.6</ele>
        <time>2019-04-18T09:53:01Z</time>
      </trkpt>
      <trkpt lat="45.43868" lon="5.77398">
        <ele>409.7</ele>
        <time>2019-04-18T09:53:02Z</time>
      </trkpt>
      <trkpt lat="45.43865" lon="5.77404">
        <ele>409.9</ele>
        <time>2019-04-18T09:53:03Z</time>
      </trkpt>
      <trkpt lat="45.43861" lon="5.77411">
        <ele>410.2</ele>
        <time>2019-04-18T09:53:04Z</time>
      </trkpt>
      <trkpt lat="45.43861" lon="5.77416">
        <ele>410.2</ele>
        <time>2019-04-18T09:53:05Z</time>
      </trkpt>
      <trkpt lat="45.43859" lon="5.77421">
        <ele>410.3</ele>
        <time>2019-04-18T09:53:07Z</time>
      </trkpt>
      <trkpt lat="45.43856" lon="5.77424">
        <ele>410.4</ele>
        <time>2019-04-18T09:53:10Z</time>
      </trkpt>
      <trkpt lat="45.43853" lon="5.77421">
        <ele>410.6</ele>
        <time>2019-04-18T09:53:12Z</time>
      </trkpt>
      <trkpt lat="45.43849" lon="5.77418">
        <ele>410.7</ele>
        <time>2019-04-18T09:53:14Z</time>
      </trkpt>
      <trkpt lat="45.43846" lon="5.77417">
        <ele>410.7</ele>
        <time>2019-04-18T09:53:15Z</time>
      </trkpt>
      <trkpt lat="45.43842" lon="5.77415">
        <ele>410.7</ele>
        <time>2019-04-18T09:53:16Z</time>
      </trkpt>
      <trkpt lat="45.43838" lon="5.77413">
        <ele>410.8</ele>
        <time>2019-04-18T09:53:17Z</time>
      </trkpt>
      <trkpt lat="45.43834" lon="5.77412">
        <ele>410.8</ele>
        <time>2019-04-18T09:53:18Z</time>
      </trkpt>
      <trkpt lat="45.43832" lon="5.7741">
        <ele>410.8</ele>
        <time>2019-04-18T09:53:19Z</time>
      </trkpt>
      <trkpt lat="45.43829" lon="5.77408">
        <ele>410.9</ele>
        <time>2019-04-18T09:53:20Z</time>
      </trkpt>
      <trkpt lat="45.43824" lon="5.77409">
        <ele>410.9</ele>
        <time>2019-04-18T09:53:22Z</time>
      </trkpt>
      <trkpt lat="45.43821" lon="5.77411">
        <ele>411</ele>
        <time>2019-04-18T09:53:23Z</time>
      </trkpt>
      <trkpt lat="45.43818" lon="5.77413">
        <ele>411</ele>
        <time>2019-04-18T09:53:24Z</time>
      </trkpt>
      <trkpt lat="45.43814" lon="5.77413">
        <ele>411</ele>
        <time>2019-04-18T09:53:26Z</time>
      </trkpt>
      <trkpt lat="45.43812" lon="5.7741">
        <ele>411</ele>
        <time>2019-04-18T09:53:51Z</time>
      </trkpt>
    </trkseg>
  </trk>
</gpx>